<?xml version='1.0' encoding='UTF-8'?><gpx version="1.1" creator="JPX - https://github.com/jenetics/jpx" xmlns="http://www.topografix.com/GPX/1/1"><trk><trkseg><trkpt lat="42.3694821" lon="13.3876955"><ele>730.0000000000001</ele><time>2026-04-26T14:44:01.89Z</time></trkpt><trkpt lat="42.3694452" lon="13.3876073"><ele>730.0</ele><time>2026-04-26T14:44:03.889Z</time></trkpt><trkpt lat="42.3693876" lon="13.3875722"><ele>730.0</ele><time>2026-04-26T14:44:31.89Z</time></trkpt><trkpt lat="42.3694741" lon="13.3875894"><ele>730.0</ele><time>2026-04-26T14:44:51.888Z</time></trkpt><trkpt lat="42.3694317" lon="13.3876583"><ele>730.0</ele><time>2026-04-26T14:45:30.889Z</time></trkpt><trkpt lat="42.3693677" lon="13.38769"><ele>730.0000000000001</ele><time>2026-04-26T14:46:01.889Z</time></trkpt><trkpt lat="42.3693013" lon="13.3877037"><ele>730.0</ele><time>2026-04-26T14:46:27.888Z</time></trkpt><trkpt lat="42.3692452" lon="13.3877541"><ele>730.0</ele><time>2026-04-26T14:46:29.889Z</time></trkpt><trkpt lat="42.3691778" lon="13.3878144"><ele>730.0</ele><time>2026-04-26T14:46:31.889Z</time></trkpt><trkpt lat="42.3691054" lon="13.3878591"><ele>730.0</ele><time>2026-04-26T14:46:33.89Z</time></trkpt><trkpt lat="42.3690289" lon="13.3879151"><ele>730.0</ele><time>2026-04-26T14:46:35.889Z</time></trkpt><trkpt lat="42.3689665" lon="13.3879612"><ele>730.0</ele><time>2026-04-26T14:46:36.888Z</time></trkpt><trkpt lat="42.3689002" lon="13.3880137"><ele>730.0</ele><time>2026-04-26T14:46:37.889Z</time></trkpt><trkpt lat="42.3688326" lon="13.3880742"><ele>727.5714285714287</ele><time>2026-04-26T14:46:38.89Z</time></trkpt><trkpt lat="42.3687667" lon="13.3881401"><ele>725.1428571428571</ele><time>2026-04-26T14:46:39.889Z</time></trkpt><trkpt lat="42.3687009" lon="13.3882009"><ele>722.7142857142858</ele><time>2026-04-26T14:46:40.89Z</time></trkpt><trkpt lat="42.3686426" lon="13.3882631"><ele>720.2857142857143</ele><time>2026-04-26T14:46:41.888Z</time></trkpt><trkpt lat="42.3685861" lon="13.3883288"><ele>717.8571428571429</ele><time>2026-04-26T14:46:42.889Z</time></trkpt><trkpt lat="42.368534" lon="13.3883885"><ele>715.4285714285714</ele><time>2026-04-26T14:46:43.888Z</time></trkpt><trkpt lat="42.3684805" lon="13.3884446"><ele>713.0</ele><time>2026-04-26T14:46:44.888Z</time></trkpt><trkpt lat="42.3684252" lon="13.3885065"><ele>713.0</ele><time>2026-04-26T14:46:45.889Z</time></trkpt><trkpt lat="42.368368" lon="13.3885677"><ele>713.0</ele><time>2026-04-26T14:46:46.889Z</time></trkpt><trkpt lat="42.3683136" lon="13.3886204"><ele>713.0</ele><time>2026-04-26T14:46:47.889Z</time></trkpt><trkpt lat="42.3682609" lon="13.3886708"><ele>713.0</ele><time>2026-04-26T14:46:48.889Z</time></trkpt><trkpt lat="42.368167" lon="13.3887742"><ele>713.0</ele><time>2026-04-26T14:46:50.889Z</time></trkpt><trkpt lat="42.3680655" lon="13.3888298"><ele>713.0</ele><time>2026-04-26T14:46:52.889Z</time></trkpt><trkpt lat="42.3679602" lon="13.3888529"><ele>711.8333333333333</ele><time>2026-04-26T14:46:54.888Z</time></trkpt><trkpt lat="42.3678892" lon="13.388798"><ele>710.6666666666666</ele><time>2026-04-26T14:46:55.889Z</time></trkpt><trkpt lat="42.367826" lon="13.3887268"><ele>709.5</ele><time>2026-04-26T14:46:56.89Z</time></trkpt><trkpt lat="42.3677483" lon="13.3886526"><ele>708.3333333333334</ele><time>2026-04-26T14:46:57.889Z</time></trkpt><trkpt lat="42.3676637" lon="13.3885809"><ele>707.1666666666667</ele><time>2026-04-26T14:46:58.889Z</time></trkpt><trkpt lat="42.3675878" lon="13.3885252"><ele>706.0</ele><time>2026-04-26T14:46:59.889Z</time></trkpt><trkpt lat="42.3675179" lon="13.3884659"><ele>706.0</ele><time>2026-04-26T14:47:00.888Z</time></trkpt><trkpt lat="42.3674529" lon="13.3884063"><ele>706.0</ele><time>2026-04-26T14:47:01.889Z</time></trkpt><trkpt lat="42.3673879" lon="13.3883585"><ele>706.0</ele><time>2026-04-26T14:47:02.889Z</time></trkpt><trkpt lat="42.3672998" lon="13.3882687"><ele>706.0</ele><time>2026-04-26T14:47:04.889Z</time></trkpt><trkpt lat="42.3672056" lon="13.388184"><ele>706.0</ele><time>2026-04-26T14:47:06.888Z</time></trkpt><trkpt lat="42.3671459" lon="13.3881338"><ele>706.0</ele><time>2026-04-26T14:47:07.89Z</time></trkpt><trkpt lat="42.3670807" lon="13.3880893"><ele>704.0</ele><time>2026-04-26T14:47:08.89Z</time></trkpt><trkpt lat="42.3670137" lon="13.3880233"><ele>702.0</ele><time>2026-04-26T14:47:09.889Z</time></trkpt><trkpt lat="42.3669437" lon="13.387952"><ele>700.0</ele><time>2026-04-26T14:47:10.888Z</time></trkpt><trkpt lat="42.3668763" lon="13.387891"><ele>698.0</ele><time>2026-04-26T14:47:11.89Z</time></trkpt><trkpt lat="42.3668041" lon="13.3878302"><ele>696.0</ele><time>2026-04-26T14:47:12.888Z</time></trkpt><trkpt lat="42.3667283" lon="13.3877834"><ele>694.0</ele><time>2026-04-26T14:47:13.889Z</time></trkpt><trkpt lat="42.3666493" lon="13.3877324"><ele>694.0</ele><time>2026-04-26T14:47:14.889Z</time></trkpt><trkpt lat="42.3665711" lon="13.3876884"><ele>694.0</ele><time>2026-04-26T14:47:15.889Z</time></trkpt><trkpt lat="42.3664959" lon="13.3876349"><ele>694.0</ele><time>2026-04-26T14:47:16.888Z</time></trkpt><trkpt lat="42.3664171" lon="13.3875919"><ele>694.0</ele><time>2026-04-26T14:47:17.889Z</time></trkpt><trkpt lat="42.3663374" lon="13.3875492"><ele>694.0</ele><time>2026-04-26T14:47:18.888Z</time></trkpt><trkpt lat="42.3662568" lon="13.3875127"><ele>694.0</ele><time>2026-04-26T14:47:19.889Z</time></trkpt><trkpt lat="42.3661759" lon="13.3874764"><ele>692.6666666666667</ele><time>2026-04-26T14:47:20.89Z</time></trkpt><trkpt lat="42.366099" lon="13.3874344"><ele>691.3333333333334</ele><time>2026-04-26T14:47:21.889Z</time></trkpt><trkpt lat="42.3660216" lon="13.3874002"><ele>690.0</ele><time>2026-04-26T14:47:22.889Z</time></trkpt><trkpt lat="42.365945" lon="13.3873625"><ele>688.6666666666666</ele><time>2026-04-26T14:47:23.888Z</time></trkpt><trkpt lat="42.3658657" lon="13.3873238"><ele>687.3333333333333</ele><time>2026-04-26T14:47:24.889Z</time></trkpt><trkpt lat="42.365788" lon="13.3872817"><ele>686.0</ele><time>2026-04-26T14:47:25.889Z</time></trkpt><trkpt lat="42.3657104" lon="13.3872337"><ele>686.0</ele><time>2026-04-26T14:47:26.89Z</time></trkpt><trkpt lat="42.3656388" lon="13.3871947"><ele>686.0</ele><time>2026-04-26T14:47:27.889Z</time></trkpt><trkpt lat="42.3655708" lon="13.3871586"><ele>686.0</ele><time>2026-04-26T14:47:28.889Z</time></trkpt><trkpt lat="42.3655028" lon="13.3871159"><ele>686.0</ele><time>2026-04-26T14:47:29.889Z</time></trkpt><trkpt lat="42.3654341" lon="13.3870713"><ele>686.0</ele><time>2026-04-26T14:47:30.888Z</time></trkpt><trkpt lat="42.3653694" lon="13.3870287"><ele>686.0</ele><time>2026-04-26T14:47:31.888Z</time></trkpt><trkpt lat="42.3652849" lon="13.3869792"><ele>685.3333333333333</ele><time>2026-04-26T14:47:33.889Z</time></trkpt><trkpt lat="42.3651997" lon="13.3869862"><ele>684.6666666666666</ele><time>2026-04-26T14:47:36.888Z</time></trkpt><trkpt lat="42.365082" lon="13.3869938"><ele>684.0</ele><time>2026-04-26T14:47:38.889Z</time></trkpt><trkpt lat="42.3650021" lon="13.3869934"><ele>683.3333333333334</ele><time>2026-04-26T14:47:39.889Z</time></trkpt><trkpt lat="42.364927" lon="13.3869921"><ele>682.6666666666667</ele><time>2026-04-26T14:47:40.888Z</time></trkpt><trkpt lat="42.3648567" lon="13.3869874"><ele>682.0</ele><time>2026-04-26T14:47:41.89Z</time></trkpt><trkpt lat="42.3647459" lon="13.3869801"><ele>681.1666666666667</ele><time>2026-04-26T14:47:43.89Z</time></trkpt><trkpt lat="42.3646599" lon="13.3869651"><ele>680.3333333333334</ele><time>2026-04-26T14:47:45.888Z</time></trkpt><trkpt lat="42.3645829" lon="13.3869626"><ele>679.5</ele><time>2026-04-26T14:47:55.89Z</time></trkpt><trkpt lat="42.3644916" lon="13.3869639"><ele>678.6666666666666</ele><time>2026-04-26T14:47:59.889Z</time></trkpt><trkpt lat="42.3643976" lon="13.3870458"><ele>677.8333333333333</ele><time>2026-04-26T14:48:01.889Z</time></trkpt><trkpt lat="42.3643709" lon="13.3871255"><ele>677.0</ele><time>2026-04-26T14:48:02.888Z</time></trkpt><trkpt lat="42.3643472" lon="13.38723"><ele>677.0</ele><time>2026-04-26T14:48:03.889Z</time></trkpt><trkpt lat="42.364323" lon="13.3873549"><ele>677.0</ele><time>2026-04-26T14:48:04.888Z</time></trkpt><trkpt lat="42.364301" lon="13.3874866"><ele>677.0</ele><time>2026-04-26T14:48:05.888Z</time></trkpt><trkpt lat="42.3642771" lon="13.387632"><ele>677.0</ele><time>2026-04-26T14:48:06.89Z</time></trkpt><trkpt lat="42.3642512" lon="13.3877868"><ele>677.0</ele><time>2026-04-26T14:48:07.889Z</time></trkpt><trkpt lat="42.3642242" lon="13.3879516"><ele>676.5</ele><time>2026-04-26T14:48:08.889Z</time></trkpt><trkpt lat="42.3641997" lon="13.3881178"><ele>676.0</ele><time>2026-04-26T14:48:09.889Z</time></trkpt><trkpt lat="42.3641718" lon="13.3882955"><ele>675.5</ele><time>2026-04-26T14:48:10.889Z</time></trkpt><trkpt lat="42.364144" lon="13.3884725"><ele>675.0</ele><time>2026-04-26T14:48:11.888Z</time></trkpt><trkpt lat="42.3641179" lon="13.3886395"><ele>675.0</ele><time>2026-04-26T14:48:12.888Z</time></trkpt><trkpt lat="42.3640914" lon="13.3887984"><ele>675.0</ele><time>2026-04-26T14:48:13.888Z</time></trkpt><trkpt lat="42.3640667" lon="13.3889499"><ele>675.0</ele><time>2026-04-26T14:48:14.888Z</time></trkpt><trkpt lat="42.3640408" lon="13.3890925"><ele>675.0</ele><time>2026-04-26T14:48:15.889Z</time></trkpt><trkpt lat="42.3640105" lon="13.3892295"><ele>675.0</ele><time>2026-04-26T14:48:16.889Z</time></trkpt><trkpt lat="42.363977" lon="13.3893532"><ele>676.0</ele><time>2026-04-26T14:48:17.889Z</time></trkpt><trkpt lat="42.3639383" lon="13.3894747"><ele>677.0</ele><time>2026-04-26T14:48:18.888Z</time></trkpt><trkpt lat="42.3639116" lon="13.3896064"><ele>678.0</ele><time>2026-04-26T14:48:19.889Z</time></trkpt><trkpt lat="42.3639004" lon="13.3897507"><ele>679.0</ele><time>2026-04-26T14:48:20.889Z</time></trkpt><trkpt lat="42.3638832" lon="13.3899041"><ele>680.0</ele><time>2026-04-26T14:48:21.889Z</time></trkpt><trkpt lat="42.3638573" lon="13.3900711"><ele>681.25</ele><time>2026-04-26T14:48:22.889Z</time></trkpt><trkpt lat="42.3638265" lon="13.3902485"><ele>682.5</ele><time>2026-04-26T14:48:23.889Z</time></trkpt><trkpt lat="42.3637968" lon="13.3904248"><ele>683.75</ele><time>2026-04-26T14:48:24.889Z</time></trkpt><trkpt lat="42.3637654" lon="13.3906079"><ele>685.0</ele><time>2026-04-26T14:48:25.889Z</time></trkpt><trkpt lat="42.363736" lon="13.3907959"><ele>686.75</ele><time>2026-04-26T14:48:26.889Z</time></trkpt><trkpt lat="42.3636706" lon="13.3909792"><ele>688.5</ele><time>2026-04-26T14:48:27.89Z</time></trkpt><trkpt lat="42.3636179" lon="13.3911697"><ele>690.25</ele><time>2026-04-26T14:48:28.89Z</time></trkpt><trkpt lat="42.3635633" lon="13.391357"><ele>692.0</ele><time>2026-04-26T14:48:29.89Z</time></trkpt><trkpt lat="42.3635096" lon="13.3915367"><ele>692.5</ele><time>2026-04-26T14:48:30.888Z</time></trkpt><trkpt lat="42.3635216" lon="13.3917205"><ele>693.0</ele><time>2026-04-26T14:48:31.888Z</time></trkpt><trkpt lat="42.3635459" lon="13.3918936"><ele>693.5</ele><time>2026-04-26T14:48:32.888Z</time></trkpt><trkpt lat="42.3636049" lon="13.3920508"><ele>694.0</ele><time>2026-04-26T14:48:33.889Z</time></trkpt><trkpt lat="42.3636989" lon="13.3921947"><ele>694.0</ele><time>2026-04-26T14:48:34.889Z</time></trkpt><trkpt lat="42.363819" lon="13.3923215"><ele>694.0</ele><time>2026-04-26T14:48:35.889Z</time></trkpt><trkpt lat="42.3639499" lon="13.3924442"><ele>694.0</ele><time>2026-04-26T14:48:36.889Z</time></trkpt><trkpt lat="42.3640778" lon="13.3925663"><ele>696.3333333333334</ele><time>2026-04-26T14:48:37.89Z</time></trkpt><trkpt lat="42.3642049" lon="13.3926876"><ele>698.6666666666666</ele><time>2026-04-26T14:48:38.889Z</time></trkpt><trkpt lat="42.3643387" lon="13.3928142"><ele>701.0</ele><time>2026-04-26T14:48:39.888Z</time></trkpt><trkpt lat="42.3644681" lon="13.3929458"><ele>700.0</ele><time>2026-04-26T14:48:40.889Z</time></trkpt><trkpt lat="42.3645936" lon="13.3930786"><ele>699.0</ele><time>2026-04-26T14:48:41.889Z</time></trkpt><trkpt lat="42.3647066" lon="13.3932268"><ele>698.0</ele><time>2026-04-26T14:48:42.89Z</time></trkpt><trkpt lat="42.3647897" lon="13.3933904"><ele>699.25</ele><time>2026-04-26T14:48:43.889Z</time></trkpt><trkpt lat="42.3648424" lon="13.3935691"><ele>700.5</ele><time>2026-04-26T14:48:44.888Z</time></trkpt><trkpt lat="42.3648661" lon="13.3937597"><ele>701.75</ele><time>2026-04-26T14:48:45.888Z</time></trkpt><trkpt lat="42.3648636" lon="13.3939578"><ele>703.0</ele><time>2026-04-26T14:48:46.888Z</time></trkpt><trkpt lat="42.3648335" lon="13.3941543"><ele>703.0</ele><time>2026-04-26T14:48:47.888Z</time></trkpt><trkpt lat="42.3647798" lon="13.3943385"><ele>703.0</ele><time>2026-04-26T14:48:48.888Z</time></trkpt><trkpt lat="42.3647039" lon="13.3944969"><ele>703.0</ele><time>2026-04-26T14:48:49.889Z</time></trkpt><trkpt lat="42.3646045" lon="13.3946256"><ele>703.0</ele><time>2026-04-26T14:48:50.889Z</time></trkpt><trkpt lat="42.364482" lon="13.3947247"><ele>705.0</ele><time>2026-04-26T14:48:51.89Z</time></trkpt><trkpt lat="42.3643437" lon="13.3947901"><ele>707.0</ele><time>2026-04-26T14:48:52.889Z</time></trkpt><trkpt lat="42.3641955" lon="13.3948243"><ele>709.0</ele><time>2026-04-26T14:48:53.889Z</time></trkpt><trkpt lat="42.3640392" lon="13.3948453"><ele>709.0</ele><time>2026-04-26T14:48:54.89Z</time></trkpt><trkpt lat="42.363885" lon="13.3948652"><ele>709.0</ele><time>2026-04-26T14:48:55.89Z</time></trkpt><trkpt lat="42.3637348" lon="13.3948984"><ele>709.0</ele><time>2026-04-26T14:48:56.889Z</time></trkpt><trkpt lat="42.3635776" lon="13.3949273"><ele>709.25</ele><time>2026-04-26T14:48:57.89Z</time></trkpt><trkpt lat="42.3634248" lon="13.3949363"><ele>709.5</ele><time>2026-04-26T14:48:58.89Z</time></trkpt><trkpt lat="42.3632849" lon="13.394948"><ele>709.75</ele><time>2026-04-26T14:48:59.89Z</time></trkpt><trkpt lat="42.3631677" lon="13.3949735"><ele>710.0</ele><time>2026-04-26T14:49:00.89Z</time></trkpt><trkpt lat="42.3630619" lon="13.3950099"><ele>710.8333333333333</ele><time>2026-04-26T14:49:01.888Z</time></trkpt><trkpt lat="42.3629798" lon="13.3950558"><ele>711.6666666666666</ele><time>2026-04-26T14:49:02.889Z</time></trkpt><trkpt lat="42.3629037" lon="13.3951221"><ele>712.5</ele><time>2026-04-26T14:49:03.889Z</time></trkpt><trkpt lat="42.3628419" lon="13.3952063"><ele>713.3333333333334</ele><time>2026-04-26T14:49:04.887Z</time></trkpt><trkpt lat="42.3627968" lon="13.3953031"><ele>714.1666666666667</ele><time>2026-04-26T14:49:05.888Z</time></trkpt><trkpt lat="42.3627518" lon="13.395386"><ele>715.0</ele><time>2026-04-26T14:49:06.888Z</time></trkpt><trkpt lat="42.3627609" lon="13.3955475"><ele>715.25</ele><time>2026-04-26T14:49:07.887Z</time></trkpt><trkpt lat="42.3627649" lon="13.3957015"><ele>715.5</ele><time>2026-04-26T14:49:08.888Z</time></trkpt><trkpt lat="42.3627705" lon="13.3958777"><ele>715.75</ele><time>2026-04-26T14:49:09.887Z</time></trkpt><trkpt lat="42.3627693" lon="13.3960673"><ele>716.0</ele><time>2026-04-26T14:49:10.887Z</time></trkpt><trkpt lat="42.3627602" lon="13.3962612"><ele>715.75</ele><time>2026-04-26T14:49:11.887Z</time></trkpt><trkpt lat="42.3627252" lon="13.3964529"><ele>715.5</ele><time>2026-04-26T14:49:12.888Z</time></trkpt><trkpt lat="42.3626655" lon="13.3966277"><ele>715.25</ele><time>2026-04-26T14:49:13.888Z</time></trkpt><trkpt lat="42.3625951" lon="13.3967893"><ele>715.0</ele><time>2026-04-26T14:49:14.889Z</time></trkpt><trkpt lat="42.3625342" lon="13.3969478"><ele>715.0</ele><time>2026-04-26T14:49:15.889Z</time></trkpt><trkpt lat="42.3624986" lon="13.3971134"><ele>715.0</ele><time>2026-04-26T14:49:16.888Z</time></trkpt><trkpt lat="42.3625006" lon="13.3972836"><ele>715.0</ele><time>2026-04-26T14:49:17.889Z</time></trkpt><trkpt lat="42.3625441" lon="13.3974413"><ele>715.0</ele><time>2026-04-26T14:49:18.887Z</time></trkpt><trkpt lat="42.3626218" lon="13.3975652"><ele>715.75</ele><time>2026-04-26T14:49:19.887Z</time></trkpt><trkpt lat="42.362727" lon="13.3976672"><ele>716.5</ele><time>2026-04-26T14:49:20.887Z</time></trkpt><trkpt lat="42.3628301" lon="13.397769"><ele>717.25</ele><time>2026-04-26T14:49:21.888Z</time></trkpt><trkpt lat="42.3629808" lon="13.3978392"><ele>718.0</ele><time>2026-04-26T14:49:22.887Z</time></trkpt><trkpt lat="42.3631189" lon="13.3979291"><ele>721.6666666666667</ele><time>2026-04-26T14:49:23.888Z</time></trkpt><trkpt lat="42.3632685" lon="13.3980128"><ele>725.3333333333334</ele><time>2026-04-26T14:49:24.888Z</time></trkpt><trkpt lat="42.3634213" lon="13.398093"><ele>729.0</ele><time>2026-04-26T14:49:25.889Z</time></trkpt><trkpt lat="42.3635711" lon="13.3981642"><ele>729.0</ele><time>2026-04-26T14:49:26.888Z</time></trkpt><trkpt lat="42.3637112" lon="13.3982472"><ele>729.0</ele><time>2026-04-26T14:49:27.887Z</time></trkpt><trkpt lat="42.363834" lon="13.3983541"><ele>729.0</ele><time>2026-04-26T14:49:28.887Z</time></trkpt><trkpt lat="42.363917" lon="13.3984874"><ele>729.0</ele><time>2026-04-26T14:49:29.888Z</time></trkpt><trkpt lat="42.3639589" lon="13.3986454"><ele>729.5</ele><time>2026-04-26T14:49:30.888Z</time></trkpt><trkpt lat="42.3639532" lon="13.3988041"><ele>730.0</ele><time>2026-04-26T14:49:31.888Z</time></trkpt><trkpt lat="42.3639085" lon="13.3989516"><ele>730.5</ele><time>2026-04-26T14:49:32.888Z</time></trkpt><trkpt lat="42.3638221" lon="13.3990665"><ele>731.0</ele><time>2026-04-26T14:49:33.887Z</time></trkpt><trkpt lat="42.3637072" lon="13.3991372"><ele>731.0</ele><time>2026-04-26T14:49:34.888Z</time></trkpt><trkpt lat="42.3635808" lon="13.3991643"><ele>731.0</ele><time>2026-04-26T14:49:35.888Z</time></trkpt><trkpt lat="42.3634461" lon="13.3991794"><ele>731.0</ele><time>2026-04-26T14:49:36.887Z</time></trkpt><trkpt lat="42.3633116" lon="13.3991975"><ele>731.0</ele><time>2026-04-26T14:49:37.888Z</time></trkpt><trkpt lat="42.3631947" lon="13.3992164"><ele>731.0</ele><time>2026-04-26T14:49:38.888Z</time></trkpt><trkpt lat="42.3630913" lon="13.399238"><ele>731.0</ele><time>2026-04-26T14:49:39.887Z</time></trkpt><trkpt lat="42.3630033" lon="13.3992668"><ele>731.0</ele><time>2026-04-26T14:49:40.888Z</time></trkpt><trkpt lat="42.3629302" lon="13.3993035"><ele>731.0</ele><time>2026-04-26T14:49:41.888Z</time></trkpt><trkpt lat="42.3628608" lon="13.3993578"><ele>731.0</ele><time>2026-04-26T14:49:42.889Z</time></trkpt><trkpt lat="42.3627825" lon="13.3994277"><ele>731.0</ele><time>2026-04-26T14:49:43.889Z</time></trkpt><trkpt lat="42.3627109" lon="13.3995117"><ele>732.0</ele><time>2026-04-26T14:49:44.888Z</time></trkpt><trkpt lat="42.3626449" lon="13.3996221"><ele>733.0</ele><time>2026-04-26T14:49:45.889Z</time></trkpt><trkpt lat="42.3625875" lon="13.3997675"><ele>734.0</ele><time>2026-04-26T14:49:46.887Z</time></trkpt><trkpt lat="42.3625282" lon="13.3999259"><ele>735.0</ele><time>2026-04-26T14:49:47.887Z</time></trkpt><trkpt lat="42.3624686" lon="13.4000958"><ele>736.0</ele><time>2026-04-26T14:49:48.888Z</time></trkpt><trkpt lat="42.3624085" lon="13.4002678"><ele>737.0</ele><time>2026-04-26T14:49:49.887Z</time></trkpt><trkpt lat="42.3623511" lon="13.4004301"><ele>738.0</ele><time>2026-04-26T14:49:50.887Z</time></trkpt><trkpt lat="42.3622978" lon="13.4005725"><ele>739.0</ele><time>2026-04-26T14:49:51.887Z</time></trkpt><trkpt lat="42.3622458" lon="13.4007135"><ele>738.75</ele><time>2026-04-26T14:49:52.888Z</time></trkpt><trkpt lat="42.3622013" lon="13.4008666"><ele>738.5</ele><time>2026-04-26T14:49:53.888Z</time></trkpt><trkpt lat="42.3621784" lon="13.4010205"><ele>738.25</ele><time>2026-04-26T14:49:54.888Z</time></trkpt><trkpt lat="42.362171" lon="13.4011704"><ele>738.0</ele><time>2026-04-26T14:49:55.887Z</time></trkpt><trkpt lat="42.3622129" lon="13.4012962"><ele>738.8</ele><time>2026-04-26T14:49:56.889Z</time></trkpt><trkpt lat="42.3622427" lon="13.4014262"><ele>739.5999999999999</ele><time>2026-04-26T14:49:57.887Z</time></trkpt><trkpt lat="42.3623066" lon="13.4015286"><ele>740.4000000000001</ele><time>2026-04-26T14:49:58.887Z</time></trkpt><trkpt lat="42.3623725" lon="13.401628"><ele>741.2</ele><time>2026-04-26T14:49:59.887Z</time></trkpt><trkpt lat="42.362445" lon="13.4017262"><ele>742.0</ele><time>2026-04-26T14:50:00.889Z</time></trkpt><trkpt lat="42.3625255" lon="13.4018317"><ele>742.0</ele><time>2026-04-26T14:50:01.887Z</time></trkpt><trkpt lat="42.3626024" lon="13.4019485"><ele>742.0</ele><time>2026-04-26T14:50:02.888Z</time></trkpt><trkpt lat="42.3626644" lon="13.4020855"><ele>742.0</ele><time>2026-04-26T14:50:03.888Z</time></trkpt><trkpt lat="42.3626899" lon="13.4022394"><ele>742.0</ele><time>2026-04-26T14:50:04.888Z</time></trkpt><trkpt lat="42.3626719" lon="13.4023818"><ele>741.4000000000001</ele><time>2026-04-26T14:50:05.888Z</time></trkpt><trkpt lat="42.3626202" lon="13.4025156"><ele>740.8000000000001</ele><time>2026-04-26T14:50:06.889Z</time></trkpt><trkpt lat="42.3625481" lon="13.4026291"><ele>740.2</ele><time>2026-04-26T14:50:07.888Z</time></trkpt><trkpt lat="42.3624628" lon="13.4027155"><ele>739.6</ele><time>2026-04-26T14:50:08.889Z</time></trkpt><trkpt lat="42.3623723" lon="13.4027839"><ele>739.0</ele><time>2026-04-26T14:50:09.888Z</time></trkpt><trkpt lat="42.3622851" lon="13.4028405"><ele>739.0</ele><time>2026-04-26T14:50:10.889Z</time></trkpt><trkpt lat="42.3622004" lon="13.4028994"><ele>739.0</ele><time>2026-04-26T14:50:11.887Z</time></trkpt><trkpt lat="42.3621268" lon="13.4029589"><ele>739.0</ele><time>2026-04-26T14:50:12.887Z</time></trkpt><trkpt lat="42.3620634" lon="13.4030242"><ele>739.0</ele><time>2026-04-26T14:50:13.888Z</time></trkpt><trkpt lat="42.3620112" lon="13.4030933"><ele>739.0</ele><time>2026-04-26T14:50:14.887Z</time></trkpt><trkpt lat="42.361932" lon="13.4032175"><ele>739.4000000000001</ele><time>2026-04-26T14:50:16.889Z</time></trkpt><trkpt lat="42.3618574" lon="13.403332"><ele>739.8</ele><time>2026-04-26T14:50:18.889Z</time></trkpt><trkpt lat="42.3617679" lon="13.4034637"><ele>740.2</ele><time>2026-04-26T14:50:20.888Z</time></trkpt><trkpt lat="42.3617363" lon="13.4035584"><ele>740.5999999999999</ele><time>2026-04-26T14:50:21.887Z</time></trkpt><trkpt lat="42.3617173" lon="13.4036675"><ele>741.0</ele><time>2026-04-26T14:50:22.888Z</time></trkpt><trkpt lat="42.3617228" lon="13.4037932"><ele>741.25</ele><time>2026-04-26T14:50:23.887Z</time></trkpt><trkpt lat="42.3617328" lon="13.4039485"><ele>741.5</ele><time>2026-04-26T14:50:24.888Z</time></trkpt><trkpt lat="42.3617232" lon="13.4041331"><ele>741.75</ele><time>2026-04-26T14:50:25.889Z</time></trkpt><trkpt lat="42.3616986" lon="13.4043245"><ele>742.0</ele><time>2026-04-26T14:50:26.887Z</time></trkpt><trkpt lat="42.3616759" lon="13.4045461"><ele>742.0</ele><time>2026-04-26T14:50:27.889Z</time></trkpt><trkpt lat="42.3616525" lon="13.4047814"><ele>742.0</ele><time>2026-04-26T14:50:28.889Z</time></trkpt><trkpt lat="42.3616236" lon="13.4050184"><ele>742.0</ele><time>2026-04-26T14:50:29.887Z</time></trkpt><trkpt lat="42.3615883" lon="13.4052452"><ele>742.0</ele><time>2026-04-26T14:50:30.888Z</time></trkpt><trkpt lat="42.3615392" lon="13.4054469"><ele>742.0</ele><time>2026-04-26T14:50:31.887Z</time></trkpt><trkpt lat="42.3614683" lon="13.4056165"><ele>742.0</ele><time>2026-04-26T14:50:32.888Z</time></trkpt><trkpt lat="42.3613831" lon="13.4057549"><ele>742.0</ele><time>2026-04-26T14:50:33.888Z</time></trkpt><trkpt lat="42.3612772" lon="13.4058552"><ele>741.0</ele><time>2026-04-26T14:50:34.887Z</time></trkpt><trkpt lat="42.361159" lon="13.4059274"><ele>740.0</ele><time>2026-04-26T14:50:35.889Z</time></trkpt><trkpt lat="42.361041" lon="13.4059898"><ele>739.0</ele><time>2026-04-26T14:50:36.887Z</time></trkpt><trkpt lat="42.3609274" lon="13.4060503"><ele>738.0</ele><time>2026-04-26T14:50:37.888Z</time></trkpt><trkpt lat="42.3608152" lon="13.4061178"><ele>738.0</ele><time>2026-04-26T14:50:38.888Z</time></trkpt><trkpt lat="42.3607138" lon="13.4062019"><ele>738.0</ele><time>2026-04-26T14:50:39.888Z</time></trkpt><trkpt lat="42.3606225" lon="13.4062988"><ele>738.0</ele><time>2026-04-26T14:50:40.889Z</time></trkpt><trkpt lat="42.3605885" lon="13.406454"><ele>738.0</ele><time>2026-04-26T14:50:41.888Z</time></trkpt><trkpt lat="42.3605721" lon="13.406604"><ele>737.25</ele><time>2026-04-26T14:50:42.887Z</time></trkpt><trkpt lat="42.3605982" lon="13.4067543"><ele>736.5</ele><time>2026-04-26T14:50:43.888Z</time></trkpt><trkpt lat="42.3606561" lon="13.4068921"><ele>735.75</ele><time>2026-04-26T14:50:44.887Z</time></trkpt><trkpt lat="42.3607482" lon="13.4070122"><ele>735.0</ele><time>2026-04-26T14:50:45.888Z</time></trkpt><trkpt lat="42.3608459" lon="13.4071151"><ele>733.4</ele><time>2026-04-26T14:50:46.888Z</time></trkpt><trkpt lat="42.3609276" lon="13.4072278"><ele>731.8</ele><time>2026-04-26T14:50:47.888Z</time></trkpt><trkpt lat="42.3609926" lon="13.4073494"><ele>730.2</ele><time>2026-04-26T14:50:48.887Z</time></trkpt><trkpt lat="42.361032" lon="13.4074854"><ele>728.6</ele><time>2026-04-26T14:50:49.887Z</time></trkpt><trkpt lat="42.3610461" lon="13.4076235"><ele>727.0</ele><time>2026-04-26T14:50:50.888Z</time></trkpt><trkpt lat="42.361036" lon="13.4077589"><ele>727.0</ele><time>2026-04-26T14:50:51.888Z</time></trkpt><trkpt lat="42.3610329" lon="13.4078843"><ele>727.0</ele><time>2026-04-26T14:50:52.888Z</time></trkpt><trkpt lat="42.3609075" lon="13.407967"><ele>727.0</ele><time>2026-04-26T14:50:53.887Z</time></trkpt><trkpt lat="42.3608222" lon="13.4080439"><ele>727.0</ele><time>2026-04-26T14:50:54.889Z</time></trkpt><trkpt lat="42.3607304" lon="13.4081049"><ele>727.0</ele><time>2026-04-26T14:50:55.888Z</time></trkpt><trkpt lat="42.3606285" lon="13.4081496"><ele>726.25</ele><time>2026-04-26T14:50:56.888Z</time></trkpt><trkpt lat="42.3605158" lon="13.4081701"><ele>725.5</ele><time>2026-04-26T14:50:57.888Z</time></trkpt><trkpt lat="42.3603984" lon="13.4081672"><ele>724.75</ele><time>2026-04-26T14:50:58.887Z</time></trkpt><trkpt lat="42.3602788" lon="13.4081676"><ele>724.0</ele><time>2026-04-26T14:50:59.888Z</time></trkpt><trkpt lat="42.3601483" lon="13.4081657"><ele>724.0</ele><time>2026-04-26T14:51:00.888Z</time></trkpt><trkpt lat="42.3600211" lon="13.4081422"><ele>724.0</ele><time>2026-04-26T14:51:01.888Z</time></trkpt><trkpt lat="42.3598989" lon="13.4081043"><ele>724.0</ele><time>2026-04-26T14:51:02.887Z</time></trkpt><trkpt lat="42.3597704" lon="13.4080505"><ele>724.0</ele><time>2026-04-26T14:51:03.887Z</time></trkpt><trkpt lat="42.3596396" lon="13.407995"><ele>723.0</ele><time>2026-04-26T14:51:04.889Z</time></trkpt><trkpt lat="42.3595121" lon="13.4079371"><ele>722.0</ele><time>2026-04-26T14:51:05.889Z</time></trkpt><trkpt lat="42.3593858" lon="13.4078751"><ele>721.0</ele><time>2026-04-26T14:51:06.887Z</time></trkpt><trkpt lat="42.3592641" lon="13.407814"><ele>720.0</ele><time>2026-04-26T14:51:07.887Z</time></trkpt><trkpt lat="42.3591463" lon="13.407746"><ele>720.0</ele><time>2026-04-26T14:51:08.888Z</time></trkpt><trkpt lat="42.35903" lon="13.4076875"><ele>720.0</ele><time>2026-04-26T14:51:09.887Z</time></trkpt><trkpt lat="42.358915" lon="13.4076321"><ele>720.0</ele><time>2026-04-26T14:51:10.887Z</time></trkpt><trkpt lat="42.3587977" lon="13.4075701"><ele>720.0</ele><time>2026-04-26T14:51:11.888Z</time></trkpt><trkpt lat="42.3586887" lon="13.4075053"><ele>720.0</ele><time>2026-04-26T14:51:12.888Z</time></trkpt><trkpt lat="42.3585794" lon="13.4074437"><ele>720.0</ele><time>2026-04-26T14:51:13.887Z</time></trkpt><trkpt lat="42.3584667" lon="13.4073894"><ele>720.0</ele><time>2026-04-26T14:51:14.887Z</time></trkpt><trkpt lat="42.3583481" lon="13.407329"><ele>720.0</ele><time>2026-04-26T14:51:15.888Z</time></trkpt><trkpt lat="42.3582254" lon="13.4072719"><ele>720.0</ele><time>2026-04-26T14:51:16.888Z</time></trkpt><trkpt lat="42.3581054" lon="13.4072198"><ele>720.0</ele><time>2026-04-26T14:51:17.888Z</time></trkpt><trkpt lat="42.3579893" lon="13.4071653"><ele>720.0</ele><time>2026-04-26T14:51:18.889Z</time></trkpt><trkpt lat="42.3578718" lon="13.4071115"><ele>720.0</ele><time>2026-04-26T14:51:19.887Z</time></trkpt><trkpt lat="42.3577512" lon="13.4070597"><ele>719.4</ele><time>2026-04-26T14:51:20.887Z</time></trkpt><trkpt lat="42.357641" lon="13.4070067"><ele>718.8</ele><time>2026-04-26T14:51:21.887Z</time></trkpt><trkpt lat="42.3575303" lon="13.4069499"><ele>718.2</ele><time>2026-04-26T14:51:22.889Z</time></trkpt><trkpt lat="42.3574315" lon="13.4069067"><ele>717.6</ele><time>2026-04-26T14:51:23.888Z</time></trkpt><trkpt lat="42.3573347" lon="13.4068652"><ele>717.0</ele><time>2026-04-26T14:51:24.888Z</time></trkpt><trkpt lat="42.3572375" lon="13.4068213"><ele>716.6666666666666</ele><time>2026-04-26T14:51:25.888Z</time></trkpt><trkpt lat="42.3571528" lon="13.40678"><ele>716.3333333333334</ele><time>2026-04-26T14:51:26.888Z</time></trkpt><trkpt lat="42.3570642" lon="13.4067503"><ele>716.0</ele><time>2026-04-26T14:51:27.888Z</time></trkpt><trkpt lat="42.3569846" lon="13.4067207"><ele>715.6666666666667</ele><time>2026-04-26T14:51:28.888Z</time></trkpt><trkpt lat="42.3569074" lon="13.40669"><ele>715.3333333333334</ele><time>2026-04-26T14:51:29.889Z</time></trkpt><trkpt lat="42.3568274" lon="13.4066481"><ele>715.0</ele><time>2026-04-26T14:51:30.888Z</time></trkpt><trkpt lat="42.3567506" lon="13.4066029"><ele>715.0</ele><time>2026-04-26T14:51:31.888Z</time></trkpt><trkpt lat="42.3566772" lon="13.4065557"><ele>715.0</ele><time>2026-04-26T14:51:32.888Z</time></trkpt><trkpt lat="42.3566115" lon="13.4065096"><ele>715.0</ele><time>2026-04-26T14:51:33.887Z</time></trkpt><trkpt lat="42.3565501" lon="13.4064687"><ele>715.0</ele><time>2026-04-26T14:51:34.888Z</time></trkpt><trkpt lat="42.3564911" lon="13.4064342"><ele>715.0</ele><time>2026-04-26T14:51:35.887Z</time></trkpt><trkpt lat="42.3564272" lon="13.406396"><ele>715.0</ele><time>2026-04-26T14:51:36.887Z</time></trkpt><trkpt lat="42.3563623" lon="13.4063492"><ele>715.0</ele><time>2026-04-26T14:51:37.888Z</time></trkpt><trkpt lat="42.3562966" lon="13.4062971"><ele>714.5</ele><time>2026-04-26T14:51:38.887Z</time></trkpt><trkpt lat="42.3562342" lon="13.406236"><ele>714.0</ele><time>2026-04-26T14:51:39.889Z</time></trkpt><trkpt lat="42.3561794" lon="13.4061714"><ele>713.5</ele><time>2026-04-26T14:51:40.889Z</time></trkpt><trkpt lat="42.3561037" lon="13.4060635"><ele>713.0</ele><time>2026-04-26T14:51:42.889Z</time></trkpt><trkpt lat="42.3560308" lon="13.4059421"><ele>712.5</ele><time>2026-04-26T14:51:44.888Z</time></trkpt><trkpt lat="42.3559935" lon="13.4058663"><ele>712.0</ele><time>2026-04-26T14:51:45.887Z</time></trkpt><trkpt lat="42.3559429" lon="13.4058048"><ele>712.0</ele><time>2026-04-26T14:51:46.888Z</time></trkpt><trkpt lat="42.3558321" lon="13.4057925"><ele>712.0</ele><time>2026-04-26T14:51:48.888Z</time></trkpt><trkpt lat="42.3557738" lon="13.4059057"><ele>712.0</ele><time>2026-04-26T14:51:50.889Z</time></trkpt><trkpt lat="42.3557884" lon="13.406059"><ele>712.0</ele><time>2026-04-26T14:51:52.887Z</time></trkpt><trkpt lat="42.3557991" lon="13.4062145"><ele>712.0</ele><time>2026-04-26T14:51:54.888Z</time></trkpt><trkpt lat="42.3557939" lon="13.4063021"><ele>712.0</ele><time>2026-04-26T14:51:55.887Z</time></trkpt><trkpt lat="42.35578" lon="13.4063883"><ele>712.0</ele><time>2026-04-26T14:51:56.888Z</time></trkpt><trkpt lat="42.3557545" lon="13.4064709"><ele>712.0</ele><time>2026-04-26T14:51:57.888Z</time></trkpt><trkpt lat="42.3557206" lon="13.4065463"><ele>712.0</ele><time>2026-04-26T14:51:58.887Z</time></trkpt><trkpt lat="42.3556813" lon="13.406623"><ele>712.0</ele><time>2026-04-26T14:51:59.887Z</time></trkpt><trkpt lat="42.3556453" lon="13.4067012"><ele>712.0</ele><time>2026-04-26T14:52:00.888Z</time></trkpt><trkpt lat="42.3555565" lon="13.4068157"><ele>712.0</ele><time>2026-04-26T14:52:02.888Z</time></trkpt><trkpt lat="42.3554401" lon="13.4068814"><ele>712.0</ele><time>2026-04-26T14:52:04.887Z</time></trkpt><trkpt lat="42.3553782" lon="13.4069387"><ele>712.0</ele><time>2026-04-26T14:52:05.889Z</time></trkpt><trkpt lat="42.3553179" lon="13.4070086"><ele>712.0</ele><time>2026-04-26T14:52:06.887Z</time></trkpt><trkpt lat="42.3552788" lon="13.4071136"><ele>712.0</ele><time>2026-04-26T14:52:07.888Z</time></trkpt><trkpt lat="42.3552268" lon="13.4072044"><ele>712.0</ele><time>2026-04-26T14:52:08.887Z</time></trkpt><trkpt lat="42.3551789" lon="13.407289"><ele>712.0</ele><time>2026-04-26T14:52:09.888Z</time></trkpt><trkpt lat="42.355132" lon="13.4073781"><ele>712.0</ele><time>2026-04-26T14:52:10.887Z</time></trkpt><trkpt lat="42.3550813" lon="13.4074767"><ele>712.0</ele><time>2026-04-26T14:52:11.887Z</time></trkpt><trkpt lat="42.3550256" lon="13.4075861"><ele>712.0</ele><time>2026-04-26T14:52:12.887Z</time></trkpt><trkpt lat="42.354964" lon="13.4077045"><ele>712.0</ele><time>2026-04-26T14:52:13.888Z</time></trkpt><trkpt lat="42.354902" lon="13.4078314"><ele>712.0</ele><time>2026-04-26T14:52:14.887Z</time></trkpt><trkpt lat="42.3548343" lon="13.4079691"><ele>712.0</ele><time>2026-04-26T14:52:15.888Z</time></trkpt><trkpt lat="42.3547605" lon="13.4081151"><ele>712.0</ele><time>2026-04-26T14:52:16.887Z</time></trkpt><trkpt lat="42.3546845" lon="13.4082699"><ele>712.5</ele><time>2026-04-26T14:52:17.888Z</time></trkpt><trkpt lat="42.3546028" lon="13.4084311"><ele>713.0</ele><time>2026-04-26T14:52:18.888Z</time></trkpt><trkpt lat="42.3545247" lon="13.4085863"><ele>713.5</ele><time>2026-04-26T14:52:19.888Z</time></trkpt><trkpt lat="42.3544502" lon="13.408729"><ele>714.0</ele><time>2026-04-26T14:52:20.888Z</time></trkpt><trkpt lat="42.3543763" lon="13.4088614"><ele>714.0</ele><time>2026-04-26T14:52:21.888Z</time></trkpt><trkpt lat="42.3542982" lon="13.4089864"><ele>714.0</ele><time>2026-04-26T14:52:22.887Z</time></trkpt><trkpt lat="42.3542188" lon="13.4091032"><ele>714.0</ele><time>2026-04-26T14:52:23.888Z</time></trkpt><trkpt lat="42.3541411" lon="13.409217"><ele>714.0</ele><time>2026-04-26T14:52:24.888Z</time></trkpt><trkpt lat="42.3540649" lon="13.4093277"><ele>714.0</ele><time>2026-04-26T14:52:25.888Z</time></trkpt><trkpt lat="42.3539889" lon="13.4094375"><ele>714.0</ele><time>2026-04-26T14:52:26.888Z</time></trkpt><trkpt lat="42.3539103" lon="13.4095527"><ele>714.0</ele><time>2026-04-26T14:52:27.888Z</time></trkpt><trkpt lat="42.3538246" lon="13.4096711"><ele>714.0</ele><time>2026-04-26T14:52:28.888Z</time></trkpt><trkpt lat="42.3537364" lon="13.4097969"><ele>713.75</ele><time>2026-04-26T14:52:29.888Z</time></trkpt><trkpt lat="42.3536524" lon="13.4099197"><ele>713.5</ele><time>2026-04-26T14:52:30.888Z</time></trkpt><trkpt lat="42.353572" lon="13.4100372"><ele>713.25</ele><time>2026-04-26T14:52:31.889Z</time></trkpt><trkpt lat="42.3534924" lon="13.4101587"><ele>713.0</ele><time>2026-04-26T14:52:32.888Z</time></trkpt><trkpt lat="42.3534104" lon="13.4102852"><ele>713.0</ele><time>2026-04-26T14:52:33.888Z</time></trkpt><trkpt lat="42.3533238" lon="13.4104078"><ele>713.0</ele><time>2026-04-26T14:52:34.888Z</time></trkpt><trkpt lat="42.353242" lon="13.4105325"><ele>713.0</ele><time>2026-04-26T14:52:35.888Z</time></trkpt><trkpt lat="42.3531648" lon="13.4106429"><ele>713.0</ele><time>2026-04-26T14:52:36.887Z</time></trkpt><trkpt lat="42.3530919" lon="13.4107505"><ele>713.2</ele><time>2026-04-26T14:52:37.887Z</time></trkpt><trkpt lat="42.3530265" lon="13.4108455"><ele>713.4</ele><time>2026-04-26T14:52:38.888Z</time></trkpt><trkpt lat="42.3529526" lon="13.410954"><ele>713.6</ele><time>2026-04-26T14:52:39.888Z</time></trkpt><trkpt lat="42.3528796" lon="13.4110588"><ele>713.8000000000001</ele><time>2026-04-26T14:52:40.888Z</time></trkpt><trkpt lat="42.3528102" lon="13.4111656"><ele>714.0</ele><time>2026-04-26T14:52:41.888Z</time></trkpt><trkpt lat="42.3527471" lon="13.411263"><ele>714.3333333333334</ele><time>2026-04-26T14:52:42.889Z</time></trkpt><trkpt lat="42.3526897" lon="13.4113465"><ele>714.6666666666666</ele><time>2026-04-26T14:52:43.888Z</time></trkpt><trkpt lat="42.352642" lon="13.4114077"><ele>715.0</ele><time>2026-04-26T14:52:44.887Z</time></trkpt><trkpt lat="42.3525843" lon="13.4114914"><ele>715.3333333333333</ele><time>2026-04-26T14:52:46.888Z</time></trkpt><trkpt lat="42.3525145" lon="13.4115932"><ele>715.6666666666666</ele><time>2026-04-26T14:52:49.889Z</time></trkpt><trkpt lat="42.3524618" lon="13.4116664"><ele>716.0</ele><time>2026-04-26T14:52:51.889Z</time></trkpt><trkpt lat="42.3524004" lon="13.411744"><ele>716.0</ele><time>2026-04-26T14:52:53.888Z</time></trkpt><trkpt lat="42.3523242" lon="13.4118651"><ele>716.0</ele><time>2026-04-26T14:52:55.888Z</time></trkpt><trkpt lat="42.352286" lon="13.4119371"><ele>716.0</ele><time>2026-04-26T14:52:56.888Z</time></trkpt><trkpt lat="42.3522388" lon="13.4120059"><ele>716.0</ele><time>2026-04-26T14:52:57.888Z</time></trkpt><trkpt lat="42.3521975" lon="13.4120769"><ele>716.0</ele><time>2026-04-26T14:52:58.888Z</time></trkpt><trkpt lat="42.3521541" lon="13.4121404"><ele>716.0</ele><time>2026-04-26T14:52:59.888Z</time></trkpt><trkpt lat="42.3520894" lon="13.4122456"><ele>715.8333333333333</ele><time>2026-04-26T14:53:01.888Z</time></trkpt><trkpt lat="42.3520325" lon="13.4123573"><ele>715.6666666666666</ele><time>2026-04-26T14:53:03.889Z</time></trkpt><trkpt lat="42.3520003" lon="13.4124318"><ele>715.5</ele><time>2026-04-26T14:53:04.889Z</time></trkpt><trkpt lat="42.3519815" lon="13.4125207"><ele>715.3333333333334</ele><time>2026-04-26T14:53:05.889Z</time></trkpt><trkpt lat="42.3519729" lon="13.4126223"><ele>715.1666666666667</ele><time>2026-04-26T14:53:06.889Z</time></trkpt><trkpt lat="42.3519812" lon="13.4127294"><ele>715.0</ele><time>2026-04-26T14:53:07.889Z</time></trkpt><trkpt lat="42.3520021" lon="13.4128487"><ele>715.0</ele><time>2026-04-26T14:53:08.889Z</time></trkpt><trkpt lat="42.3520394" lon="13.4129789"><ele>715.0</ele><time>2026-04-26T14:53:09.888Z</time></trkpt><trkpt lat="42.3520923" lon="13.4131122"><ele>715.0</ele><time>2026-04-26T14:53:10.888Z</time></trkpt><trkpt lat="42.352151" lon="13.4132534"><ele>715.0</ele><time>2026-04-26T14:53:11.888Z</time></trkpt><trkpt lat="42.35221" lon="13.4134072"><ele>716.25</ele><time>2026-04-26T14:53:12.887Z</time></trkpt><trkpt lat="42.3522742" lon="13.4135647"><ele>717.5</ele><time>2026-04-26T14:53:13.886Z</time></trkpt><trkpt lat="42.3523384" lon="13.4137272"><ele>718.75</ele><time>2026-04-26T14:53:14.887Z</time></trkpt><trkpt lat="42.3523981" lon="13.4138982"><ele>720.0</ele><time>2026-04-26T14:53:15.888Z</time></trkpt><trkpt lat="42.3524408" lon="13.4140827"><ele>720.0</ele><time>2026-04-26T14:53:16.887Z</time></trkpt><trkpt lat="42.3524553" lon="13.4142767"><ele>720.0</ele><time>2026-04-26T14:53:17.888Z</time></trkpt><trkpt lat="42.3524509" lon="13.4144693"><ele>720.0</ele><time>2026-04-26T14:53:18.887Z</time></trkpt><trkpt lat="42.3524272" lon="13.4146714"><ele>720.0</ele><time>2026-04-26T14:53:19.888Z</time></trkpt><trkpt lat="42.3523874" lon="13.4148701"><ele>720.25</ele><time>2026-04-26T14:53:20.887Z</time></trkpt><trkpt lat="42.35233" lon="13.4150613"><ele>720.5</ele><time>2026-04-26T14:53:21.886Z</time></trkpt><trkpt lat="42.352259" lon="13.4152397"><ele>720.75</ele><time>2026-04-26T14:53:22.886Z</time></trkpt><trkpt lat="42.3521825" lon="13.4153973"><ele>721.0</ele><time>2026-04-26T14:53:23.888Z</time></trkpt><trkpt lat="42.3521059" lon="13.4155478"><ele>721.75</ele><time>2026-04-26T14:53:24.887Z</time></trkpt><trkpt lat="42.352028" lon="13.4156917"><ele>722.5</ele><time>2026-04-26T14:53:25.886Z</time></trkpt><trkpt lat="42.3519531" lon="13.4158189"><ele>723.25</ele><time>2026-04-26T14:53:26.886Z</time></trkpt><trkpt lat="42.3518825" lon="13.4159345"><ele>724.0</ele><time>2026-04-26T14:53:27.887Z</time></trkpt><trkpt lat="42.3518152" lon="13.4160339"><ele>724.0</ele><time>2026-04-26T14:53:28.886Z</time></trkpt><trkpt lat="42.3517531" lon="13.4161223"><ele>724.0</ele><time>2026-04-26T14:53:29.887Z</time></trkpt><trkpt lat="42.3516904" lon="13.4162047"><ele>724.0</ele><time>2026-04-26T14:53:30.886Z</time></trkpt><trkpt lat="42.3516266" lon="13.4162816"><ele>724.0</ele><time>2026-04-26T14:53:31.888Z</time></trkpt><trkpt lat="42.3515563" lon="13.4163526"><ele>724.0</ele><time>2026-04-26T14:53:32.886Z</time></trkpt><trkpt lat="42.3514866" lon="13.4164134"><ele>724.0</ele><time>2026-04-26T14:53:33.887Z</time></trkpt><trkpt lat="42.351415" lon="13.4164673"><ele>724.1666666666667</ele><time>2026-04-26T14:53:34.887Z</time></trkpt><trkpt lat="42.3513485" lon="13.4165137"><ele>724.3333333333334</ele><time>2026-04-26T14:53:35.886Z</time></trkpt><trkpt lat="42.3512837" lon="13.4165527"><ele>724.5</ele><time>2026-04-26T14:53:36.888Z</time></trkpt><trkpt lat="42.3512182" lon="13.4165942"><ele>724.6666666666666</ele><time>2026-04-26T14:53:37.886Z</time></trkpt><trkpt lat="42.3511485" lon="13.416634"><ele>724.8333333333333</ele><time>2026-04-26T14:53:38.887Z</time></trkpt><trkpt lat="42.3510773" lon="13.4166692"><ele>725.0</ele><time>2026-04-26T14:53:39.888Z</time></trkpt><trkpt lat="42.3510021" lon="13.4167099"><ele>725.0</ele><time>2026-04-26T14:53:40.887Z</time></trkpt><trkpt lat="42.3509177" lon="13.4167577"><ele>725.0</ele><time>2026-04-26T14:53:41.887Z</time></trkpt><trkpt lat="42.3508233" lon="13.416816"><ele>725.0</ele><time>2026-04-26T14:53:42.886Z</time></trkpt><trkpt lat="42.3507257" lon="13.4168828"><ele>725.0</ele><time>2026-04-26T14:53:43.886Z</time></trkpt><trkpt lat="42.3506257" lon="13.4169556"><ele>725.0</ele><time>2026-04-26T14:53:44.886Z</time></trkpt><trkpt lat="42.3505277" lon="13.4170242"><ele>724.0</ele><time>2026-04-26T14:53:45.888Z</time></trkpt><trkpt lat="42.3504284" lon="13.4170837"><ele>723.0</ele><time>2026-04-26T14:53:46.886Z</time></trkpt><trkpt lat="42.3503269" lon="13.4171317"><ele>722.0</ele><time>2026-04-26T14:53:47.887Z</time></trkpt><trkpt lat="42.3502254" lon="13.4171618"><ele>721.0</ele><time>2026-04-26T14:53:48.886Z</time></trkpt><trkpt lat="42.3501216" lon="13.4171851"><ele>720.0</ele><time>2026-04-26T14:53:49.888Z</time></trkpt><trkpt lat="42.3500054" lon="13.4171996"><ele>719.5</ele><time>2026-04-26T14:53:50.886Z</time></trkpt><trkpt lat="42.3498877" lon="13.417209"><ele>719.0</ele><time>2026-04-26T14:53:51.887Z</time></trkpt><trkpt lat="42.3497725" lon="13.4172113"><ele>718.5</ele><time>2026-04-26T14:53:52.887Z</time></trkpt><trkpt lat="42.3496599" lon="13.4172107"><ele>718.0</ele><time>2026-04-26T14:53:53.886Z</time></trkpt><trkpt lat="42.3495477" lon="13.417205"><ele>716.4</ele><time>2026-04-26T14:53:54.887Z</time></trkpt><trkpt lat="42.3494364" lon="13.4171915"><ele>714.8</ele><time>2026-04-26T14:53:55.888Z</time></trkpt><trkpt lat="42.3493301" lon="13.4171818"><ele>713.2</ele><time>2026-04-26T14:53:56.888Z</time></trkpt><trkpt lat="42.3492245" lon="13.4171737"><ele>711.6</ele><time>2026-04-26T14:53:57.888Z</time></trkpt><trkpt lat="42.3491216" lon="13.4171641"><ele>710.0</ele><time>2026-04-26T14:53:58.886Z</time></trkpt><trkpt lat="42.3490178" lon="13.4171616"><ele>710.0</ele><time>2026-04-26T14:53:59.887Z</time></trkpt><trkpt lat="42.3489127" lon="13.4171551"><ele>710.0</ele><time>2026-04-26T14:54:00.887Z</time></trkpt><trkpt lat="42.3487974" lon="13.4171479"><ele>710.0</ele><time>2026-04-26T14:54:01.887Z</time></trkpt><trkpt lat="42.3486759" lon="13.4171377"><ele>710.0</ele><time>2026-04-26T14:54:02.886Z</time></trkpt><trkpt lat="42.3485519" lon="13.4171363"><ele>709.75</ele><time>2026-04-26T14:54:03.888Z</time></trkpt><trkpt lat="42.3484314" lon="13.4171492"><ele>709.5</ele><time>2026-04-26T14:54:04.886Z</time></trkpt><trkpt lat="42.3483146" lon="13.4171726"><ele>709.25</ele><time>2026-04-26T14:54:05.887Z</time></trkpt><trkpt lat="42.3481995" lon="13.4172044"><ele>709.0</ele><time>2026-04-26T14:54:06.886Z</time></trkpt><trkpt lat="42.348087" lon="13.4172445"><ele>705.0</ele><time>2026-04-26T14:54:07.886Z</time></trkpt><trkpt lat="42.3479752" lon="13.4172917"><ele>701.0</ele><time>2026-04-26T14:54:08.887Z</time></trkpt><trkpt lat="42.3478639" lon="13.4173405"><ele>697.0</ele><time>2026-04-26T14:54:09.886Z</time></trkpt><trkpt lat="42.3477479" lon="13.4173956"><ele>693.0</ele><time>2026-04-26T14:54:10.888Z</time></trkpt><trkpt lat="42.347636" lon="13.4174469"><ele>693.0</ele><time>2026-04-26T14:54:11.888Z</time></trkpt><trkpt lat="42.3475288" lon="13.4174964"><ele>693.0</ele><time>2026-04-26T14:54:12.888Z</time></trkpt><trkpt lat="42.3474253" lon="13.4175456"><ele>693.0</ele><time>2026-04-26T14:54:13.886Z</time></trkpt><trkpt lat="42.3473226" lon="13.4175964"><ele>693.0</ele><time>2026-04-26T14:54:14.888Z</time></trkpt><trkpt lat="42.3472194" lon="13.4176401"><ele>693.0</ele><time>2026-04-26T14:54:15.886Z</time></trkpt><trkpt lat="42.3471135" lon="13.4176845"><ele>692.75</ele><time>2026-04-26T14:54:16.886Z</time></trkpt><trkpt lat="42.3470106" lon="13.4177274"><ele>692.5</ele><time>2026-04-26T14:54:17.886Z</time></trkpt><trkpt lat="42.3469082" lon="13.4177717"><ele>692.25</ele><time>2026-04-26T14:54:18.887Z</time></trkpt><trkpt lat="42.3467892" lon="13.4178212"><ele>692.0</ele><time>2026-04-26T14:54:19.887Z</time></trkpt><trkpt lat="42.3466759" lon="13.4178988"><ele>689.5</ele><time>2026-04-26T14:54:20.888Z</time></trkpt><trkpt lat="42.3465648" lon="13.4179991"><ele>687.0</ele><time>2026-04-26T14:54:21.887Z</time></trkpt><trkpt lat="42.3464529" lon="13.4181083"><ele>684.5</ele><time>2026-04-26T14:54:22.887Z</time></trkpt><trkpt lat="42.3463426" lon="13.41822"><ele>682.0</ele><time>2026-04-26T14:54:23.886Z</time></trkpt><trkpt lat="42.3462311" lon="13.418326"><ele>681.25</ele><time>2026-04-26T14:54:24.888Z</time></trkpt><trkpt lat="42.3461163" lon="13.4184269"><ele>680.5</ele><time>2026-04-26T14:54:25.886Z</time></trkpt><trkpt lat="42.3459934" lon="13.418508"><ele>679.75</ele><time>2026-04-26T14:54:26.886Z</time></trkpt><trkpt lat="42.3458504" lon="13.4185647"><ele>679.0</ele><time>2026-04-26T14:54:27.887Z</time></trkpt><trkpt lat="42.3456896" lon="13.4185824"><ele>677.3333333333334</ele><time>2026-04-26T14:54:28.886Z</time></trkpt><trkpt lat="42.3455156" lon="13.4185649"><ele>675.6666666666666</ele><time>2026-04-26T14:54:29.888Z</time></trkpt><trkpt lat="42.3453308" lon="13.4185248"><ele>674.0</ele><time>2026-04-26T14:54:30.888Z</time></trkpt><trkpt lat="42.345143" lon="13.41849"><ele>674.0</ele><time>2026-04-26T14:54:31.887Z</time></trkpt><trkpt lat="42.3449582" lon="13.418462"><ele>674.0</ele><time>2026-04-26T14:54:32.888Z</time></trkpt><trkpt lat="42.3447817" lon="13.4184405"><ele>674.0</ele><time>2026-04-26T14:54:33.886Z</time></trkpt><trkpt lat="42.3446097" lon="13.4184303"><ele>673.0</ele><time>2026-04-26T14:54:34.887Z</time></trkpt><trkpt lat="42.3444431" lon="13.418416"><ele>672.0</ele><time>2026-04-26T14:54:35.888Z</time></trkpt><trkpt lat="42.3442849" lon="13.4183963"><ele>671.0</ele><time>2026-04-26T14:54:36.886Z</time></trkpt><trkpt lat="42.3441272" lon="13.4183705"><ele>671.0</ele><time>2026-04-26T14:54:37.886Z</time></trkpt><trkpt lat="42.3439638" lon="13.4183327"><ele>671.0</ele><time>2026-04-26T14:54:38.887Z</time></trkpt><trkpt lat="42.3438013" lon="13.4182799"><ele>671.0</ele><time>2026-04-26T14:54:39.887Z</time></trkpt><trkpt lat="42.3436328" lon="13.4182121"><ele>670.3333333333333</ele><time>2026-04-26T14:54:40.886Z</time></trkpt><trkpt lat="42.3434726" lon="13.4181388"><ele>669.6666666666666</ele><time>2026-04-26T14:54:41.887Z</time></trkpt><trkpt lat="42.343321" lon="13.4180491"><ele>669.0</ele><time>2026-04-26T14:54:42.887Z</time></trkpt><trkpt lat="42.3431776" lon="13.4179573"><ele>664.6666666666666</ele><time>2026-04-26T14:54:43.888Z</time></trkpt><trkpt lat="42.3430421" lon="13.4178556"><ele>660.3333333333333</ele><time>2026-04-26T14:54:44.887Z</time></trkpt><trkpt lat="42.3429067" lon="13.4177445"><ele>656.0</ele><time>2026-04-26T14:54:45.887Z</time></trkpt><trkpt lat="42.3427805" lon="13.4176186"><ele>656.0</ele><time>2026-04-26T14:54:46.887Z</time></trkpt><trkpt lat="42.3426613" lon="13.4174831"><ele>656.0</ele><time>2026-04-26T14:54:47.886Z</time></trkpt><trkpt lat="42.3425479" lon="13.4173379"><ele>656.0</ele><time>2026-04-26T14:54:48.886Z</time></trkpt><trkpt lat="42.3424426" lon="13.4171867"><ele>654.5</ele><time>2026-04-26T14:54:49.888Z</time></trkpt><trkpt lat="42.3423513" lon="13.417028"><ele>653.0</ele><time>2026-04-26T14:54:50.888Z</time></trkpt><trkpt lat="42.3422743" lon="13.4168669"><ele>651.5</ele><time>2026-04-26T14:54:51.887Z</time></trkpt><trkpt lat="42.342208" lon="13.4166994"><ele>650.0</ele><time>2026-04-26T14:54:52.886Z</time></trkpt><trkpt lat="42.3421313" lon="13.4165493"><ele>649.5</ele><time>2026-04-26T14:54:53.887Z</time></trkpt><trkpt lat="42.3420293" lon="13.4164279"><ele>649.0</ele><time>2026-04-26T14:54:54.887Z</time></trkpt><trkpt lat="42.3419018" lon="13.4163212"><ele>648.5</ele><time>2026-04-26T14:54:55.887Z</time></trkpt><trkpt lat="42.3417623" lon="13.416236"><ele>648.0</ele><time>2026-04-26T14:54:56.887Z</time></trkpt><trkpt lat="42.3416219" lon="13.4161689"><ele>648.0</ele><time>2026-04-26T14:54:57.886Z</time></trkpt><trkpt lat="42.3414761" lon="13.4160964"><ele>648.0</ele><time>2026-04-26T14:54:58.886Z</time></trkpt><trkpt lat="42.3413369" lon="13.4160505"><ele>648.0</ele><time>2026-04-26T14:54:59.887Z</time></trkpt><trkpt lat="42.3411969" lon="13.4160146"><ele>648.0</ele><time>2026-04-26T14:55:00.888Z</time></trkpt><trkpt lat="42.3410575" lon="13.4160017"><ele>646.25</ele><time>2026-04-26T14:55:01.888Z</time></trkpt><trkpt lat="42.3409184" lon="13.4160082"><ele>644.5</ele><time>2026-04-26T14:55:02.886Z</time></trkpt><trkpt lat="42.3407861" lon="13.4160384"><ele>642.75</ele><time>2026-04-26T14:55:03.886Z</time></trkpt><trkpt lat="42.3406598" lon="13.4160832"><ele>641.0</ele><time>2026-04-26T14:55:04.887Z</time></trkpt><trkpt lat="42.3405408" lon="13.4161426"><ele>638.75</ele><time>2026-04-26T14:55:05.887Z</time></trkpt><trkpt lat="42.3404202" lon="13.4162101"><ele>636.5</ele><time>2026-04-26T14:55:06.886Z</time></trkpt><trkpt lat="42.3402907" lon="13.4162587"><ele>634.25</ele><time>2026-04-26T14:55:07.887Z</time></trkpt><trkpt lat="42.3401547" lon="13.4162766"><ele>632.0</ele><time>2026-04-26T14:55:08.887Z</time></trkpt><trkpt lat="42.3400141" lon="13.4162675"><ele>632.0</ele><time>2026-04-26T14:55:09.887Z</time></trkpt><trkpt lat="42.3398701" lon="13.4162357"><ele>632.0</ele><time>2026-04-26T14:55:10.886Z</time></trkpt><trkpt lat="42.3397369" lon="13.4162"><ele>632.0</ele><time>2026-04-26T14:55:11.887Z</time></trkpt><trkpt lat="42.3396048" lon="13.4161602"><ele>632.0</ele><time>2026-04-26T14:55:12.887Z</time></trkpt><trkpt lat="42.3394805" lon="13.4161127"><ele>629.25</ele><time>2026-04-26T14:55:13.887Z</time></trkpt><trkpt lat="42.3393623" lon="13.4160588"><ele>626.5</ele><time>2026-04-26T14:55:14.887Z</time></trkpt><trkpt lat="42.3392409" lon="13.4159994"><ele>623.75</ele><time>2026-04-26T14:55:15.887Z</time></trkpt><trkpt lat="42.3391377" lon="13.4159235"><ele>621.0</ele><time>2026-04-26T14:55:16.887Z</time></trkpt><trkpt lat="42.3390226" lon="13.4158636"><ele>621.0</ele><time>2026-04-26T14:55:17.887Z</time></trkpt><trkpt lat="42.3388916" lon="13.4158285"><ele>621.0</ele><time>2026-04-26T14:55:18.887Z</time></trkpt><trkpt lat="42.3387642" lon="13.4158061"><ele>621.0</ele><time>2026-04-26T14:55:19.886Z</time></trkpt><trkpt lat="42.3386393" lon="13.415776"><ele>621.0</ele><time>2026-04-26T14:55:20.888Z</time></trkpt><trkpt lat="42.3385147" lon="13.4157471"><ele>618.0</ele><time>2026-04-26T14:55:21.887Z</time></trkpt><trkpt lat="42.338398" lon="13.4157072"><ele>615.0</ele><time>2026-04-26T14:55:22.887Z</time></trkpt><trkpt lat="42.3382831" lon="13.41565"><ele>612.0</ele><time>2026-04-26T14:55:23.886Z</time></trkpt><trkpt lat="42.338179" lon="13.4155869"><ele>609.0</ele><time>2026-04-26T14:55:24.887Z</time></trkpt><trkpt lat="42.3380797" lon="13.4155318"><ele>608.1666666666666</ele><time>2026-04-26T14:55:25.888Z</time></trkpt><trkpt lat="42.3379871" lon="13.4154922"><ele>607.3333333333334</ele><time>2026-04-26T14:55:26.887Z</time></trkpt><trkpt lat="42.3379035" lon="13.4154811"><ele>606.5</ele><time>2026-04-26T14:55:27.886Z</time></trkpt><trkpt lat="42.3378387" lon="13.4154794"><ele>605.6666666666667</ele><time>2026-04-26T14:55:28.886Z</time></trkpt><trkpt lat="42.3377509" lon="13.4154219"><ele>604.8333333333334</ele><time>2026-04-26T14:55:30.887Z</time></trkpt><trkpt lat="42.3377184" lon="13.4153391"><ele>604.0</ele><time>2026-04-26T14:55:36.886Z</time></trkpt><trkpt lat="42.3377435" lon="13.4151945"><ele>603.8</ele><time>2026-04-26T14:55:38.886Z</time></trkpt><trkpt lat="42.3377655" lon="13.4150986"><ele>603.5999999999999</ele><time>2026-04-26T14:55:39.886Z</time></trkpt><trkpt lat="42.3377913" lon="13.4149915"><ele>603.4</ele><time>2026-04-26T14:55:40.886Z</time></trkpt><trkpt lat="42.3378243" lon="13.4148593"><ele>603.1999999999999</ele><time>2026-04-26T14:55:41.888Z</time></trkpt><trkpt lat="42.3378599" lon="13.4147221"><ele>603.0</ele><time>2026-04-26T14:55:42.887Z</time></trkpt><trkpt lat="42.3378961" lon="13.4145685"><ele>602.75</ele><time>2026-04-26T14:55:43.887Z</time></trkpt><trkpt lat="42.3379364" lon="13.414396"><ele>602.5</ele><time>2026-04-26T14:55:44.887Z</time></trkpt><trkpt lat="42.3379785" lon="13.4142026"><ele>602.25</ele><time>2026-04-26T14:55:45.887Z</time></trkpt><trkpt lat="42.3380266" lon="13.4139986"><ele>602.0</ele><time>2026-04-26T14:55:46.887Z</time></trkpt><trkpt lat="42.338076" lon="13.4137769"><ele>606.0</ele><time>2026-04-26T14:55:47.886Z</time></trkpt><trkpt lat="42.338125" lon="13.4135461"><ele>610.0</ele><time>2026-04-26T14:55:48.887Z</time></trkpt><trkpt lat="42.338175" lon="13.4133101"><ele>614.0</ele><time>2026-04-26T14:55:49.887Z</time></trkpt><trkpt lat="42.3382287" lon="13.4130699"><ele>612.0</ele><time>2026-04-26T14:55:50.887Z</time></trkpt><trkpt lat="42.338292" lon="13.4128314"><ele>610.0</ele><time>2026-04-26T14:55:51.888Z</time></trkpt><trkpt lat="42.3383684" lon="13.4126027"><ele>608.0</ele><time>2026-04-26T14:55:52.886Z</time></trkpt><trkpt lat="42.3384515" lon="13.4123873"><ele>608.0</ele><time>2026-04-26T14:55:53.887Z</time></trkpt><trkpt lat="42.338539" lon="13.4121825"><ele>608.0</ele><time>2026-04-26T14:55:54.887Z</time></trkpt><trkpt lat="42.3386245" lon="13.4119857"><ele>608.0</ele><time>2026-04-26T14:55:55.887Z</time></trkpt><trkpt lat="42.3387079" lon="13.4117886"><ele>608.0</ele><time>2026-04-26T14:55:56.886Z</time></trkpt><trkpt lat="42.3387826" lon="13.4116033"><ele>608.0</ele><time>2026-04-26T14:55:57.887Z</time></trkpt><trkpt lat="42.3388564" lon="13.4114189"><ele>608.0</ele><time>2026-04-26T14:55:58.886Z</time></trkpt><trkpt lat="42.3389245" lon="13.4112371"><ele>608.0</ele><time>2026-04-26T14:55:59.886Z</time></trkpt><trkpt lat="42.3389822" lon="13.4110674"><ele>608.0</ele><time>2026-04-26T14:56:00.887Z</time></trkpt><trkpt lat="42.3390265" lon="13.410908"><ele>608.0</ele><time>2026-04-26T14:56:01.887Z</time></trkpt><trkpt lat="42.3390568" lon="13.4107648"><ele>608.0</ele><time>2026-04-26T14:56:02.886Z</time></trkpt><trkpt lat="42.3390699" lon="13.4106547"><ele>608.0</ele><time>2026-04-26T14:56:03.887Z</time></trkpt><trkpt lat="42.3390837" lon="13.410551"><ele>608.0</ele><time>2026-04-26T14:56:05.887Z</time></trkpt><trkpt lat="42.3390269" lon="13.4104441"><ele>608.0</ele><time>2026-04-26T14:56:09.887Z</time></trkpt><trkpt lat="42.3389641" lon="13.4104371"><ele>608.0</ele><time>2026-04-26T14:56:10.887Z</time></trkpt><trkpt lat="42.3388877" lon="13.4104487"><ele>608.0</ele><time>2026-04-26T14:56:11.888Z</time></trkpt><trkpt lat="42.3387986" lon="13.4104382"><ele>608.0</ele><time>2026-04-26T14:56:12.886Z</time></trkpt><trkpt lat="42.3387079" lon="13.4104074"><ele>606.0</ele><time>2026-04-26T14:56:13.886Z</time></trkpt><trkpt lat="42.3386134" lon="13.410358"><ele>604.0</ele><time>2026-04-26T14:56:14.886Z</time></trkpt><trkpt lat="42.3385129" lon="13.4102958"><ele>602.0</ele><time>2026-04-26T14:56:15.886Z</time></trkpt><trkpt lat="42.3384055" lon="13.4102214"><ele>600.0</ele><time>2026-04-26T14:56:16.888Z</time></trkpt><trkpt lat="42.3382872" lon="13.4101352"><ele>600.0</ele><time>2026-04-26T14:56:17.887Z</time></trkpt><trkpt lat="42.3381707" lon="13.410048"><ele>600.0</ele><time>2026-04-26T14:56:18.887Z</time></trkpt><trkpt lat="42.3380571" lon="13.4099745"><ele>600.0</ele><time>2026-04-26T14:56:19.887Z</time></trkpt><trkpt lat="42.3379292" lon="13.409926"><ele>600.0</ele><time>2026-04-26T14:56:20.887Z</time></trkpt><trkpt lat="42.3377937" lon="13.4099258"><ele>600.5</ele><time>2026-04-26T14:56:21.886Z</time></trkpt><trkpt lat="42.3376658" lon="13.4099688"><ele>601.0</ele><time>2026-04-26T14:56:22.887Z</time></trkpt><trkpt lat="42.3375503" lon="13.410046"><ele>601.5</ele><time>2026-04-26T14:56:23.886Z</time></trkpt><trkpt lat="42.3374377" lon="13.4101713"><ele>602.0</ele><time>2026-04-26T14:56:24.886Z</time></trkpt><trkpt lat="42.3373528" lon="13.4103556"><ele>601.3333333333333</ele><time>2026-04-26T14:56:25.888Z</time></trkpt><trkpt lat="42.3372605" lon="13.4105667"><ele>600.6666666666666</ele><time>2026-04-26T14:56:26.887Z</time></trkpt><trkpt lat="42.3371697" lon="13.410799"><ele>600.0</ele><time>2026-04-26T14:56:27.888Z</time></trkpt><trkpt lat="42.3370714" lon="13.4110432"><ele>601.6666666666666</ele><time>2026-04-26T14:56:28.887Z</time></trkpt><trkpt lat="42.3369678" lon="13.4112997"><ele>603.3333333333333</ele><time>2026-04-26T14:56:29.886Z</time></trkpt><trkpt lat="42.3368637" lon="13.4115647"><ele>605.0</ele><time>2026-04-26T14:56:30.887Z</time></trkpt><trkpt lat="42.336758" lon="13.4118302"><ele>605.0</ele><time>2026-04-26T14:56:31.887Z</time></trkpt><trkpt lat="42.3366519" lon="13.4121035"><ele>605.0</ele><time>2026-04-26T14:56:32.888Z</time></trkpt><trkpt lat="42.3365453" lon="13.4123722"><ele>603.5</ele><time>2026-04-26T14:56:33.888Z</time></trkpt><trkpt lat="42.3364331" lon="13.4126486"><ele>602.0</ele><time>2026-04-26T14:56:34.887Z</time></trkpt><trkpt lat="42.3363267" lon="13.4129133"><ele>603.0</ele><time>2026-04-26T14:56:35.887Z</time></trkpt><trkpt lat="42.3362235" lon="13.4131681"><ele>604.0</ele><time>2026-04-26T14:56:36.886Z</time></trkpt><trkpt lat="42.3361283" lon="13.4134104"><ele>605.0</ele><time>2026-04-26T14:56:37.886Z</time></trkpt><trkpt lat="42.3360349" lon="13.4136377"><ele>603.3333333333333</ele><time>2026-04-26T14:56:38.887Z</time></trkpt><trkpt lat="42.3359362" lon="13.4138486"><ele>601.6666666666666</ele><time>2026-04-26T14:56:39.887Z</time></trkpt><trkpt lat="42.335827" lon="13.4140383"><ele>600.0</ele><time>2026-04-26T14:56:40.886Z</time></trkpt><trkpt lat="42.3356986" lon="13.4142059"><ele>602.3333333333334</ele><time>2026-04-26T14:56:41.887Z</time></trkpt><trkpt lat="42.3355486" lon="13.4143455"><ele>604.6666666666667</ele><time>2026-04-26T14:56:42.887Z</time></trkpt><trkpt lat="42.3353851" lon="13.4144671"><ele>607.0</ele><time>2026-04-26T14:56:43.887Z</time></trkpt><trkpt lat="42.3352127" lon="13.4145806"><ele>605.3333333333334</ele><time>2026-04-26T14:56:44.887Z</time></trkpt><trkpt lat="42.3350403" lon="13.4146937"><ele>603.6666666666666</ele><time>2026-04-26T14:56:45.888Z</time></trkpt><trkpt lat="42.3348692" lon="13.4148035"><ele>602.0</ele><time>2026-04-26T14:56:46.886Z</time></trkpt><trkpt lat="42.3347014" lon="13.4149134"><ele>601.3333333333333</ele><time>2026-04-26T14:56:47.887Z</time></trkpt><trkpt lat="42.3345395" lon="13.4150185"><ele>600.6666666666666</ele><time>2026-04-26T14:56:48.886Z</time></trkpt><trkpt lat="42.3343833" lon="13.4151221"><ele>600.0</ele><time>2026-04-26T14:56:49.886Z</time></trkpt><trkpt lat="42.3342259" lon="13.4152216"><ele>600.0</ele><time>2026-04-26T14:56:50.887Z</time></trkpt><trkpt lat="42.3340678" lon="13.4153192"><ele>600.0</ele><time>2026-04-26T14:56:51.887Z</time></trkpt><trkpt lat="42.3339165" lon="13.4154254"><ele>600.0</ele><time>2026-04-26T14:56:52.886Z</time></trkpt><trkpt lat="42.3337579" lon="13.4155305"><ele>599.0</ele><time>2026-04-26T14:56:53.886Z</time></trkpt><trkpt lat="42.3336047" lon="13.4156469"><ele>598.0</ele><time>2026-04-26T14:56:54.887Z</time></trkpt><trkpt lat="42.3334535" lon="13.4157792"><ele>597.0</ele><time>2026-04-26T14:56:55.886Z</time></trkpt><trkpt lat="42.3333026" lon="13.415916"><ele>597.0</ele><time>2026-04-26T14:56:56.888Z</time></trkpt><trkpt lat="42.3331548" lon="13.4160516"><ele>597.0</ele><time>2026-04-26T14:56:57.886Z</time></trkpt><trkpt lat="42.3330269" lon="13.4161652"><ele>597.0</ele><time>2026-04-26T14:56:58.887Z</time></trkpt><trkpt lat="42.3328991" lon="13.4162796"><ele>597.0</ele><time>2026-04-26T14:56:59.886Z</time></trkpt><trkpt lat="42.3327827" lon="13.4163779"><ele>597.0</ele><time>2026-04-26T14:57:00.887Z</time></trkpt><trkpt lat="42.3326687" lon="13.4164747"><ele>597.0</ele><time>2026-04-26T14:57:01.887Z</time></trkpt><trkpt lat="42.3325727" lon="13.4165562"><ele>597.0</ele><time>2026-04-26T14:57:02.888Z</time></trkpt><trkpt lat="42.332494" lon="13.4166331"><ele>597.0</ele><time>2026-04-26T14:57:03.886Z</time></trkpt><trkpt lat="42.3324431" lon="13.4167239"><ele>597.0</ele><time>2026-04-26T14:57:04.886Z</time></trkpt><trkpt lat="42.3324011" lon="13.416826"><ele>597.0</ele><time>2026-04-26T14:57:05.886Z</time></trkpt><trkpt lat="42.3324585" lon="13.4169513"><ele>597.0</ele><time>2026-04-26T14:57:06.886Z</time></trkpt><trkpt lat="42.332493" lon="13.4170841"><ele>597.0</ele><time>2026-04-26T14:57:07.887Z</time></trkpt><trkpt lat="42.3325039" lon="13.417248"><ele>597.0</ele><time>2026-04-26T14:57:08.887Z</time></trkpt><trkpt lat="42.3324753" lon="13.4174268"><ele>597.0</ele><time>2026-04-26T14:57:09.886Z</time></trkpt><trkpt lat="42.3324344" lon="13.4176153"><ele>597.0</ele><time>2026-04-26T14:57:10.886Z</time></trkpt><trkpt lat="42.3323806" lon="13.4178139"><ele>597.0</ele><time>2026-04-26T14:57:11.887Z</time></trkpt><trkpt lat="42.3323235" lon="13.4180117"><ele>596.6666666666666</ele><time>2026-04-26T14:57:12.888Z</time></trkpt><trkpt lat="42.3322679" lon="13.4182463"><ele>596.3333333333333</ele><time>2026-04-26T14:57:13.887Z</time></trkpt><trkpt lat="42.3322098" lon="13.4184707"><ele>596.0</ele><time>2026-04-26T14:57:14.886Z</time></trkpt><trkpt lat="42.3321504" lon="13.4187006"><ele>595.3333333333333</ele><time>2026-04-26T14:57:15.887Z</time></trkpt><trkpt lat="42.332091" lon="13.418932"><ele>594.6666666666666</ele><time>2026-04-26T14:57:16.888Z</time></trkpt><trkpt lat="42.3320297" lon="13.4191682"><ele>594.0</ele><time>2026-04-26T14:57:17.886Z</time></trkpt><trkpt lat="42.3319701" lon="13.4194077"><ele>594.3333333333334</ele><time>2026-04-26T14:57:18.886Z</time></trkpt><trkpt lat="42.3319179" lon="13.4196534"><ele>594.6666666666667</ele><time>2026-04-26T14:57:19.887Z</time></trkpt><trkpt lat="42.3318643" lon="13.4199"><ele>595.0</ele><time>2026-04-26T14:57:20.887Z</time></trkpt><trkpt lat="42.3318217" lon="13.4201533"><ele>595.0</ele><time>2026-04-26T14:57:21.886Z</time></trkpt><trkpt lat="42.3317802" lon="13.4204088"><ele>595.0</ele><time>2026-04-26T14:57:22.888Z</time></trkpt><trkpt lat="42.3317417" lon="13.4206649"><ele>595.0</ele><time>2026-04-26T14:57:23.887Z</time></trkpt><trkpt lat="42.331703" lon="13.4209253"><ele>594.6666666666667</ele><time>2026-04-26T14:57:24.885Z</time></trkpt><trkpt lat="42.3316583" lon="13.4211839"><ele>594.3333333333334</ele><time>2026-04-26T14:57:25.887Z</time></trkpt><trkpt lat="42.3316149" lon="13.4214439"><ele>594.0</ele><time>2026-04-26T14:57:26.886Z</time></trkpt><trkpt lat="42.3315707" lon="13.4216935"><ele>594.0</ele><time>2026-04-26T14:57:27.885Z</time></trkpt><trkpt lat="42.3315142" lon="13.421939"><ele>594.0</ele><time>2026-04-26T14:57:28.886Z</time></trkpt><trkpt lat="42.3314357" lon="13.4221757"><ele>594.0</ele><time>2026-04-26T14:57:29.886Z</time></trkpt><trkpt lat="42.3313333" lon="13.4224016"><ele>594.0</ele><time>2026-04-26T14:57:30.887Z</time></trkpt><trkpt lat="42.3312159" lon="13.422622"><ele>594.0</ele><time>2026-04-26T14:57:31.885Z</time></trkpt><trkpt lat="42.331098" lon="13.4228395"><ele>594.0</ele><time>2026-04-26T14:57:32.886Z</time></trkpt><trkpt lat="42.3309775" lon="13.4230584"><ele>593.0</ele><time>2026-04-26T14:57:33.887Z</time></trkpt><trkpt lat="42.3308633" lon="13.4232725"><ele>592.0</ele><time>2026-04-26T14:57:34.885Z</time></trkpt><trkpt lat="42.3307457" lon="13.4234812"><ele>591.0</ele><time>2026-04-26T14:57:35.887Z</time></trkpt><trkpt lat="42.3306309" lon="13.4236855"><ele>591.3333333333334</ele><time>2026-04-26T14:57:36.887Z</time></trkpt><trkpt lat="42.3305177" lon="13.4238854"><ele>591.6666666666667</ele><time>2026-04-26T14:57:37.886Z</time></trkpt><trkpt lat="42.3304124" lon="13.4240835"><ele>592.0</ele><time>2026-04-26T14:57:38.886Z</time></trkpt><trkpt lat="42.3303062" lon="13.4242792"><ele>592.0</ele><time>2026-04-26T14:57:39.886Z</time></trkpt><trkpt lat="42.330205" lon="13.4244754"><ele>592.0</ele><time>2026-04-26T14:57:40.886Z</time></trkpt><trkpt lat="42.3301071" lon="13.4246703"><ele>592.0</ele><time>2026-04-26T14:57:41.886Z</time></trkpt><trkpt lat="42.3300113" lon="13.4248694"><ele>591.6666666666667</ele><time>2026-04-26T14:57:42.886Z</time></trkpt><trkpt lat="42.3299228" lon="13.4250776"><ele>591.3333333333334</ele><time>2026-04-26T14:57:43.886Z</time></trkpt><trkpt lat="42.3298348" lon="13.4252866"><ele>591.0</ele><time>2026-04-26T14:57:44.886Z</time></trkpt><trkpt lat="42.329744" lon="13.4254926"><ele>591.0</ele><time>2026-04-26T14:57:45.886Z</time></trkpt><trkpt lat="42.3296502" lon="13.4257012"><ele>591.0</ele><time>2026-04-26T14:57:46.886Z</time></trkpt><trkpt lat="42.329551" lon="13.4259083"><ele>591.0</ele><time>2026-04-26T14:57:47.886Z</time></trkpt><trkpt lat="42.329449" lon="13.4261075"><ele>591.0</ele><time>2026-04-26T14:57:48.885Z</time></trkpt><trkpt lat="42.3293419" lon="13.4263055"><ele>591.0</ele><time>2026-04-26T14:57:49.886Z</time></trkpt><trkpt lat="42.3292295" lon="13.4265038"><ele>591.0</ele><time>2026-04-26T14:57:50.885Z</time></trkpt><trkpt lat="42.3291223" lon="13.4267064"><ele>591.0</ele><time>2026-04-26T14:57:51.886Z</time></trkpt><trkpt lat="42.3290089" lon="13.4269053"><ele>591.0</ele><time>2026-04-26T14:57:52.887Z</time></trkpt><trkpt lat="42.3288969" lon="13.4271028"><ele>591.0</ele><time>2026-04-26T14:57:53.886Z</time></trkpt><trkpt lat="42.3287852" lon="13.4273018"><ele>590.6666666666666</ele><time>2026-04-26T14:57:54.887Z</time></trkpt><trkpt lat="42.3286712" lon="13.4274997"><ele>590.3333333333333</ele><time>2026-04-26T14:57:55.886Z</time></trkpt><trkpt lat="42.328552" lon="13.4276896"><ele>590.0</ele><time>2026-04-26T14:57:56.885Z</time></trkpt><trkpt lat="42.3284263" lon="13.4278795"><ele>590.6666666666666</ele><time>2026-04-26T14:57:57.886Z</time></trkpt><trkpt lat="42.3282998" lon="13.4280643"><ele>591.3333333333334</ele><time>2026-04-26T14:57:58.885Z</time></trkpt><trkpt lat="42.3281715" lon="13.4282474"><ele>592.0</ele><time>2026-04-26T14:57:59.885Z</time></trkpt><trkpt lat="42.3280476" lon="13.4284341"><ele>592.0</ele><time>2026-04-26T14:58:00.885Z</time></trkpt><trkpt lat="42.3279251" lon="13.4286217"><ele>592.0</ele><time>2026-04-26T14:58:01.886Z</time></trkpt><trkpt lat="42.3277988" lon="13.4288037"><ele>592.0</ele><time>2026-04-26T14:58:02.887Z</time></trkpt><trkpt lat="42.3276797" lon="13.42899"><ele>591.6666666666667</ele><time>2026-04-26T14:58:03.885Z</time></trkpt><trkpt lat="42.327565" lon="13.4291833"><ele>591.3333333333334</ele><time>2026-04-26T14:58:04.885Z</time></trkpt><trkpt lat="42.3274605" lon="13.4293846"><ele>591.0</ele><time>2026-04-26T14:58:05.887Z</time></trkpt><trkpt lat="42.3273662" lon="13.4295966"><ele>591.3333333333334</ele><time>2026-04-26T14:58:06.885Z</time></trkpt><trkpt lat="42.327282" lon="13.4298213"><ele>591.6666666666667</ele><time>2026-04-26T14:58:07.886Z</time></trkpt><trkpt lat="42.3272056" lon="13.4300503"><ele>592.0</ele><time>2026-04-26T14:58:08.886Z</time></trkpt><trkpt lat="42.3271292" lon="13.4302802"><ele>591.3333333333334</ele><time>2026-04-26T14:58:09.886Z</time></trkpt><trkpt lat="42.3270491" lon="13.4305072"><ele>590.6666666666666</ele><time>2026-04-26T14:58:10.887Z</time></trkpt><trkpt lat="42.3269702" lon="13.4307388"><ele>590.0</ele><time>2026-04-26T14:58:11.885Z</time></trkpt><trkpt lat="42.3268883" lon="13.4309669"><ele>590.0</ele><time>2026-04-26T14:58:12.885Z</time></trkpt><trkpt lat="42.3268097" lon="13.4311973"><ele>590.0</ele><time>2026-04-26T14:58:13.885Z</time></trkpt><trkpt lat="42.3267298" lon="13.4314289"><ele>590.0</ele><time>2026-04-26T14:58:14.885Z</time></trkpt><trkpt lat="42.3266508" lon="13.4316642"><ele>590.0</ele><time>2026-04-26T14:58:15.886Z</time></trkpt><trkpt lat="42.3265688" lon="13.431896"><ele>590.0</ele><time>2026-04-26T14:58:16.886Z</time></trkpt><trkpt lat="42.3264821" lon="13.4321287"><ele>590.0</ele><time>2026-04-26T14:58:17.886Z</time></trkpt><trkpt lat="42.3264" lon="13.4323639"><ele>590.0</ele><time>2026-04-26T14:58:18.885Z</time></trkpt><trkpt lat="42.3263186" lon="13.4325978"><ele>590.0</ele><time>2026-04-26T14:58:19.886Z</time></trkpt><trkpt lat="42.3262355" lon="13.4328277"><ele>590.0</ele><time>2026-04-26T14:58:20.886Z</time></trkpt><trkpt lat="42.3261504" lon="13.4330589"><ele>590.0</ele><time>2026-04-26T14:58:21.886Z</time></trkpt><trkpt lat="42.3260664" lon="13.4332909"><ele>590.0</ele><time>2026-04-26T14:58:22.886Z</time></trkpt><trkpt lat="42.325979" lon="13.4335229"><ele>590.0</ele><time>2026-04-26T14:58:23.885Z</time></trkpt><trkpt lat="42.3258869" lon="13.4337524"><ele>589.6666666666666</ele><time>2026-04-26T14:58:24.886Z</time></trkpt><trkpt lat="42.3257952" lon="13.433982"><ele>589.3333333333334</ele><time>2026-04-26T14:58:25.886Z</time></trkpt><trkpt lat="42.3257036" lon="13.4342113"><ele>589.0</ele><time>2026-04-26T14:58:26.886Z</time></trkpt><trkpt lat="42.3256163" lon="13.4344394"><ele>589.0</ele><time>2026-04-26T14:58:27.886Z</time></trkpt><trkpt lat="42.3255253" lon="13.4346668"><ele>589.0</ele><time>2026-04-26T14:58:28.887Z</time></trkpt><trkpt lat="42.3254373" lon="13.4348939"><ele>589.0</ele><time>2026-04-26T14:58:29.886Z</time></trkpt><trkpt lat="42.325351" lon="13.4351206"><ele>589.0</ele><time>2026-04-26T14:58:30.886Z</time></trkpt><trkpt lat="42.3252642" lon="13.4353514"><ele>589.0</ele><time>2026-04-26T14:58:31.885Z</time></trkpt><trkpt lat="42.3251905" lon="13.4355831"><ele>589.0</ele><time>2026-04-26T14:58:32.885Z</time></trkpt><trkpt lat="42.3251246" lon="13.4358233"><ele>588.3333333333334</ele><time>2026-04-26T14:58:33.887Z</time></trkpt><trkpt lat="42.325066" lon="13.4360644"><ele>587.6666666666666</ele><time>2026-04-26T14:58:34.886Z</time></trkpt><trkpt lat="42.3250001" lon="13.4363066"><ele>587.0</ele><time>2026-04-26T14:58:35.886Z</time></trkpt><trkpt lat="42.3249299" lon="13.4365485"><ele>586.6666666666666</ele><time>2026-04-26T14:58:36.885Z</time></trkpt><trkpt lat="42.3248617" lon="13.4367915"><ele>586.3333333333334</ele><time>2026-04-26T14:58:37.885Z</time></trkpt><trkpt lat="42.3247934" lon="13.4370359"><ele>586.0</ele><time>2026-04-26T14:58:38.887Z</time></trkpt><trkpt lat="42.3247288" lon="13.4372818"><ele>586.3333333333334</ele><time>2026-04-26T14:58:39.887Z</time></trkpt><trkpt lat="42.3246584" lon="13.4375287"><ele>586.6666666666666</ele><time>2026-04-26T14:58:40.886Z</time></trkpt><trkpt lat="42.3245894" lon="13.4377761"><ele>587.0</ele><time>2026-04-26T14:58:41.886Z</time></trkpt><trkpt lat="42.3245234" lon="13.4380262"><ele>587.0</ele><time>2026-04-26T14:58:42.885Z</time></trkpt><trkpt lat="42.3244559" lon="13.4382752"><ele>587.0</ele><time>2026-04-26T14:58:43.885Z</time></trkpt><trkpt lat="42.3243889" lon="13.438529"><ele>587.0</ele><time>2026-04-26T14:58:44.886Z</time></trkpt><trkpt lat="42.3243261" lon="13.4387837"><ele>587.3333333333333</ele><time>2026-04-26T14:58:45.886Z</time></trkpt><trkpt lat="42.3242629" lon="13.4390541"><ele>587.6666666666666</ele><time>2026-04-26T14:58:46.887Z</time></trkpt><trkpt lat="42.3242046" lon="13.4393159"><ele>588.0</ele><time>2026-04-26T14:58:47.887Z</time></trkpt><trkpt lat="42.3241548" lon="13.4395627"><ele>588.0</ele><time>2026-04-26T14:58:48.886Z</time></trkpt><trkpt lat="42.3241097" lon="13.439806"><ele>588.0</ele><time>2026-04-26T14:58:49.885Z</time></trkpt><trkpt lat="42.3240603" lon="13.4400424"><ele>588.0</ele><time>2026-04-26T14:58:50.886Z</time></trkpt><trkpt lat="42.3240094" lon="13.4402769"><ele>587.6666666666666</ele><time>2026-04-26T14:58:51.885Z</time></trkpt><trkpt lat="42.3239594" lon="13.4405041"><ele>587.3333333333333</ele><time>2026-04-26T14:58:52.886Z</time></trkpt><trkpt lat="42.323919" lon="13.4407151"><ele>587.0</ele><time>2026-04-26T14:58:53.886Z</time></trkpt><trkpt lat="42.3238796" lon="13.4409104"><ele>587.5</ele><time>2026-04-26T14:58:54.886Z</time></trkpt><trkpt lat="42.3238444" lon="13.4410951"><ele>588.0</ele><time>2026-04-26T14:58:55.887Z</time></trkpt><trkpt lat="42.3238097" lon="13.4412676"><ele>588.5</ele><time>2026-04-26T14:58:56.886Z</time></trkpt><trkpt lat="42.3237758" lon="13.4414182"><ele>589.0</ele><time>2026-04-26T14:58:57.885Z</time></trkpt><trkpt lat="42.3237314" lon="13.4415474"><ele>588.2</ele><time>2026-04-26T14:58:58.886Z</time></trkpt><trkpt lat="42.3236719" lon="13.4416542"><ele>587.4</ele><time>2026-04-26T14:58:59.886Z</time></trkpt><trkpt lat="42.3235903" lon="13.4417303"><ele>586.6</ele><time>2026-04-26T14:59:00.885Z</time></trkpt><trkpt lat="42.3234987" lon="13.4417988"><ele>585.8</ele><time>2026-04-26T14:59:01.886Z</time></trkpt><trkpt lat="42.3234275" lon="13.4419035"><ele>585.0</ele><time>2026-04-26T14:59:02.887Z</time></trkpt><trkpt lat="42.3233944" lon="13.4420456"><ele>585.0</ele><time>2026-04-26T14:59:03.886Z</time></trkpt><trkpt lat="42.3233865" lon="13.4421971"><ele>585.0</ele><time>2026-04-26T14:59:04.885Z</time></trkpt><trkpt lat="42.3234017" lon="13.4423645"><ele>585.0</ele><time>2026-04-26T14:59:05.885Z</time></trkpt><trkpt lat="42.32343" lon="13.4425454"><ele>585.0</ele><time>2026-04-26T14:59:06.885Z</time></trkpt><trkpt lat="42.323441" lon="13.4427358"><ele>585.0</ele><time>2026-04-26T14:59:07.886Z</time></trkpt><trkpt lat="42.3234233" lon="13.4429351"><ele>585.0</ele><time>2026-04-26T14:59:08.886Z</time></trkpt><trkpt lat="42.3233748" lon="13.4431518"><ele>585.0</ele><time>2026-04-26T14:59:09.885Z</time></trkpt><trkpt lat="42.3233112" lon="13.4433867"><ele>585.6666666666666</ele><time>2026-04-26T14:59:10.885Z</time></trkpt><trkpt lat="42.3232473" lon="13.4436316"><ele>586.3333333333333</ele><time>2026-04-26T14:59:11.886Z</time></trkpt><trkpt lat="42.3231826" lon="13.4438971"><ele>587.0</ele><time>2026-04-26T14:59:12.887Z</time></trkpt><trkpt lat="42.323113" lon="13.4441783"><ele>586.5</ele><time>2026-04-26T14:59:13.887Z</time></trkpt><trkpt lat="42.3230507" lon="13.4444671"><ele>586.0</ele><time>2026-04-26T14:59:14.886Z</time></trkpt><trkpt lat="42.3229897" lon="13.4447647"><ele>586.0</ele><time>2026-04-26T14:59:15.886Z</time></trkpt><trkpt lat="42.3229377" lon="13.4450706"><ele>586.0</ele><time>2026-04-26T14:59:16.886Z</time></trkpt><trkpt lat="42.32288" lon="13.4453807"><ele>586.0</ele><time>2026-04-26T14:59:17.886Z</time></trkpt><trkpt lat="42.3228233" lon="13.4456944"><ele>586.0</ele><time>2026-04-26T14:59:18.886Z</time></trkpt><trkpt lat="42.3227688" lon="13.4460022"><ele>586.0</ele><time>2026-04-26T14:59:19.886Z</time></trkpt><trkpt lat="42.3227177" lon="13.4463084"><ele>586.0</ele><time>2026-04-26T14:59:20.886Z</time></trkpt><trkpt lat="42.3226643" lon="13.4466131"><ele>586.0</ele><time>2026-04-26T14:59:21.886Z</time></trkpt><trkpt lat="42.3226216" lon="13.4469201"><ele>586.0</ele><time>2026-04-26T14:59:22.886Z</time></trkpt><trkpt lat="42.3225897" lon="13.447234"><ele>585.5</ele><time>2026-04-26T14:59:23.886Z</time></trkpt><trkpt lat="42.3225653" lon="13.4475557"><ele>585.0</ele><time>2026-04-26T14:59:24.886Z</time></trkpt><trkpt lat="42.3225442" lon="13.4478708"><ele>585.0</ele><time>2026-04-26T14:59:25.885Z</time></trkpt><trkpt lat="42.3225202" lon="13.4481821"><ele>585.0</ele><time>2026-04-26T14:59:26.885Z</time></trkpt><trkpt lat="42.3225011" lon="13.4484948"><ele>585.0</ele><time>2026-04-26T14:59:27.885Z</time></trkpt><trkpt lat="42.3224868" lon="13.4488065"><ele>585.0</ele><time>2026-04-26T14:59:28.886Z</time></trkpt><trkpt lat="42.3224659" lon="13.4491158"><ele>585.0</ele><time>2026-04-26T14:59:29.886Z</time></trkpt><trkpt lat="42.3224376" lon="13.4494193"><ele>585.0</ele><time>2026-04-26T14:59:30.886Z</time></trkpt><trkpt lat="42.3224077" lon="13.4497321"><ele>585.5</ele><time>2026-04-26T14:59:31.886Z</time></trkpt><trkpt lat="42.3223761" lon="13.4500502"><ele>586.0</ele><time>2026-04-26T14:59:32.885Z</time></trkpt><trkpt lat="42.3223424" lon="13.4503745"><ele>584.5</ele><time>2026-04-26T14:59:33.885Z</time></trkpt><trkpt lat="42.3223075" lon="13.4507012"><ele>583.0</ele><time>2026-04-26T14:59:34.886Z</time></trkpt><trkpt lat="42.3222794" lon="13.4510199"><ele>584.5</ele><time>2026-04-26T14:59:35.885Z</time></trkpt><trkpt lat="42.3222525" lon="13.4513449"><ele>586.0</ele><time>2026-04-26T14:59:36.886Z</time></trkpt><trkpt lat="42.3222367" lon="13.451676"><ele>586.5</ele><time>2026-04-26T14:59:37.886Z</time></trkpt><trkpt lat="42.3222306" lon="13.4520041"><ele>587.0</ele><time>2026-04-26T14:59:38.885Z</time></trkpt><trkpt lat="42.322227" lon="13.4523235"><ele>587.0</ele><time>2026-04-26T14:59:39.886Z</time></trkpt><trkpt lat="42.322213" lon="13.4526401"><ele>587.0</ele><time>2026-04-26T14:59:40.886Z</time></trkpt><trkpt lat="42.3221857" lon="13.4529619"><ele>587.0</ele><time>2026-04-26T14:59:41.887Z</time></trkpt><trkpt lat="42.3221468" lon="13.4532937"><ele>587.0</ele><time>2026-04-26T14:59:42.885Z</time></trkpt><trkpt lat="42.3221032" lon="13.4536351"><ele>587.0</ele><time>2026-04-26T14:59:43.887Z</time></trkpt><trkpt lat="42.3220556" lon="13.4539781"><ele>587.0</ele><time>2026-04-26T14:59:44.886Z</time></trkpt><trkpt lat="42.3220057" lon="13.4543289"><ele>586.0</ele><time>2026-04-26T14:59:45.886Z</time></trkpt><trkpt lat="42.3219561" lon="13.4546838"><ele>585.0</ele><time>2026-04-26T14:59:46.886Z</time></trkpt><trkpt lat="42.3219042" lon="13.4550434"><ele>585.0</ele><time>2026-04-26T14:59:47.886Z</time></trkpt><trkpt lat="42.3218508" lon="13.455401"><ele>585.0</ele><time>2026-04-26T14:59:48.886Z</time></trkpt><trkpt lat="42.3218072" lon="13.4557012"><ele>584.6666666666666</ele><time>2026-04-26T14:59:49.885Z</time></trkpt><trkpt lat="42.3217654" lon="13.4559925"><ele>584.3333333333333</ele><time>2026-04-26T14:59:50.886Z</time></trkpt><trkpt lat="42.3217294" lon="13.4562703"><ele>584.0</ele><time>2026-04-26T14:59:51.885Z</time></trkpt><trkpt lat="42.3216882" lon="13.45653"><ele>584.3333333333333</ele><time>2026-04-26T14:59:52.885Z</time></trkpt><trkpt lat="42.3216479" lon="13.4567811"><ele>584.6666666666666</ele><time>2026-04-26T14:59:53.886Z</time></trkpt><trkpt lat="42.3216112" lon="13.4570297"><ele>585.0</ele><time>2026-04-26T14:59:54.886Z</time></trkpt><trkpt lat="42.3215722" lon="13.4572733"><ele>585.0</ele><time>2026-04-26T14:59:55.885Z</time></trkpt><trkpt lat="42.3215259" lon="13.4575033"><ele>585.0</ele><time>2026-04-26T14:59:56.887Z</time></trkpt><trkpt lat="42.3214714" lon="13.457735"><ele>585.0</ele><time>2026-04-26T14:59:57.886Z</time></trkpt><trkpt lat="42.321413" lon="13.457962"><ele>585.0</ele><time>2026-04-26T14:59:58.886Z</time></trkpt><trkpt lat="42.3213523" lon="13.4581915"><ele>585.0</ele><time>2026-04-26T14:59:59.886Z</time></trkpt><trkpt lat="42.3212918" lon="13.4584157"><ele>585.0</ele><time>2026-04-26T15:00:00.886Z</time></trkpt><trkpt lat="42.3212316" lon="13.4586496"><ele>584.6666666666666</ele><time>2026-04-26T15:00:01.885Z</time></trkpt><trkpt lat="42.3211815" lon="13.4588868"><ele>584.3333333333333</ele><time>2026-04-26T15:00:02.887Z</time></trkpt><trkpt lat="42.3211347" lon="13.4591178"><ele>584.0</ele><time>2026-04-26T15:00:03.886Z</time></trkpt><trkpt lat="42.3210928" lon="13.4593418"><ele>584.0</ele><time>2026-04-26T15:00:04.885Z</time></trkpt><trkpt lat="42.3210505" lon="13.4595663"><ele>584.0</ele><time>2026-04-26T15:00:05.886Z</time></trkpt><trkpt lat="42.3210105" lon="13.4597942"><ele>584.0</ele><time>2026-04-26T15:00:06.885Z</time></trkpt><trkpt lat="42.3209667" lon="13.4600258"><ele>584.0</ele><time>2026-04-26T15:00:07.886Z</time></trkpt><trkpt lat="42.3209187" lon="13.4602588"><ele>584.0</ele><time>2026-04-26T15:00:08.886Z</time></trkpt><trkpt lat="42.3208716" lon="13.4604973"><ele>584.0</ele><time>2026-04-26T15:00:09.885Z</time></trkpt><trkpt lat="42.3208321" lon="13.4607508"><ele>584.3333333333333</ele><time>2026-04-26T15:00:10.885Z</time></trkpt><trkpt lat="42.3208033" lon="13.4610111"><ele>584.6666666666666</ele><time>2026-04-26T15:00:11.886Z</time></trkpt><trkpt lat="42.320776" lon="13.4612769"><ele>585.0</ele><time>2026-04-26T15:00:12.885Z</time></trkpt><trkpt lat="42.3207505" lon="13.4615407"><ele>584.6666666666666</ele><time>2026-04-26T15:00:13.885Z</time></trkpt><trkpt lat="42.3207227" lon="13.4617997"><ele>584.3333333333333</ele><time>2026-04-26T15:00:14.885Z</time></trkpt><trkpt lat="42.3206965" lon="13.4620407"><ele>584.0</ele><time>2026-04-26T15:00:15.886Z</time></trkpt><trkpt lat="42.3206753" lon="13.462266"><ele>584.0</ele><time>2026-04-26T15:00:16.885Z</time></trkpt><trkpt lat="42.3206561" lon="13.4624878"><ele>584.0</ele><time>2026-04-26T15:00:17.886Z</time></trkpt><trkpt lat="42.3206349" lon="13.4627008"><ele>584.0</ele><time>2026-04-26T15:00:18.886Z</time></trkpt><trkpt lat="42.3206157" lon="13.4629014"><ele>584.5</ele><time>2026-04-26T15:00:19.885Z</time></trkpt><trkpt lat="42.3205983" lon="13.4630929"><ele>585.0</ele><time>2026-04-26T15:00:20.885Z</time></trkpt><trkpt lat="42.320583" lon="13.4632774"><ele>585.5</ele><time>2026-04-26T15:00:21.886Z</time></trkpt><trkpt lat="42.3205654" lon="13.4634598"><ele>586.0</ele><time>2026-04-26T15:00:22.886Z</time></trkpt><trkpt lat="42.3205488" lon="13.463647"><ele>586.75</ele><time>2026-04-26T15:00:23.886Z</time></trkpt><trkpt lat="42.320534" lon="13.4638366"><ele>587.5</ele><time>2026-04-26T15:00:24.886Z</time></trkpt><trkpt lat="42.3205172" lon="13.4640172"><ele>588.25</ele><time>2026-04-26T15:00:25.886Z</time></trkpt><trkpt lat="42.3205038" lon="13.4641818"><ele>589.0</ele><time>2026-04-26T15:00:26.886Z</time></trkpt><trkpt lat="42.3204846" lon="13.4643315"><ele>589.0</ele><time>2026-04-26T15:00:27.885Z</time></trkpt><trkpt lat="42.3204703" lon="13.4644638"><ele>589.0</ele><time>2026-04-26T15:00:28.887Z</time></trkpt><trkpt lat="42.3204571" lon="13.4645805"><ele>589.0</ele><time>2026-04-26T15:00:29.886Z</time></trkpt><trkpt lat="42.3204441" lon="13.4646866"><ele>589.0</ele><time>2026-04-26T15:00:30.886Z</time></trkpt><trkpt lat="42.3204365" lon="13.4647873"><ele>589.0</ele><time>2026-04-26T15:00:31.886Z</time></trkpt><trkpt lat="42.3204227" lon="13.4649396"><ele>589.8</ele><time>2026-04-26T15:00:33.885Z</time></trkpt><trkpt lat="42.3204149" lon="13.4650558"><ele>590.5999999999999</ele><time>2026-04-26T15:00:35.886Z</time></trkpt><trkpt lat="42.320404" lon="13.465162"><ele>591.4</ele><time>2026-04-26T15:00:37.887Z</time></trkpt><trkpt lat="42.3203911" lon="13.4652811"><ele>592.1999999999999</ele><time>2026-04-26T15:00:39.886Z</time></trkpt><trkpt lat="42.3204233" lon="13.4654559"><ele>593.0</ele><time>2026-04-26T15:00:41.886Z</time></trkpt><trkpt lat="42.3204696" lon="13.4655524"><ele>593.6666666666666</ele><time>2026-04-26T15:00:42.886Z</time></trkpt><trkpt lat="42.3205234" lon="13.4656477"><ele>594.3333333333333</ele><time>2026-04-26T15:00:43.885Z</time></trkpt><trkpt lat="42.3205746" lon="13.465735"><ele>595.0</ele><time>2026-04-26T15:00:44.886Z</time></trkpt><trkpt lat="42.320622" lon="13.4658206"><ele>595.6666666666666</ele><time>2026-04-26T15:00:45.886Z</time></trkpt><trkpt lat="42.32067" lon="13.4659059"><ele>596.3333333333334</ele><time>2026-04-26T15:00:46.885Z</time></trkpt><trkpt lat="42.3207137" lon="13.4659987"><ele>597.0</ele><time>2026-04-26T15:00:47.886Z</time></trkpt><trkpt lat="42.320763" lon="13.4660791"><ele>597.0</ele><time>2026-04-26T15:00:48.886Z</time></trkpt><trkpt lat="42.32082" lon="13.4661563"><ele>597.0</ele><time>2026-04-26T15:00:49.887Z</time></trkpt><trkpt lat="42.320862" lon="13.4662541"><ele>597.0</ele><time>2026-04-26T15:00:50.887Z</time></trkpt><trkpt lat="42.3208305" lon="13.4663772"><ele>597.0</ele><time>2026-04-26T15:00:51.885Z</time></trkpt><trkpt lat="42.3208278" lon="13.4664814"><ele>597.0</ele><time>2026-04-26T15:00:52.886Z</time></trkpt><trkpt lat="42.3207949" lon="13.4665753"><ele>597.0</ele><time>2026-04-26T15:00:53.887Z</time></trkpt><trkpt lat="42.3207622" lon="13.4666653"><ele>596.3333333333334</ele><time>2026-04-26T15:00:54.887Z</time></trkpt><trkpt lat="42.320729" lon="13.4667525"><ele>595.6666666666666</ele><time>2026-04-26T15:00:55.887Z</time></trkpt><trkpt lat="42.3206701" lon="13.4668889"><ele>595.0</ele><time>2026-04-26T15:00:57.887Z</time></trkpt><trkpt lat="42.320738" lon="13.4668327"><ele>594.3333333333333</ele><time>2026-04-26T15:01:01.886Z</time></trkpt><trkpt lat="42.3207546" lon="13.4667115"><ele>593.6666666666666</ele><time>2026-04-26T15:01:03.887Z</time></trkpt><trkpt lat="42.3208053" lon="13.4666469"><ele>593.0</ele><time>2026-04-26T15:01:06.886Z</time></trkpt><trkpt lat="42.32079" lon="13.4667453"><ele>593.0</ele><time>2026-04-26T15:01:09.887Z</time></trkpt><trkpt lat="42.320761" lon="13.4668953"><ele>593.0</ele><time>2026-04-26T15:01:11.887Z</time></trkpt><trkpt lat="42.3207442" lon="13.4669989"><ele>593.0</ele><time>2026-04-26T15:01:12.886Z</time></trkpt><trkpt lat="42.3207319" lon="13.4670954"><ele>593.0</ele><time>2026-04-26T15:01:13.885Z</time></trkpt><trkpt lat="42.3207056" lon="13.4671844"><ele>593.0</ele><time>2026-04-26T15:01:14.885Z</time></trkpt><trkpt lat="42.3206957" lon="13.4672851"><ele>593.0</ele><time>2026-04-26T15:01:15.886Z</time></trkpt><trkpt lat="42.3207199" lon="13.467401"><ele>591.6</ele><time>2026-04-26T15:01:16.886Z</time></trkpt><trkpt lat="42.3207651" lon="13.467528"><ele>590.1999999999999</ele><time>2026-04-26T15:01:17.887Z</time></trkpt><trkpt lat="42.3208232" lon="13.4676348"><ele>588.8</ele><time>2026-04-26T15:01:18.886Z</time></trkpt><trkpt lat="42.3208905" lon="13.467756"><ele>587.4</ele><time>2026-04-26T15:01:19.887Z</time></trkpt><trkpt lat="42.3209638" lon="13.4678847"><ele>586.0</ele><time>2026-04-26T15:01:20.885Z</time></trkpt><trkpt lat="42.3210366" lon="13.4680225"><ele>584.6666666666667</ele><time>2026-04-26T15:01:21.886Z</time></trkpt><trkpt lat="42.3211203" lon="13.4681655"><ele>583.3333333333334</ele><time>2026-04-26T15:01:22.886Z</time></trkpt><trkpt lat="42.3212168" lon="13.4683236"><ele>582.0</ele><time>2026-04-26T15:01:23.885Z</time></trkpt><trkpt lat="42.3213257" lon="13.4684988"><ele>581.6666666666666</ele><time>2026-04-26T15:01:24.885Z</time></trkpt><trkpt lat="42.3214424" lon="13.4686821"><ele>581.3333333333333</ele><time>2026-04-26T15:01:25.886Z</time></trkpt><trkpt lat="42.321561" lon="13.4688729"><ele>581.0</ele><time>2026-04-26T15:01:26.885Z</time></trkpt><trkpt lat="42.3216707" lon="13.4690526"><ele>580.6666666666666</ele><time>2026-04-26T15:01:27.886Z</time></trkpt><trkpt lat="42.3217796" lon="13.4692361"><ele>580.3333333333334</ele><time>2026-04-26T15:01:28.886Z</time></trkpt><trkpt lat="42.3218952" lon="13.4694077"><ele>580.0</ele><time>2026-04-26T15:01:29.885Z</time></trkpt><trkpt lat="42.3220027" lon="13.4695699"><ele>579.6666666666667</ele><time>2026-04-26T15:01:30.885Z</time></trkpt><trkpt lat="42.3221076" lon="13.4697361"><ele>579.3333333333334</ele><time>2026-04-26T15:01:31.885Z</time></trkpt><trkpt lat="42.3222044" lon="13.4698995"><ele>579.0</ele><time>2026-04-26T15:01:32.885Z</time></trkpt><trkpt lat="42.3222941" lon="13.4700585"><ele>579.25</ele><time>2026-04-26T15:01:33.885Z</time></trkpt><trkpt lat="42.3223688" lon="13.4702162"><ele>579.5</ele><time>2026-04-26T15:01:34.885Z</time></trkpt><trkpt lat="42.3224051" lon="13.4703825"><ele>579.75</ele><time>2026-04-26T15:01:35.885Z</time></trkpt><trkpt lat="42.3224083" lon="13.4705531"><ele>580.0</ele><time>2026-04-26T15:01:36.885Z</time></trkpt><trkpt lat="42.3223961" lon="13.4707312"><ele>580.0</ele><time>2026-04-26T15:01:37.885Z</time></trkpt><trkpt lat="42.3223774" lon="13.4709139"><ele>580.0</ele><time>2026-04-26T15:01:38.886Z</time></trkpt><trkpt lat="42.3223585" lon="13.4711091"><ele>580.0</ele><time>2026-04-26T15:01:39.885Z</time></trkpt><trkpt lat="42.3223404" lon="13.4713121"><ele>580.0</ele><time>2026-04-26T15:01:40.885Z</time></trkpt><trkpt lat="42.3223349" lon="13.471517"><ele>580.75</ele><time>2026-04-26T15:01:41.884Z</time></trkpt><trkpt lat="42.3223428" lon="13.4717216"><ele>581.5</ele><time>2026-04-26T15:01:42.885Z</time></trkpt><trkpt lat="42.3223573" lon="13.4719227"><ele>582.25</ele><time>2026-04-26T15:01:43.884Z</time></trkpt><trkpt lat="42.3223604" lon="13.4721081"><ele>583.0</ele><time>2026-04-26T15:01:44.884Z</time></trkpt><trkpt lat="42.3223451" lon="13.472281"><ele>583.0</ele><time>2026-04-26T15:01:45.885Z</time></trkpt><trkpt lat="42.3223174" lon="13.4724392"><ele>583.0</ele><time>2026-04-26T15:01:46.886Z</time></trkpt><trkpt lat="42.3223067" lon="13.4725852"><ele>583.0</ele><time>2026-04-26T15:01:47.885Z</time></trkpt><trkpt lat="42.3223206" lon="13.4727187"><ele>583.0</ele><time>2026-04-26T15:01:48.886Z</time></trkpt><trkpt lat="42.3223549" lon="13.4728443"><ele>583.0</ele><time>2026-04-26T15:01:49.886Z</time></trkpt><trkpt lat="42.3223928" lon="13.4729838"><ele>583.0</ele><time>2026-04-26T15:01:50.885Z</time></trkpt><trkpt lat="42.3224252" lon="13.4731391"><ele>583.0</ele><time>2026-04-26T15:01:51.886Z</time></trkpt><trkpt lat="42.3224451" lon="13.4733069"><ele>583.0</ele><time>2026-04-26T15:01:52.885Z</time></trkpt><trkpt lat="42.3224446" lon="13.4734748"><ele>583.0</ele><time>2026-04-26T15:01:53.884Z</time></trkpt><trkpt lat="42.3224371" lon="13.4736324"><ele>582.25</ele><time>2026-04-26T15:01:54.885Z</time></trkpt><trkpt lat="42.3224285" lon="13.4737873"><ele>581.5</ele><time>2026-04-26T15:01:55.884Z</time></trkpt><trkpt lat="42.3224454" lon="13.473943"><ele>580.75</ele><time>2026-04-26T15:01:56.886Z</time></trkpt><trkpt lat="42.3224969" lon="13.4740889"><ele>580.0</ele><time>2026-04-26T15:01:57.885Z</time></trkpt><trkpt lat="42.3225643" lon="13.4742276"><ele>580.0</ele><time>2026-04-26T15:01:58.885Z</time></trkpt><trkpt lat="42.3226306" lon="13.4743542"><ele>580.0</ele><time>2026-04-26T15:01:59.885Z</time></trkpt><trkpt lat="42.3226886" lon="13.4744824"><ele>580.0</ele><time>2026-04-26T15:02:00.885Z</time></trkpt><trkpt lat="42.3227087" lon="13.4746273"><ele>580.0</ele><time>2026-04-26T15:02:01.885Z</time></trkpt><trkpt lat="42.3227012" lon="13.4747729"><ele>580.0</ele><time>2026-04-26T15:02:02.885Z</time></trkpt><trkpt lat="42.322661" lon="13.47492"><ele>580.0</ele><time>2026-04-26T15:02:03.885Z</time></trkpt><trkpt lat="42.3226105" lon="13.4750582"><ele>580.0</ele><time>2026-04-26T15:02:04.886Z</time></trkpt><trkpt lat="42.3225597" lon="13.4751812"><ele>580.0</ele><time>2026-04-26T15:02:05.885Z</time></trkpt><trkpt lat="42.3224932" lon="13.4753092"><ele>580.0</ele><time>2026-04-26T15:02:06.885Z</time></trkpt><trkpt lat="42.3224284" lon="13.4754186"><ele>580.0</ele><time>2026-04-26T15:02:07.885Z</time></trkpt><trkpt lat="42.3223773" lon="13.4755272"><ele>580.1666666666667</ele><time>2026-04-26T15:02:08.885Z</time></trkpt><trkpt lat="42.3223404" lon="13.4756328"><ele>580.3333333333334</ele><time>2026-04-26T15:02:09.885Z</time></trkpt><trkpt lat="42.3223031" lon="13.4757419"><ele>580.5</ele><time>2026-04-26T15:02:10.885Z</time></trkpt><trkpt lat="42.32233" lon="13.4758519"><ele>580.6666666666666</ele><time>2026-04-26T15:02:11.886Z</time></trkpt><trkpt lat="42.322353" lon="13.4759378"><ele>580.8333333333333</ele><time>2026-04-26T15:02:12.884Z</time></trkpt><trkpt lat="42.3223312" lon="13.476086"><ele>581.0</ele><time>2026-04-26T15:02:14.885Z</time></trkpt><trkpt lat="42.3222856" lon="13.4762264"><ele>581.4</ele><time>2026-04-26T15:02:16.884Z</time></trkpt><trkpt lat="42.3221884" lon="13.4763023"><ele>581.8</ele><time>2026-04-26T15:02:17.884Z</time></trkpt><trkpt lat="42.3221221" lon="13.4763899"><ele>582.1999999999999</ele><time>2026-04-26T15:02:18.886Z</time></trkpt><trkpt lat="42.3220634" lon="13.4764714"><ele>582.6</ele><time>2026-04-26T15:02:19.886Z</time></trkpt><trkpt lat="42.3220005" lon="13.4765447"><ele>583.0</ele><time>2026-04-26T15:02:20.885Z</time></trkpt><trkpt lat="42.3219278" lon="13.4766154"><ele>583.0</ele><time>2026-04-26T15:02:21.885Z</time></trkpt><trkpt lat="42.3218615" lon="13.4766886"><ele>583.0</ele><time>2026-04-26T15:02:22.886Z</time></trkpt><trkpt lat="42.3218005" lon="13.4767513"><ele>583.0</ele><time>2026-04-26T15:02:23.885Z</time></trkpt><trkpt lat="42.321733" lon="13.4767896"><ele>583.0</ele><time>2026-04-26T15:02:24.885Z</time></trkpt><trkpt lat="42.3216549" lon="13.4768126"><ele>583.0</ele><time>2026-04-26T15:02:25.885Z</time></trkpt><trkpt lat="42.3215607" lon="13.4768161"><ele>583.0</ele><time>2026-04-26T15:02:26.886Z</time></trkpt><trkpt lat="42.3214576" lon="13.4768043"><ele>582.6</ele><time>2026-04-26T15:02:27.886Z</time></trkpt><trkpt lat="42.321355" lon="13.4767988"><ele>582.1999999999999</ele><time>2026-04-26T15:02:28.885Z</time></trkpt><trkpt lat="42.3212567" lon="13.4768176"><ele>581.8</ele><time>2026-04-26T15:02:29.885Z</time></trkpt><trkpt lat="42.3211612" lon="13.4768469"><ele>581.4</ele><time>2026-04-26T15:02:30.885Z</time></trkpt><trkpt lat="42.3210684" lon="13.4768965"><ele>581.0</ele><time>2026-04-26T15:02:31.885Z</time></trkpt><trkpt lat="42.3209747" lon="13.4769643"><ele>581.0</ele><time>2026-04-26T15:02:32.884Z</time></trkpt><trkpt lat="42.3208875" lon="13.4770333"><ele>581.0</ele><time>2026-04-26T15:02:33.884Z</time></trkpt><trkpt lat="42.3207988" lon="13.4770941"><ele>581.0</ele><time>2026-04-26T15:02:34.885Z</time></trkpt><trkpt lat="42.3207129" lon="13.4771552"><ele>581.0</ele><time>2026-04-26T15:02:35.885Z</time></trkpt><trkpt lat="42.3206244" lon="13.4772107"><ele>581.0</ele><time>2026-04-26T15:02:36.886Z</time></trkpt><trkpt lat="42.3205395" lon="13.4772791"><ele>580.8</ele><time>2026-04-26T15:02:37.885Z</time></trkpt><trkpt lat="42.3204554" lon="13.4773479"><ele>580.6</ele><time>2026-04-26T15:02:38.885Z</time></trkpt><trkpt lat="42.3203714" lon="13.477421"><ele>580.4</ele><time>2026-04-26T15:02:39.885Z</time></trkpt><trkpt lat="42.3202966" lon="13.4774942"><ele>580.2</ele><time>2026-04-26T15:02:40.886Z</time></trkpt><trkpt lat="42.3202238" lon="13.4775789"><ele>580.0</ele><time>2026-04-26T15:02:41.885Z</time></trkpt><trkpt lat="42.3201553" lon="13.4776616"><ele>580.0</ele><time>2026-04-26T15:02:42.885Z</time></trkpt><trkpt lat="42.3200837" lon="13.4777446"><ele>580.0</ele><time>2026-04-26T15:02:43.885Z</time></trkpt><trkpt lat="42.3200145" lon="13.4778347"><ele>580.0</ele><time>2026-04-26T15:02:44.884Z</time></trkpt><trkpt lat="42.3199417" lon="13.4779229"><ele>580.0</ele><time>2026-04-26T15:02:45.885Z</time></trkpt><trkpt lat="42.3198724" lon="13.4780164"><ele>580.0</ele><time>2026-04-26T15:02:46.884Z</time></trkpt><trkpt lat="42.3197998" lon="13.4781153"><ele>580.0</ele><time>2026-04-26T15:02:47.885Z</time></trkpt><trkpt lat="42.3197486" lon="13.478175"><ele>580.0</ele><time>2026-04-26T15:02:48.885Z</time></trkpt><trkpt lat="42.3197028" lon="13.4782426"><ele>580.0</ele><time>2026-04-26T15:02:49.885Z</time></trkpt><trkpt lat="42.3196375" lon="13.4783132"><ele>580.0</ele><time>2026-04-26T15:02:50.884Z</time></trkpt><trkpt lat="42.3195764" lon="13.4783807"><ele>580.0</ele><time>2026-04-26T15:02:51.885Z</time></trkpt><trkpt lat="42.3195153" lon="13.4784538"><ele>580.0</ele><time>2026-04-26T15:02:52.884Z</time></trkpt><trkpt lat="42.3194419" lon="13.4785213"><ele>580.0</ele><time>2026-04-26T15:02:53.885Z</time></trkpt><trkpt lat="42.3193708" lon="13.4786032"><ele>580.0</ele><time>2026-04-26T15:02:54.885Z</time></trkpt><trkpt lat="42.3192941" lon="13.478709"><ele>580.0</ele><time>2026-04-26T15:02:55.886Z</time></trkpt><trkpt lat="42.3192263" lon="13.4788058"><ele>580.0</ele><time>2026-04-26T15:02:56.884Z</time></trkpt><trkpt lat="42.319158" lon="13.4789213"><ele>580.0</ele><time>2026-04-26T15:02:57.885Z</time></trkpt><trkpt lat="42.3190834" lon="13.4790182"><ele>580.0</ele><time>2026-04-26T15:02:58.885Z</time></trkpt><trkpt lat="42.3190175" lon="13.4791079"><ele>580.0</ele><time>2026-04-26T15:02:59.885Z</time></trkpt><trkpt lat="42.3189475" lon="13.4791855"><ele>580.0</ele><time>2026-04-26T15:03:00.884Z</time></trkpt><trkpt lat="42.3188725" lon="13.4792664"><ele>580.0</ele><time>2026-04-26T15:03:01.884Z</time></trkpt><trkpt lat="42.3187974" lon="13.4793476"><ele>580.0</ele><time>2026-04-26T15:03:02.885Z</time></trkpt><trkpt lat="42.318723" lon="13.4794286"><ele>580.2</ele><time>2026-04-26T15:03:03.885Z</time></trkpt><trkpt lat="42.3186486" lon="13.4795154"><ele>580.4</ele><time>2026-04-26T15:03:04.885Z</time></trkpt><trkpt lat="42.3185636" lon="13.479593"><ele>580.6</ele><time>2026-04-26T15:03:05.884Z</time></trkpt><trkpt lat="42.3184864" lon="13.479665"><ele>580.8</ele><time>2026-04-26T15:03:06.884Z</time></trkpt><trkpt lat="42.3184121" lon="13.4797302"><ele>581.0</ele><time>2026-04-26T15:03:07.885Z</time></trkpt><trkpt lat="42.3183272" lon="13.4798029"><ele>580.4</ele><time>2026-04-26T15:03:08.885Z</time></trkpt><trkpt lat="42.3182472" lon="13.4798826"><ele>579.8</ele><time>2026-04-26T15:03:09.885Z</time></trkpt><trkpt lat="42.3181661" lon="13.4799703"><ele>579.1999999999999</ele><time>2026-04-26T15:03:10.885Z</time></trkpt><trkpt lat="42.3180806" lon="13.4800669"><ele>578.6</ele><time>2026-04-26T15:03:11.886Z</time></trkpt><trkpt lat="42.3179904" lon="13.480173"><ele>578.0</ele><time>2026-04-26T15:03:12.886Z</time></trkpt><trkpt lat="42.3179034" lon="13.4802853"><ele>578.0</ele><time>2026-04-26T15:03:13.884Z</time></trkpt><trkpt lat="42.3178103" lon="13.4803948"><ele>578.0</ele><time>2026-04-26T15:03:14.885Z</time></trkpt><trkpt lat="42.317725" lon="13.4805028"><ele>578.0</ele><time>2026-04-26T15:03:15.886Z</time></trkpt><trkpt lat="42.3176382" lon="13.4806106"><ele>578.0</ele><time>2026-04-26T15:03:16.886Z</time></trkpt><trkpt lat="42.3175574" lon="13.4807161"><ele>577.5</ele><time>2026-04-26T15:03:17.885Z</time></trkpt><trkpt lat="42.3174702" lon="13.4808359"><ele>577.0</ele><time>2026-04-26T15:03:18.884Z</time></trkpt><trkpt lat="42.3173885" lon="13.4809587"><ele>576.5</ele><time>2026-04-26T15:03:19.885Z</time></trkpt><trkpt lat="42.317314" lon="13.4810662"><ele>576.0</ele><time>2026-04-26T15:03:20.884Z</time></trkpt><trkpt lat="42.3172404" lon="13.481173"><ele>576.6</ele><time>2026-04-26T15:03:21.884Z</time></trkpt><trkpt lat="42.3171651" lon="13.4812787"><ele>577.2</ele><time>2026-04-26T15:03:22.884Z</time></trkpt><trkpt lat="42.3170951" lon="13.481386"><ele>577.8</ele><time>2026-04-26T15:03:23.885Z</time></trkpt><trkpt lat="42.3170278" lon="13.4814949"><ele>578.4</ele><time>2026-04-26T15:03:24.885Z</time></trkpt><trkpt lat="42.3169674" lon="13.4816114"><ele>579.0</ele><time>2026-04-26T15:03:25.884Z</time></trkpt><trkpt lat="42.316893" lon="13.4817246"><ele>579.0</ele><time>2026-04-26T15:03:26.885Z</time></trkpt><trkpt lat="42.3168329" lon="13.4818322"><ele>579.0</ele><time>2026-04-26T15:03:27.884Z</time></trkpt><trkpt lat="42.3167533" lon="13.4819162"><ele>579.0</ele><time>2026-04-26T15:03:28.884Z</time></trkpt><trkpt lat="42.3166701" lon="13.4819977"><ele>579.0</ele><time>2026-04-26T15:03:29.884Z</time></trkpt><trkpt lat="42.316601" lon="13.4820772"><ele>579.0</ele><time>2026-04-26T15:03:30.885Z</time></trkpt><trkpt lat="42.3165457" lon="13.4821561"><ele>578.8</ele><time>2026-04-26T15:03:31.886Z</time></trkpt><trkpt lat="42.3164731" lon="13.4822681"><ele>578.5999999999999</ele><time>2026-04-26T15:03:32.886Z</time></trkpt><trkpt lat="42.3164092" lon="13.4823887"><ele>578.4</ele><time>2026-04-26T15:03:33.884Z</time></trkpt><trkpt lat="42.3163456" lon="13.4825087"><ele>578.1999999999999</ele><time>2026-04-26T15:03:34.884Z</time></trkpt><trkpt lat="42.3162881" lon="13.4826252"><ele>578.0</ele><time>2026-04-26T15:03:35.884Z</time></trkpt><trkpt lat="42.3162386" lon="13.4827449"><ele>578.0</ele><time>2026-04-26T15:03:36.885Z</time></trkpt><trkpt lat="42.3161852" lon="13.4828709"><ele>578.0</ele><time>2026-04-26T15:03:37.886Z</time></trkpt><trkpt lat="42.3161422" lon="13.4829999"><ele>578.0</ele><time>2026-04-26T15:03:38.885Z</time></trkpt><trkpt lat="42.3160963" lon="13.4831269"><ele>578.0</ele><time>2026-04-26T15:03:39.884Z</time></trkpt><trkpt lat="42.3160422" lon="13.483254"><ele>578.0</ele><time>2026-04-26T15:03:40.885Z</time></trkpt><trkpt lat="42.315983" lon="13.4833777"><ele>577.8</ele><time>2026-04-26T15:03:41.884Z</time></trkpt><trkpt lat="42.3159226" lon="13.483499"><ele>577.5999999999999</ele><time>2026-04-26T15:03:42.886Z</time></trkpt><trkpt lat="42.315861" lon="13.4836122"><ele>577.4000000000001</ele><time>2026-04-26T15:03:43.884Z</time></trkpt><trkpt lat="42.3158052" lon="13.4837265"><ele>577.2</ele><time>2026-04-26T15:03:44.885Z</time></trkpt><trkpt lat="42.3157603" lon="13.4838478"><ele>577.0</ele><time>2026-04-26T15:03:45.884Z</time></trkpt><trkpt lat="42.3157048" lon="13.4839611"><ele>576.8000000000001</ele><time>2026-04-26T15:03:46.885Z</time></trkpt><trkpt lat="42.315638" lon="13.4840878"><ele>576.6</ele><time>2026-04-26T15:03:47.886Z</time></trkpt><trkpt lat="42.3155755" lon="13.4842014"><ele>576.4000000000001</ele><time>2026-04-26T15:03:48.884Z</time></trkpt><trkpt lat="42.3154964" lon="13.4842802"><ele>576.2</ele><time>2026-04-26T15:03:49.885Z</time></trkpt><trkpt lat="42.3154329" lon="13.4843627"><ele>576.0</ele><time>2026-04-26T15:03:50.886Z</time></trkpt><trkpt lat="42.3153837" lon="13.4844716"><ele>576.0</ele><time>2026-04-26T15:03:51.884Z</time></trkpt><trkpt lat="42.3153568" lon="13.4846123"><ele>576.0</ele><time>2026-04-26T15:03:52.884Z</time></trkpt><trkpt lat="42.3153266" lon="13.4847452"><ele>576.0</ele><time>2026-04-26T15:03:53.884Z</time></trkpt><trkpt lat="42.3152996" lon="13.4848899"><ele>576.0</ele><time>2026-04-26T15:03:54.884Z</time></trkpt><trkpt lat="42.3152483" lon="13.4850327"><ele>576.0</ele><time>2026-04-26T15:03:55.885Z</time></trkpt><trkpt lat="42.315213" lon="13.4851735"><ele>576.0</ele><time>2026-04-26T15:03:56.885Z</time></trkpt><trkpt lat="42.3151782" lon="13.4852865"><ele>576.0</ele><time>2026-04-26T15:03:57.885Z</time></trkpt><trkpt lat="42.3151389" lon="13.4854369"><ele>576.0</ele><time>2026-04-26T15:03:58.885Z</time></trkpt><trkpt lat="42.3150861" lon="13.4855768"><ele>576.0</ele><time>2026-04-26T15:03:59.885Z</time></trkpt><trkpt lat="42.3150419" lon="13.4857413"><ele>575.75</ele><time>2026-04-26T15:04:00.885Z</time></trkpt><trkpt lat="42.3149923" lon="13.4858872"><ele>575.5</ele><time>2026-04-26T15:04:01.884Z</time></trkpt><trkpt lat="42.3149415" lon="13.4860365"><ele>575.25</ele><time>2026-04-26T15:04:02.886Z</time></trkpt><trkpt lat="42.3148868" lon="13.4861691"><ele>575.0</ele><time>2026-04-26T15:04:03.885Z</time></trkpt><trkpt lat="42.3148227" lon="13.4862862"><ele>575.0</ele><time>2026-04-26T15:04:04.884Z</time></trkpt><trkpt lat="42.314746" lon="13.4864318"><ele>575.0</ele><time>2026-04-26T15:04:05.884Z</time></trkpt><trkpt lat="42.3146658" lon="13.486565"><ele>575.0</ele><time>2026-04-26T15:04:06.884Z</time></trkpt><trkpt lat="42.3145819" lon="13.4866966"><ele>575.0</ele><time>2026-04-26T15:04:07.884Z</time></trkpt><trkpt lat="42.3144792" lon="13.4868249"><ele>575.0</ele><time>2026-04-26T15:04:08.884Z</time></trkpt><trkpt lat="42.3144029" lon="13.4869516"><ele>575.0</ele><time>2026-04-26T15:04:09.885Z</time></trkpt><trkpt lat="42.3143291" lon="13.4870742"><ele>575.0</ele><time>2026-04-26T15:04:10.884Z</time></trkpt><trkpt lat="42.3142672" lon="13.4871906"><ele>575.0</ele><time>2026-04-26T15:04:11.886Z</time></trkpt><trkpt lat="42.3142014" lon="13.4873168"><ele>575.0</ele><time>2026-04-26T15:04:12.884Z</time></trkpt><trkpt lat="42.3141293" lon="13.4874383"><ele>575.0</ele><time>2026-04-26T15:04:13.884Z</time></trkpt><trkpt lat="42.314057" lon="13.4875586"><ele>575.0</ele><time>2026-04-26T15:04:14.885Z</time></trkpt><trkpt lat="42.3139801" lon="13.4876744"><ele>575.0</ele><time>2026-04-26T15:04:15.885Z</time></trkpt><trkpt lat="42.3139173" lon="13.4877776"><ele>575.0</ele><time>2026-04-26T15:04:16.884Z</time></trkpt><trkpt lat="42.3138512" lon="13.4878974"><ele>575.2</ele><time>2026-04-26T15:04:17.884Z</time></trkpt><trkpt lat="42.3137936" lon="13.4880059"><ele>575.4</ele><time>2026-04-26T15:04:18.885Z</time></trkpt><trkpt lat="42.3137335" lon="13.4881095"><ele>575.6</ele><time>2026-04-26T15:04:19.885Z</time></trkpt><trkpt lat="42.3136612" lon="13.4882081"><ele>575.8</ele><time>2026-04-26T15:04:20.885Z</time></trkpt><trkpt lat="42.313595" lon="13.4882821"><ele>576.0</ele><time>2026-04-26T15:04:21.885Z</time></trkpt><trkpt lat="42.3135277" lon="13.4883788"><ele>576.0</ele><time>2026-04-26T15:04:22.885Z</time></trkpt><trkpt lat="42.3134547" lon="13.4885005"><ele>576.0</ele><time>2026-04-26T15:04:23.885Z</time></trkpt><trkpt lat="42.313393" lon="13.4886255"><ele>576.0</ele><time>2026-04-26T15:04:24.885Z</time></trkpt><trkpt lat="42.3133233" lon="13.4887531"><ele>576.0</ele><time>2026-04-26T15:04:25.885Z</time></trkpt><trkpt lat="42.3132746" lon="13.4888556"><ele>576.0</ele><time>2026-04-26T15:04:26.884Z</time></trkpt><trkpt lat="42.3131927" lon="13.4889715"><ele>575.5</ele><time>2026-04-26T15:04:27.885Z</time></trkpt><trkpt lat="42.3131033" lon="13.489096"><ele>575.0</ele><time>2026-04-26T15:04:28.885Z</time></trkpt><trkpt lat="42.3130131" lon="13.4892379"><ele>574.5</ele><time>2026-04-26T15:04:29.885Z</time></trkpt><trkpt lat="42.3129305" lon="13.4893758"><ele>574.0</ele><time>2026-04-26T15:04:30.884Z</time></trkpt><trkpt lat="42.3128502" lon="13.4895022"><ele>574.0</ele><time>2026-04-26T15:04:31.885Z</time></trkpt><trkpt lat="42.3127746" lon="13.4896244"><ele>574.0</ele><time>2026-04-26T15:04:32.885Z</time></trkpt><trkpt lat="42.3127031" lon="13.4897494"><ele>574.0</ele><time>2026-04-26T15:04:33.885Z</time></trkpt><trkpt lat="42.3126245" lon="13.4898819"><ele>574.0</ele><time>2026-04-26T15:04:34.885Z</time></trkpt><trkpt lat="42.3125514" lon="13.4900243"><ele>574.0</ele><time>2026-04-26T15:04:35.885Z</time></trkpt><trkpt lat="42.3124819" lon="13.490184"><ele>574.0</ele><time>2026-04-26T15:04:36.885Z</time></trkpt><trkpt lat="42.3124131" lon="13.490344"><ele>574.0</ele><time>2026-04-26T15:04:37.885Z</time></trkpt><trkpt lat="42.3123456" lon="13.4904976"><ele>574.0</ele><time>2026-04-26T15:04:38.884Z</time></trkpt><trkpt lat="42.3122789" lon="13.4906534"><ele>574.0</ele><time>2026-04-26T15:04:39.886Z</time></trkpt><trkpt lat="42.3122146" lon="13.490812"><ele>574.0</ele><time>2026-04-26T15:04:40.885Z</time></trkpt><trkpt lat="42.3121499" lon="13.4909699"><ele>574.0</ele><time>2026-04-26T15:04:41.885Z</time></trkpt><trkpt lat="42.3120834" lon="13.4911194"><ele>574.0</ele><time>2026-04-26T15:04:42.885Z</time></trkpt><trkpt lat="42.3120252" lon="13.4912647"><ele>574.5</ele><time>2026-04-26T15:04:43.885Z</time></trkpt><trkpt lat="42.3119647" lon="13.4914075"><ele>575.0</ele><time>2026-04-26T15:04:44.884Z</time></trkpt><trkpt lat="42.3119031" lon="13.491555"><ele>575.5</ele><time>2026-04-26T15:04:45.885Z</time></trkpt><trkpt lat="42.3118609" lon="13.4916861"><ele>576.0</ele><time>2026-04-26T15:04:46.886Z</time></trkpt><trkpt lat="42.3118246" lon="13.49184"><ele>576.0</ele><time>2026-04-26T15:04:47.886Z</time></trkpt><trkpt lat="42.3117995" lon="13.4920065"><ele>576.0</ele><time>2026-04-26T15:04:48.886Z</time></trkpt><trkpt lat="42.3117733" lon="13.492176"><ele>576.0</ele><time>2026-04-26T15:04:49.885Z</time></trkpt><trkpt lat="42.3117508" lon="13.4923487"><ele>576.0</ele><time>2026-04-26T15:04:50.886Z</time></trkpt><trkpt lat="42.3117289" lon="13.4925217"><ele>575.5</ele><time>2026-04-26T15:04:51.885Z</time></trkpt><trkpt lat="42.3117031" lon="13.4926858"><ele>575.0</ele><time>2026-04-26T15:04:52.886Z</time></trkpt><trkpt lat="42.3116843" lon="13.4928584"><ele>574.5</ele><time>2026-04-26T15:04:53.885Z</time></trkpt><trkpt lat="42.3116652" lon="13.4930306"><ele>574.0</ele><time>2026-04-26T15:04:54.884Z</time></trkpt><trkpt lat="42.3116399" lon="13.4932032"><ele>573.75</ele><time>2026-04-26T15:04:55.885Z</time></trkpt><trkpt lat="42.3116116" lon="13.4933725"><ele>573.5</ele><time>2026-04-26T15:04:56.885Z</time></trkpt><trkpt lat="42.3115689" lon="13.4935377"><ele>573.25</ele><time>2026-04-26T15:04:57.884Z</time></trkpt><trkpt lat="42.3115198" lon="13.4937076"><ele>573.0</ele><time>2026-04-26T15:04:58.885Z</time></trkpt><trkpt lat="42.3114711" lon="13.4938651"><ele>573.0</ele><time>2026-04-26T15:04:59.884Z</time></trkpt><trkpt lat="42.3114192" lon="13.4940284"><ele>573.0</ele><time>2026-04-26T15:05:00.885Z</time></trkpt><trkpt lat="42.3113942" lon="13.4941871"><ele>573.0</ele><time>2026-04-26T15:05:01.884Z</time></trkpt><trkpt lat="42.3113666" lon="13.4943259"><ele>573.0</ele><time>2026-04-26T15:05:02.885Z</time></trkpt><trkpt lat="42.3113287" lon="13.4944738"><ele>573.25</ele><time>2026-04-26T15:05:03.885Z</time></trkpt><trkpt lat="42.31129" lon="13.4946175"><ele>573.5</ele><time>2026-04-26T15:05:04.884Z</time></trkpt><trkpt lat="42.311243" lon="13.4947559"><ele>573.75</ele><time>2026-04-26T15:05:05.885Z</time></trkpt><trkpt lat="42.311194" lon="13.4948978"><ele>574.0</ele><time>2026-04-26T15:05:06.886Z</time></trkpt><trkpt lat="42.3111357" lon="13.4950394"><ele>574.0</ele><time>2026-04-26T15:05:07.884Z</time></trkpt><trkpt lat="42.311076" lon="13.4951848"><ele>574.0</ele><time>2026-04-26T15:05:08.884Z</time></trkpt><trkpt lat="42.3110148" lon="13.4953294"><ele>574.0</ele><time>2026-04-26T15:05:09.885Z</time></trkpt><trkpt lat="42.3109529" lon="13.495472"><ele>574.0</ele><time>2026-04-26T15:05:10.885Z</time></trkpt><trkpt lat="42.3108811" lon="13.4956283"><ele>573.8</ele><time>2026-04-26T15:05:11.884Z</time></trkpt><trkpt lat="42.310818" lon="13.4957741"><ele>573.5999999999999</ele><time>2026-04-26T15:05:12.885Z</time></trkpt><trkpt lat="42.3107615" lon="13.4959118"><ele>573.4</ele><time>2026-04-26T15:05:13.885Z</time></trkpt><trkpt lat="42.3107085" lon="13.4960316"><ele>573.1999999999999</ele><time>2026-04-26T15:05:14.885Z</time></trkpt><trkpt lat="42.3106601" lon="13.4961538"><ele>573.0</ele><time>2026-04-26T15:05:15.885Z</time></trkpt><trkpt lat="42.3106154" lon="13.4962613"><ele>573.0</ele><time>2026-04-26T15:05:16.884Z</time></trkpt><trkpt lat="42.3105773" lon="13.4963553"><ele>573.0</ele><time>2026-04-26T15:05:17.885Z</time></trkpt><trkpt lat="42.3105456" lon="13.496509"><ele>573.0</ele><time>2026-04-26T15:05:19.883Z</time></trkpt><trkpt lat="42.3105172" lon="13.4965908"><ele>573.0</ele><time>2026-04-26T15:05:20.884Z</time></trkpt><trkpt lat="42.3104677" lon="13.49669"><ele>573.0</ele><time>2026-04-26T15:05:21.884Z</time></trkpt><trkpt lat="42.3104098" lon="13.4968117"><ele>572.75</ele><time>2026-04-26T15:05:22.884Z</time></trkpt><trkpt lat="42.3103478" lon="13.49694"><ele>572.5</ele><time>2026-04-26T15:05:23.884Z</time></trkpt><trkpt lat="42.3102791" lon="13.497074"><ele>572.25</ele><time>2026-04-26T15:05:24.884Z</time></trkpt><trkpt lat="42.3102082" lon="13.4972115"><ele>572.0</ele><time>2026-04-26T15:05:25.885Z</time></trkpt><trkpt lat="42.3101451" lon="13.4973557"><ele>571.75</ele><time>2026-04-26T15:05:26.883Z</time></trkpt><trkpt lat="42.3100802" lon="13.4975007"><ele>571.5</ele><time>2026-04-26T15:05:27.883Z</time></trkpt><trkpt lat="42.3100161" lon="13.4976471"><ele>571.25</ele><time>2026-04-26T15:05:28.883Z</time></trkpt><trkpt lat="42.309957" lon="13.4978032"><ele>571.0</ele><time>2026-04-26T15:05:29.884Z</time></trkpt><trkpt lat="42.3098948" lon="13.4979496"><ele>570.75</ele><time>2026-04-26T15:05:30.883Z</time></trkpt><trkpt lat="42.3098357" lon="13.4980938"><ele>570.5</ele><time>2026-04-26T15:05:31.884Z</time></trkpt><trkpt lat="42.3097688" lon="13.4982431"><ele>570.25</ele><time>2026-04-26T15:05:32.884Z</time></trkpt><trkpt lat="42.3097003" lon="13.4983923"><ele>570.0</ele><time>2026-04-26T15:05:33.885Z</time></trkpt><trkpt lat="42.3096358" lon="13.4985352"><ele>570.0</ele><time>2026-04-26T15:05:34.884Z</time></trkpt><trkpt lat="42.3095699" lon="13.4986799"><ele>570.0</ele><time>2026-04-26T15:05:35.884Z</time></trkpt><trkpt lat="42.3095066" lon="13.4988263"><ele>570.0</ele><time>2026-04-26T15:05:36.883Z</time></trkpt><trkpt lat="42.3094411" lon="13.4989679"><ele>570.0</ele><time>2026-04-26T15:05:37.884Z</time></trkpt><trkpt lat="42.3093735" lon="13.4990979"><ele>570.4</ele><time>2026-04-26T15:05:38.883Z</time></trkpt><trkpt lat="42.3093075" lon="13.4992187"><ele>570.8</ele><time>2026-04-26T15:05:39.884Z</time></trkpt><trkpt lat="42.309241" lon="13.4993373"><ele>571.2</ele><time>2026-04-26T15:05:40.884Z</time></trkpt><trkpt lat="42.3091823" lon="13.4994513"><ele>571.6</ele><time>2026-04-26T15:05:41.883Z</time></trkpt><trkpt lat="42.3091295" lon="13.4995616"><ele>572.0</ele><time>2026-04-26T15:05:42.884Z</time></trkpt><trkpt lat="42.3090893" lon="13.4996663"><ele>572.0</ele><time>2026-04-26T15:05:43.884Z</time></trkpt><trkpt lat="42.309059" lon="13.4997763"><ele>572.0</ele><time>2026-04-26T15:05:44.883Z</time></trkpt><trkpt lat="42.3090296" lon="13.4998901"><ele>572.0</ele><time>2026-04-26T15:05:45.884Z</time></trkpt><trkpt lat="42.30899" lon="13.5000034"><ele>572.0</ele><time>2026-04-26T15:05:46.885Z</time></trkpt><trkpt lat="42.3089505" lon="13.5001254"><ele>572.0</ele><time>2026-04-26T15:05:47.883Z</time></trkpt><trkpt lat="42.3089033" lon="13.5002487"><ele>572.0</ele><time>2026-04-26T15:05:48.885Z</time></trkpt><trkpt lat="42.308855" lon="13.5003675"><ele>572.0</ele><time>2026-04-26T15:05:49.884Z</time></trkpt><trkpt lat="42.3088104" lon="13.5004935"><ele>572.0</ele><time>2026-04-26T15:05:50.885Z</time></trkpt><trkpt lat="42.3087651" lon="13.5006121"><ele>572.0</ele><time>2026-04-26T15:05:51.884Z</time></trkpt><trkpt lat="42.3087199" lon="13.5007311"><ele>572.0</ele><time>2026-04-26T15:05:52.884Z</time></trkpt><trkpt lat="42.3086737" lon="13.500847"><ele>572.2</ele><time>2026-04-26T15:05:53.883Z</time></trkpt><trkpt lat="42.3086272" lon="13.5009659"><ele>572.4000000000001</ele><time>2026-04-26T15:05:54.885Z</time></trkpt><trkpt lat="42.3085735" lon="13.5010837"><ele>572.5999999999999</ele><time>2026-04-26T15:05:55.883Z</time></trkpt><trkpt lat="42.3085185" lon="13.5012049"><ele>572.8</ele><time>2026-04-26T15:05:56.884Z</time></trkpt><trkpt lat="42.3084516" lon="13.5013367"><ele>573.0</ele><time>2026-04-26T15:05:57.884Z</time></trkpt><trkpt lat="42.3083909" lon="13.5014657"><ele>572.6</ele><time>2026-04-26T15:05:58.884Z</time></trkpt><trkpt lat="42.3083247" lon="13.5015971"><ele>572.1999999999999</ele><time>2026-04-26T15:05:59.883Z</time></trkpt><trkpt lat="42.3082571" lon="13.501723"><ele>571.8</ele><time>2026-04-26T15:06:00.883Z</time></trkpt><trkpt lat="42.3081939" lon="13.5018295"><ele>571.4</ele><time>2026-04-26T15:06:01.884Z</time></trkpt><trkpt lat="42.308142" lon="13.5019239"><ele>571.0</ele><time>2026-04-26T15:06:02.883Z</time></trkpt><trkpt lat="42.3080979" lon="13.5020114"><ele>571.4</ele><time>2026-04-26T15:06:03.885Z</time></trkpt><trkpt lat="42.3080503" lon="13.5020866"><ele>571.8</ele><time>2026-04-26T15:06:04.885Z</time></trkpt><trkpt lat="42.3079947" lon="13.5021393"><ele>572.1999999999999</ele><time>2026-04-26T15:06:05.884Z</time></trkpt><trkpt lat="42.3078557" lon="13.5021872"><ele>572.6</ele><time>2026-04-26T15:06:07.884Z</time></trkpt><trkpt lat="42.307708" lon="13.5021821"><ele>573.0</ele><time>2026-04-26T15:06:08.885Z</time></trkpt><trkpt lat="42.3075966" lon="13.502174"><ele>573.0</ele><time>2026-04-26T15:06:09.883Z</time></trkpt><trkpt lat="42.3074787" lon="13.5021848"><ele>573.0</ele><time>2026-04-26T15:06:10.883Z</time></trkpt><trkpt lat="42.3073697" lon="13.5021825"><ele>573.0</ele><time>2026-04-26T15:06:11.883Z</time></trkpt><trkpt lat="42.3072592" lon="13.5021897"><ele>573.0</ele><time>2026-04-26T15:06:12.884Z</time></trkpt><trkpt lat="42.3071488" lon="13.5021841"><ele>573.0</ele><time>2026-04-26T15:06:13.883Z</time></trkpt><trkpt lat="42.3070334" lon="13.5021866"><ele>573.0</ele><time>2026-04-26T15:06:14.884Z</time></trkpt><trkpt lat="42.3069104" lon="13.502191"><ele>573.0</ele><time>2026-04-26T15:06:15.883Z</time></trkpt><trkpt lat="42.3067795" lon="13.5021974"><ele>573.0</ele><time>2026-04-26T15:06:16.884Z</time></trkpt><trkpt lat="42.3066521" lon="13.5022"><ele>573.0</ele><time>2026-04-26T15:06:17.884Z</time></trkpt><trkpt lat="42.306533" lon="13.5022045"><ele>573.0</ele><time>2026-04-26T15:06:18.884Z</time></trkpt><trkpt lat="42.3064177" lon="13.5022003"><ele>573.0</ele><time>2026-04-26T15:06:19.884Z</time></trkpt><trkpt lat="42.306307" lon="13.5022002"><ele>573.0</ele><time>2026-04-26T15:06:20.884Z</time></trkpt><trkpt lat="42.3061956" lon="13.502197"><ele>573.0</ele><time>2026-04-26T15:06:21.884Z</time></trkpt><trkpt lat="42.3060805" lon="13.5022055"><ele>573.0</ele><time>2026-04-26T15:06:22.883Z</time></trkpt><trkpt lat="42.3059662" lon="13.5022048"><ele>573.0</ele><time>2026-04-26T15:06:23.883Z</time></trkpt><trkpt lat="42.3058608" lon="13.5022124"><ele>573.0</ele><time>2026-04-26T15:06:24.883Z</time></trkpt><trkpt lat="42.3057528" lon="13.5022157"><ele>573.0</ele><time>2026-04-26T15:06:25.883Z</time></trkpt><trkpt lat="42.3056449" lon="13.5022214"><ele>573.0</ele><time>2026-04-26T15:06:26.884Z</time></trkpt><trkpt lat="42.3055264" lon="13.5022229"><ele>573.0</ele><time>2026-04-26T15:06:27.883Z</time></trkpt><trkpt lat="42.3054048" lon="13.5022295"><ele>573.0</ele><time>2026-04-26T15:06:28.884Z</time></trkpt><trkpt lat="42.3052868" lon="13.5022444"><ele>573.0</ele><time>2026-04-26T15:06:29.884Z</time></trkpt><trkpt lat="42.3051676" lon="13.5022615"><ele>573.0</ele><time>2026-04-26T15:06:30.884Z</time></trkpt><trkpt lat="42.3050518" lon="13.5022891"><ele>573.0</ele><time>2026-04-26T15:06:31.885Z</time></trkpt><trkpt lat="42.3049485" lon="13.5023224"><ele>573.0</ele><time>2026-04-26T15:06:32.883Z</time></trkpt><trkpt lat="42.3048456" lon="13.5023637"><ele>573.0</ele><time>2026-04-26T15:06:33.884Z</time></trkpt><trkpt lat="42.3047526" lon="13.5024108"><ele>573.0</ele><time>2026-04-26T15:06:34.885Z</time></trkpt><trkpt lat="42.3046661" lon="13.5024542"><ele>573.0</ele><time>2026-04-26T15:06:35.884Z</time></trkpt><trkpt lat="42.3045795" lon="13.5025041"><ele>572.8333333333334</ele><time>2026-04-26T15:06:36.884Z</time></trkpt><trkpt lat="42.3044938" lon="13.502558"><ele>572.6666666666666</ele><time>2026-04-26T15:06:37.884Z</time></trkpt><trkpt lat="42.3044133" lon="13.5026142"><ele>572.5</ele><time>2026-04-26T15:06:38.885Z</time></trkpt><trkpt lat="42.3043404" lon="13.502668"><ele>572.3333333333333</ele><time>2026-04-26T15:06:39.884Z</time></trkpt><trkpt lat="42.3042685" lon="13.5027177"><ele>572.1666666666666</ele><time>2026-04-26T15:06:40.885Z</time></trkpt><trkpt lat="42.3041969" lon="13.5027711"><ele>572.0</ele><time>2026-04-26T15:06:41.884Z</time></trkpt><trkpt lat="42.3041296" lon="13.5028262"><ele>572.0</ele><time>2026-04-26T15:06:42.883Z</time></trkpt><trkpt lat="42.3040745" lon="13.502878"><ele>572.0</ele><time>2026-04-26T15:06:43.883Z</time></trkpt><trkpt lat="42.3039895" lon="13.5029442"><ele>572.0</ele><time>2026-04-26T15:06:45.883Z</time></trkpt><trkpt lat="42.3039295" lon="13.5029767"><ele>572.0</ele><time>2026-04-26T15:06:49.884Z</time></trkpt><trkpt lat="42.3039129" lon="13.5030667"><ele>572.0</ele><time>2026-04-26T15:06:52.884Z</time></trkpt><trkpt lat="42.3039908" lon="13.5031982"><ele>572.0</ele><time>2026-04-26T15:06:54.884Z</time></trkpt><trkpt lat="42.3040513" lon="13.5033055"><ele>572.0</ele><time>2026-04-26T15:06:55.885Z</time></trkpt><trkpt lat="42.3041198" lon="13.5034251"><ele>572.0</ele><time>2026-04-26T15:06:56.884Z</time></trkpt><trkpt lat="42.3041967" lon="13.5035554"><ele>572.0</ele><time>2026-04-26T15:06:57.885Z</time></trkpt><trkpt lat="42.3042836" lon="13.5036898"><ele>572.0</ele><time>2026-04-26T15:06:58.884Z</time></trkpt><trkpt lat="42.304371" lon="13.5038404"><ele>572.0</ele><time>2026-04-26T15:06:59.885Z</time></trkpt><trkpt lat="42.3044535" lon="13.5039974"><ele>572.0</ele><time>2026-04-26T15:07:00.884Z</time></trkpt><trkpt lat="42.304537" lon="13.5041474"><ele>572.0</ele><time>2026-04-26T15:07:01.885Z</time></trkpt><trkpt lat="42.3046135" lon="13.5042926"><ele>572.0</ele><time>2026-04-26T15:07:02.885Z</time></trkpt><trkpt lat="42.304698" lon="13.5044294"><ele>571.75</ele><time>2026-04-26T15:07:03.884Z</time></trkpt><trkpt lat="42.304779" lon="13.5045766"><ele>571.5</ele><time>2026-04-26T15:07:04.885Z</time></trkpt><trkpt lat="42.304857" lon="13.5047172"><ele>571.25</ele><time>2026-04-26T15:07:05.883Z</time></trkpt><trkpt lat="42.3049307" lon="13.504844"><ele>571.0</ele><time>2026-04-26T15:07:06.884Z</time></trkpt><trkpt lat="42.3049929" lon="13.5049516"><ele>570.8</ele><time>2026-04-26T15:07:07.884Z</time></trkpt><trkpt lat="42.3050352" lon="13.505044"><ele>570.6</ele><time>2026-04-26T15:07:08.884Z</time></trkpt><trkpt lat="42.3050541" lon="13.5051906"><ele>570.4</ele><time>2026-04-26T15:07:10.884Z</time></trkpt><trkpt lat="42.3049845" lon="13.5053531"><ele>570.2</ele><time>2026-04-26T15:07:12.883Z</time></trkpt><trkpt lat="42.3049283" lon="13.5054408"><ele>570.0</ele><time>2026-04-26T15:07:13.884Z</time></trkpt><trkpt lat="42.3048647" lon="13.5055362"><ele>570.0</ele><time>2026-04-26T15:07:14.884Z</time></trkpt><trkpt lat="42.3047987" lon="13.505648"><ele>570.0</ele><time>2026-04-26T15:07:15.883Z</time></trkpt><trkpt lat="42.3047315" lon="13.5057731"><ele>570.0</ele><time>2026-04-26T15:07:16.884Z</time></trkpt><trkpt lat="42.3046582" lon="13.505905"><ele>570.0</ele><time>2026-04-26T15:07:17.884Z</time></trkpt><trkpt lat="42.3045865" lon="13.5060342"><ele>570.0</ele><time>2026-04-26T15:07:18.884Z</time></trkpt><trkpt lat="42.3045107" lon="13.5061455"><ele>570.0</ele><time>2026-04-26T15:07:19.883Z</time></trkpt><trkpt lat="42.3044317" lon="13.5062599"><ele>570.0</ele><time>2026-04-26T15:07:20.883Z</time></trkpt><trkpt lat="42.304341" lon="13.5063685"><ele>570.0</ele><time>2026-04-26T15:07:21.884Z</time></trkpt><trkpt lat="42.3042442" lon="13.5064766"><ele>570.0</ele><time>2026-04-26T15:07:22.884Z</time></trkpt><trkpt lat="42.3041489" lon="13.5065883"><ele>570.0</ele><time>2026-04-26T15:07:23.885Z</time></trkpt><trkpt lat="42.3040562" lon="13.5067075"><ele>570.0</ele><time>2026-04-26T15:07:24.885Z</time></trkpt><trkpt lat="42.3039543" lon="13.5068366"><ele>570.0</ele><time>2026-04-26T15:07:25.884Z</time></trkpt><trkpt lat="42.3038559" lon="13.5069656"><ele>569.5</ele><time>2026-04-26T15:07:26.884Z</time></trkpt><trkpt lat="42.3037536" lon="13.5070992"><ele>569.0</ele><time>2026-04-26T15:07:27.884Z</time></trkpt><trkpt lat="42.3036521" lon="13.5072307"><ele>568.5</ele><time>2026-04-26T15:07:28.883Z</time></trkpt><trkpt lat="42.3035495" lon="13.507353"><ele>568.0</ele><time>2026-04-26T15:07:29.885Z</time></trkpt><trkpt lat="42.3034514" lon="13.5074654"><ele>568.0</ele><time>2026-04-26T15:07:30.884Z</time></trkpt><trkpt lat="42.3033522" lon="13.5075738"><ele>568.0</ele><time>2026-04-26T15:07:31.885Z</time></trkpt><trkpt lat="42.3032535" lon="13.5076788"><ele>568.0</ele><time>2026-04-26T15:07:32.884Z</time></trkpt><trkpt lat="42.3031547" lon="13.5077881"><ele>568.0</ele><time>2026-04-26T15:07:33.885Z</time></trkpt><trkpt lat="42.303058" lon="13.5079004"><ele>568.0</ele><time>2026-04-26T15:07:34.884Z</time></trkpt><trkpt lat="42.3029635" lon="13.5080027"><ele>568.0</ele><time>2026-04-26T15:07:35.883Z</time></trkpt><trkpt lat="42.3028613" lon="13.5081001"><ele>568.0</ele><time>2026-04-26T15:07:36.884Z</time></trkpt><trkpt lat="42.3027524" lon="13.5081873"><ele>568.0</ele><time>2026-04-26T15:07:37.883Z</time></trkpt><trkpt lat="42.3026454" lon="13.5082712"><ele>568.0</ele><time>2026-04-26T15:07:38.884Z</time></trkpt><trkpt lat="42.3025361" lon="13.5083534"><ele>568.0</ele><time>2026-04-26T15:07:39.884Z</time></trkpt><trkpt lat="42.3024338" lon="13.5084518"><ele>568.0</ele><time>2026-04-26T15:07:40.884Z</time></trkpt><trkpt lat="42.3023396" lon="13.5085593"><ele>568.0</ele><time>2026-04-26T15:07:41.885Z</time></trkpt><trkpt lat="42.3022419" lon="13.5086652"><ele>568.5</ele><time>2026-04-26T15:07:42.885Z</time></trkpt><trkpt lat="42.302151" lon="13.5087877"><ele>569.0</ele><time>2026-04-26T15:07:43.885Z</time></trkpt><trkpt lat="42.3020661" lon="13.5089046"><ele>569.5</ele><time>2026-04-26T15:07:44.884Z</time></trkpt><trkpt lat="42.3019896" lon="13.5090248"><ele>570.0</ele><time>2026-04-26T15:07:45.884Z</time></trkpt><trkpt lat="42.3019308" lon="13.5091531"><ele>570.0</ele><time>2026-04-26T15:07:46.884Z</time></trkpt><trkpt lat="42.3018719" lon="13.5092822"><ele>570.0</ele><time>2026-04-26T15:07:47.884Z</time></trkpt><trkpt lat="42.3018245" lon="13.5094268"><ele>570.0</ele><time>2026-04-26T15:07:48.884Z</time></trkpt><trkpt lat="42.3017841" lon="13.5095793"><ele>570.0</ele><time>2026-04-26T15:07:49.883Z</time></trkpt><trkpt lat="42.3017437" lon="13.5097379"><ele>569.75</ele><time>2026-04-26T15:07:50.884Z</time></trkpt><trkpt lat="42.301703" lon="13.5099027"><ele>569.5</ele><time>2026-04-26T15:07:51.883Z</time></trkpt><trkpt lat="42.3016599" lon="13.5100694"><ele>569.25</ele><time>2026-04-26T15:07:52.884Z</time></trkpt><trkpt lat="42.3016192" lon="13.5102256"><ele>569.0</ele><time>2026-04-26T15:07:53.884Z</time></trkpt><trkpt lat="42.3015776" lon="13.510365"><ele>569.0</ele><time>2026-04-26T15:07:54.883Z</time></trkpt><trkpt lat="42.3015267" lon="13.5104944"><ele>569.0</ele><time>2026-04-26T15:07:55.885Z</time></trkpt><trkpt lat="42.301458" lon="13.5105943"><ele>569.0</ele><time>2026-04-26T15:07:56.884Z</time></trkpt><trkpt lat="42.3013854" lon="13.5106698"><ele>569.0</ele><time>2026-04-26T15:07:57.884Z</time></trkpt><trkpt lat="42.3013049" lon="13.5107377"><ele>569.0</ele><time>2026-04-26T15:07:58.884Z</time></trkpt><trkpt lat="42.3012403" lon="13.5107778"><ele>569.3333333333333</ele><time>2026-04-26T15:07:59.884Z</time></trkpt><trkpt lat="42.3011674" lon="13.5108014"><ele>569.6666666666666</ele><time>2026-04-26T15:08:00.885Z</time></trkpt><trkpt lat="42.301104" lon="13.510802"><ele>570.0</ele><time>2026-04-26T15:08:01.884Z</time></trkpt><trkpt lat="42.3010401" lon="13.5108528"><ele>570.3333333333334</ele><time>2026-04-26T15:08:03.884Z</time></trkpt><trkpt lat="42.3010002" lon="13.5109253"><ele>570.6666666666667</ele><time>2026-04-26T15:08:05.883Z</time></trkpt><trkpt lat="42.301071" lon="13.5110149"><ele>571.0</ele><time>2026-04-26T15:08:06.883Z</time></trkpt><trkpt lat="42.3011034" lon="13.5111213"><ele>571.0</ele><time>2026-04-26T15:08:07.884Z</time></trkpt><trkpt lat="42.3011405" lon="13.5112363"><ele>571.0</ele><time>2026-04-26T15:08:08.885Z</time></trkpt><trkpt lat="42.3011821" lon="13.5113696"><ele>571.0</ele><time>2026-04-26T15:08:09.884Z</time></trkpt><trkpt lat="42.3012281" lon="13.5114977"><ele>571.0</ele><time>2026-04-26T15:08:10.884Z</time></trkpt><trkpt lat="42.3012732" lon="13.5116361"><ele>571.0</ele><time>2026-04-26T15:08:11.884Z</time></trkpt><trkpt lat="42.3013242" lon="13.5117717"><ele>570.75</ele><time>2026-04-26T15:08:12.884Z</time></trkpt><trkpt lat="42.3013878" lon="13.5119055"><ele>570.5</ele><time>2026-04-26T15:08:13.884Z</time></trkpt><trkpt lat="42.3014561" lon="13.5120427"><ele>570.25</ele><time>2026-04-26T15:08:14.885Z</time></trkpt><trkpt lat="42.3015325" lon="13.5121716"><ele>570.0</ele><time>2026-04-26T15:08:15.884Z</time></trkpt><trkpt lat="42.3016108" lon="13.5122946"><ele>569.8</ele><time>2026-04-26T15:08:16.884Z</time></trkpt><trkpt lat="42.3016896" lon="13.5124067"><ele>569.6</ele><time>2026-04-26T15:08:17.884Z</time></trkpt><trkpt lat="42.3017726" lon="13.5125135"><ele>569.4</ele><time>2026-04-26T15:08:18.883Z</time></trkpt><trkpt lat="42.3018514" lon="13.5126085"><ele>569.2</ele><time>2026-04-26T15:08:19.883Z</time></trkpt><trkpt lat="42.3019204" lon="13.5126954"><ele>569.0</ele><time>2026-04-26T15:08:20.884Z</time></trkpt><trkpt lat="42.3019777" lon="13.5127579"><ele>569.0</ele><time>2026-04-26T15:08:21.885Z</time></trkpt><trkpt lat="42.3020502" lon="13.5128283"><ele>569.0</ele><time>2026-04-26T15:08:23.884Z</time></trkpt><trkpt lat="42.3019711" lon="13.5127613"><ele>569.0</ele><time>2026-04-26T15:08:33.884Z</time></trkpt><trkpt lat="42.3018878" lon="13.5127128"><ele>569.0</ele><time>2026-04-26T15:08:35.883Z</time></trkpt><trkpt lat="42.3017907" lon="13.5127813"><ele>569.0</ele><time>2026-04-26T15:08:37.883Z</time></trkpt><trkpt lat="42.3017432" lon="13.5128709"><ele>569.2</ele><time>2026-04-26T15:08:38.884Z</time></trkpt><trkpt lat="42.30169" lon="13.5129857"><ele>569.4</ele><time>2026-04-26T15:08:39.884Z</time></trkpt><trkpt lat="42.3016383" lon="13.5130991"><ele>569.6</ele><time>2026-04-26T15:08:40.884Z</time></trkpt><trkpt lat="42.3015781" lon="13.5132009"><ele>569.8</ele><time>2026-04-26T15:08:41.884Z</time></trkpt><trkpt lat="42.3014965" lon="13.5132873"><ele>570.0</ele><time>2026-04-26T15:08:42.883Z</time></trkpt><trkpt lat="42.3014065" lon="13.5133599"><ele>569.6</ele><time>2026-04-26T15:08:43.884Z</time></trkpt><trkpt lat="42.30132" lon="13.5134308"><ele>569.2</ele><time>2026-04-26T15:08:44.884Z</time></trkpt><trkpt lat="42.3012364" lon="13.5135001"><ele>568.8</ele><time>2026-04-26T15:08:45.884Z</time></trkpt><trkpt lat="42.3011589" lon="13.5135737"><ele>568.4</ele><time>2026-04-26T15:08:46.884Z</time></trkpt><trkpt lat="42.3010787" lon="13.5136478"><ele>568.0</ele><time>2026-04-26T15:08:47.884Z</time></trkpt><trkpt lat="42.3010013" lon="13.5137151"><ele>567.6666666666667</ele><time>2026-04-26T15:08:48.884Z</time></trkpt><trkpt lat="42.3009235" lon="13.5137929"><ele>567.3333333333334</ele><time>2026-04-26T15:08:49.883Z</time></trkpt><trkpt lat="42.3008524" lon="13.5138736"><ele>567.0</ele><time>2026-04-26T15:08:50.883Z</time></trkpt><trkpt lat="42.3008015" lon="13.513952"><ele>566.6666666666666</ele><time>2026-04-26T15:08:51.884Z</time></trkpt><trkpt lat="42.3007739" lon="13.5140555"><ele>566.3333333333333</ele><time>2026-04-26T15:08:52.884Z</time></trkpt><trkpt lat="42.3007768" lon="13.5141644"><ele>566.0</ele><time>2026-04-26T15:08:53.885Z</time></trkpt><trkpt lat="42.3008121" lon="13.5142675"><ele>566.0</ele><time>2026-04-26T15:08:54.884Z</time></trkpt><trkpt lat="42.3008737" lon="13.5143622"><ele>566.0</ele><time>2026-04-26T15:08:55.885Z</time></trkpt><trkpt lat="42.3009633" lon="13.5144586"><ele>566.0</ele><time>2026-04-26T15:08:56.883Z</time></trkpt><trkpt lat="42.3010461" lon="13.5145571"><ele>566.0</ele><time>2026-04-26T15:08:57.883Z</time></trkpt><trkpt lat="42.3011198" lon="13.5146514"><ele>566.0</ele><time>2026-04-26T15:08:58.882Z</time></trkpt><trkpt lat="42.3011704" lon="13.514744"><ele>566.4</ele><time>2026-04-26T15:08:59.883Z</time></trkpt><trkpt lat="42.3012023" lon="13.5148363"><ele>566.8</ele><time>2026-04-26T15:09:00.884Z</time></trkpt><trkpt lat="42.3012044" lon="13.5149355"><ele>567.1999999999999</ele><time>2026-04-26T15:09:01.882Z</time></trkpt><trkpt lat="42.3011768" lon="13.5150453"><ele>567.6</ele><time>2026-04-26T15:09:02.882Z</time></trkpt><trkpt lat="42.3011194" lon="13.5151718"><ele>568.0</ele><time>2026-04-26T15:09:03.882Z</time></trkpt><trkpt lat="42.3010634" lon="13.5152949"><ele>568.0</ele><time>2026-04-26T15:09:04.882Z</time></trkpt><trkpt lat="42.3010112" lon="13.5154036"><ele>568.0</ele><time>2026-04-26T15:09:05.882Z</time></trkpt><trkpt lat="42.3009644" lon="13.5155053"><ele>568.0</ele><time>2026-04-26T15:09:06.883Z</time></trkpt><trkpt lat="42.3009209" lon="13.5156032"><ele>568.0</ele><time>2026-04-26T15:09:07.884Z</time></trkpt><trkpt lat="42.3008851" lon="13.5157049"><ele>568.0</ele><time>2026-04-26T15:09:08.883Z</time></trkpt><trkpt lat="42.3008475" lon="13.515794"><ele>568.0</ele><time>2026-04-26T15:09:09.884Z</time></trkpt><trkpt lat="42.3007699" lon="13.5158651"><ele>568.1999999999999</ele><time>2026-04-26T15:09:11.882Z</time></trkpt><trkpt lat="42.3006794" lon="13.5157939"><ele>568.4</ele><time>2026-04-26T15:09:13.882Z</time></trkpt><trkpt lat="42.3005913" lon="13.515721"><ele>568.5999999999999</ele><time>2026-04-26T15:09:15.882Z</time></trkpt><trkpt lat="42.3005136" lon="13.5157856"><ele>568.8</ele><time>2026-04-26T15:09:17.884Z</time></trkpt><trkpt lat="42.3004869" lon="13.5158692"><ele>569.0</ele><time>2026-04-26T15:09:18.883Z</time></trkpt><trkpt lat="42.3004606" lon="13.5159831"><ele>568.8</ele><time>2026-04-26T15:09:19.883Z</time></trkpt><trkpt lat="42.3004336" lon="13.5161047"><ele>568.5999999999999</ele><time>2026-04-26T15:09:20.883Z</time></trkpt><trkpt lat="42.300403" lon="13.5162316"><ele>568.4</ele><time>2026-04-26T15:09:21.884Z</time></trkpt><trkpt lat="42.3003663" lon="13.5163672"><ele>568.1999999999999</ele><time>2026-04-26T15:09:22.883Z</time></trkpt><trkpt lat="42.3003312" lon="13.5165013"><ele>568.0</ele><time>2026-04-26T15:09:23.882Z</time></trkpt><trkpt lat="42.3002962" lon="13.5166293"><ele>568.0</ele><time>2026-04-26T15:09:24.882Z</time></trkpt><trkpt lat="42.3002642" lon="13.5167645"><ele>568.0</ele><time>2026-04-26T15:09:25.883Z</time></trkpt><trkpt lat="42.3002361" lon="13.5168875"><ele>568.0</ele><time>2026-04-26T15:09:26.883Z</time></trkpt><trkpt lat="42.3002083" lon="13.5169946"><ele>568.0</ele><time>2026-04-26T15:09:27.884Z</time></trkpt><trkpt lat="42.3001792" lon="13.5171118"><ele>568.0</ele><time>2026-04-26T15:09:28.884Z</time></trkpt><trkpt lat="42.3001522" lon="13.5172194"><ele>567.8333333333334</ele><time>2026-04-26T15:09:29.882Z</time></trkpt><trkpt lat="42.3001281" lon="13.5173119"><ele>567.6666666666667</ele><time>2026-04-26T15:09:30.882Z</time></trkpt><trkpt lat="42.3001083" lon="13.5173951"><ele>567.5</ele><time>2026-04-26T15:09:31.883Z</time></trkpt><trkpt lat="42.300084" lon="13.5174781"><ele>567.3333333333334</ele><time>2026-04-26T15:09:32.883Z</time></trkpt><trkpt lat="42.3000606" lon="13.5176183"><ele>567.1666666666666</ele><time>2026-04-26T15:09:34.882Z</time></trkpt><trkpt lat="42.3001205" lon="13.5177322"><ele>567.0</ele><time>2026-04-26T15:09:36.882Z</time></trkpt><trkpt lat="42.3001848" lon="13.5177674"><ele>567.0</ele><time>2026-04-26T15:09:37.882Z</time></trkpt><trkpt lat="42.3002548" lon="13.5178036"><ele>567.0</ele><time>2026-04-26T15:09:38.883Z</time></trkpt><trkpt lat="42.3003329" lon="13.5179006"><ele>567.0</ele><time>2026-04-26T15:09:40.884Z</time></trkpt><trkpt lat="42.3003158" lon="13.5180724"><ele>567.0</ele><time>2026-04-26T15:09:42.883Z</time></trkpt><trkpt lat="42.3002866" lon="13.5181913"><ele>567.0</ele><time>2026-04-26T15:09:43.883Z</time></trkpt><trkpt lat="42.3002521" lon="13.5183244"><ele>566.8333333333334</ele><time>2026-04-26T15:09:44.883Z</time></trkpt><trkpt lat="42.3002186" lon="13.5184471"><ele>566.6666666666666</ele><time>2026-04-26T15:09:45.882Z</time></trkpt><trkpt lat="42.3001921" lon="13.5185563"><ele>566.5</ele><time>2026-04-26T15:09:46.882Z</time></trkpt><trkpt lat="42.3001616" lon="13.5186695"><ele>566.3333333333333</ele><time>2026-04-26T15:09:47.882Z</time></trkpt><trkpt lat="42.3001353" lon="13.5187813"><ele>566.1666666666666</ele><time>2026-04-26T15:09:48.882Z</time></trkpt><trkpt lat="42.3001131" lon="13.5188962"><ele>566.0</ele><time>2026-04-26T15:09:49.883Z</time></trkpt><trkpt lat="42.3000714" lon="13.5189972"><ele>566.0</ele><time>2026-04-26T15:09:50.882Z</time></trkpt><trkpt lat="42.3000438" lon="13.5190959"><ele>566.0</ele><time>2026-04-26T15:09:51.882Z</time></trkpt><trkpt lat="42.2999849" lon="13.5192084"><ele>566.0</ele><time>2026-04-26T15:09:52.882Z</time></trkpt><trkpt lat="42.299938" lon="13.5193183"><ele>566.0</ele><time>2026-04-26T15:09:53.883Z</time></trkpt><trkpt lat="42.2998895" lon="13.5194267"><ele>566.0</ele><time>2026-04-26T15:09:54.883Z</time></trkpt><trkpt lat="42.2998429" lon="13.5195336"><ele>566.0</ele><time>2026-04-26T15:09:55.883Z</time></trkpt><trkpt lat="42.2997919" lon="13.5196394"><ele>566.0</ele><time>2026-04-26T15:09:56.883Z</time></trkpt><trkpt lat="42.2997423" lon="13.5197402"><ele>566.0</ele><time>2026-04-26T15:09:57.882Z</time></trkpt><trkpt lat="42.2996927" lon="13.5198445"><ele>566.0</ele><time>2026-04-26T15:09:58.884Z</time></trkpt><trkpt lat="42.2996391" lon="13.5199507"><ele>566.0</ele><time>2026-04-26T15:09:59.883Z</time></trkpt><trkpt lat="42.2995863" lon="13.5200619"><ele>566.0</ele><time>2026-04-26T15:10:00.883Z</time></trkpt><trkpt lat="42.2995336" lon="13.5201711"><ele>566.0</ele><time>2026-04-26T15:10:01.883Z</time></trkpt><trkpt lat="42.2994817" lon="13.5202812"><ele>566.0</ele><time>2026-04-26T15:10:02.883Z</time></trkpt><trkpt lat="42.2994324" lon="13.5203906"><ele>566.0</ele><time>2026-04-26T15:10:03.883Z</time></trkpt><trkpt lat="42.2993879" lon="13.5204976"><ele>566.0</ele><time>2026-04-26T15:10:04.883Z</time></trkpt><trkpt lat="42.2993535" lon="13.5206073"><ele>566.0</ele><time>2026-04-26T15:10:05.882Z</time></trkpt><trkpt lat="42.299324" lon="13.5207288"><ele>566.0</ele><time>2026-04-26T15:10:06.882Z</time></trkpt><trkpt lat="42.2992949" lon="13.5208457"><ele>566.0</ele><time>2026-04-26T15:10:07.883Z</time></trkpt><trkpt lat="42.2992682" lon="13.5209652"><ele>566.0</ele><time>2026-04-26T15:10:08.883Z</time></trkpt><trkpt lat="42.2992441" lon="13.5210818"><ele>566.0</ele><time>2026-04-26T15:10:09.882Z</time></trkpt><trkpt lat="42.2992144" lon="13.521204"><ele>566.3333333333333</ele><time>2026-04-26T15:10:10.882Z</time></trkpt><trkpt lat="42.2991738" lon="13.5213156"><ele>566.6666666666666</ele><time>2026-04-26T15:10:11.884Z</time></trkpt><trkpt lat="42.2991267" lon="13.5214215"><ele>567.0</ele><time>2026-04-26T15:10:12.884Z</time></trkpt><trkpt lat="42.2990838" lon="13.5215318"><ele>567.3333333333334</ele><time>2026-04-26T15:10:13.884Z</time></trkpt><trkpt lat="42.2990458" lon="13.5216394"><ele>567.6666666666667</ele><time>2026-04-26T15:10:14.883Z</time></trkpt><trkpt lat="42.2990114" lon="13.521737"><ele>568.0</ele><time>2026-04-26T15:10:15.883Z</time></trkpt><trkpt lat="42.2989806" lon="13.5218316"><ele>568.0</ele><time>2026-04-26T15:10:16.884Z</time></trkpt><trkpt lat="42.2989455" lon="13.5219185"><ele>568.0</ele><time>2026-04-26T15:10:17.882Z</time></trkpt><trkpt lat="42.2989119" lon="13.5220041"><ele>568.0</ele><time>2026-04-26T15:10:18.883Z</time></trkpt><trkpt lat="42.2988675" lon="13.522093"><ele>568.0</ele><time>2026-04-26T15:10:19.883Z</time></trkpt><trkpt lat="42.2988253" lon="13.5221783"><ele>568.0</ele><time>2026-04-26T15:10:20.884Z</time></trkpt><trkpt lat="42.2987722" lon="13.5223301"><ele>568.0</ele><time>2026-04-26T15:10:21.884Z</time></trkpt><trkpt lat="42.298721" lon="13.5224539"><ele>567.6</ele><time>2026-04-26T15:10:22.883Z</time></trkpt><trkpt lat="42.2986842" lon="13.5225886"><ele>567.1999999999999</ele><time>2026-04-26T15:10:23.884Z</time></trkpt><trkpt lat="42.2986539" lon="13.5227069"><ele>566.8</ele><time>2026-04-26T15:10:24.882Z</time></trkpt><trkpt lat="42.298631" lon="13.5228344"><ele>566.4</ele><time>2026-04-26T15:10:25.883Z</time></trkpt><trkpt lat="42.2986174" lon="13.5229783"><ele>566.0</ele><time>2026-04-26T15:10:26.883Z</time></trkpt><trkpt lat="42.2986124" lon="13.5231369"><ele>565.75</ele><time>2026-04-26T15:10:27.882Z</time></trkpt><trkpt lat="42.2986132" lon="13.5232985"><ele>565.5</ele><time>2026-04-26T15:10:28.883Z</time></trkpt><trkpt lat="42.2986144" lon="13.5234548"><ele>565.25</ele><time>2026-04-26T15:10:29.884Z</time></trkpt><trkpt lat="42.298619" lon="13.5236118"><ele>565.0</ele><time>2026-04-26T15:10:30.883Z</time></trkpt><trkpt lat="42.2986316" lon="13.5237664"><ele>565.0</ele><time>2026-04-26T15:10:31.883Z</time></trkpt><trkpt lat="42.2986412" lon="13.5239176"><ele>565.0</ele><time>2026-04-26T15:10:32.883Z</time></trkpt><trkpt lat="42.2986405" lon="13.5240694"><ele>565.0</ele><time>2026-04-26T15:10:33.882Z</time></trkpt><trkpt lat="42.298624" lon="13.524226"><ele>565.0</ele><time>2026-04-26T15:10:34.882Z</time></trkpt><trkpt lat="42.2985922" lon="13.5243819"><ele>565.0</ele><time>2026-04-26T15:10:35.882Z</time></trkpt><trkpt lat="42.2985458" lon="13.5245327"><ele>565.0</ele><time>2026-04-26T15:10:36.884Z</time></trkpt><trkpt lat="42.2984802" lon="13.5246786"><ele>565.0</ele><time>2026-04-26T15:10:37.884Z</time></trkpt><trkpt lat="42.2983932" lon="13.5248261"><ele>565.0</ele><time>2026-04-26T15:10:38.882Z</time></trkpt><trkpt lat="42.298313" lon="13.5249596"><ele>565.25</ele><time>2026-04-26T15:10:39.883Z</time></trkpt><trkpt lat="42.2982359" lon="13.5250791"><ele>565.5</ele><time>2026-04-26T15:10:40.884Z</time></trkpt><trkpt lat="42.2981487" lon="13.5251921"><ele>565.75</ele><time>2026-04-26T15:10:41.883Z</time></trkpt><trkpt lat="42.298049" lon="13.5253002"><ele>566.0</ele><time>2026-04-26T15:10:42.882Z</time></trkpt><trkpt lat="42.2979444" lon="13.5254075"><ele>566.25</ele><time>2026-04-26T15:10:43.883Z</time></trkpt><trkpt lat="42.2978504" lon="13.5255136"><ele>566.5</ele><time>2026-04-26T15:10:44.884Z</time></trkpt><trkpt lat="42.2977645" lon="13.5256215"><ele>566.75</ele><time>2026-04-26T15:10:45.882Z</time></trkpt><trkpt lat="42.2976923" lon="13.5257208"><ele>567.0</ele><time>2026-04-26T15:10:46.882Z</time></trkpt><trkpt lat="42.2976076" lon="13.5258209"><ele>567.0</ele><time>2026-04-26T15:10:47.883Z</time></trkpt><trkpt lat="42.2975267" lon="13.525901"><ele>567.0</ele><time>2026-04-26T15:10:48.884Z</time></trkpt><trkpt lat="42.2974403" lon="13.52596"><ele>567.0</ele><time>2026-04-26T15:10:49.883Z</time></trkpt><trkpt lat="42.297353" lon="13.526005"><ele>567.0</ele><time>2026-04-26T15:10:50.883Z</time></trkpt><trkpt lat="42.2972664" lon="13.5260606"><ele>567.0</ele><time>2026-04-26T15:10:51.883Z</time></trkpt><trkpt lat="42.2971805" lon="13.5261312"><ele>566.8000000000001</ele><time>2026-04-26T15:10:52.884Z</time></trkpt><trkpt lat="42.2970961" lon="13.5262271"><ele>566.6</ele><time>2026-04-26T15:10:53.882Z</time></trkpt><trkpt lat="42.2970191" lon="13.5263329"><ele>566.4000000000001</ele><time>2026-04-26T15:10:54.883Z</time></trkpt><trkpt lat="42.2969471" lon="13.5264388"><ele>566.2</ele><time>2026-04-26T15:10:55.883Z</time></trkpt><trkpt lat="42.2968801" lon="13.5265421"><ele>566.0</ele><time>2026-04-26T15:10:56.883Z</time></trkpt><trkpt lat="42.2968163" lon="13.5266314"><ele>566.0</ele><time>2026-04-26T15:10:57.883Z</time></trkpt><trkpt lat="42.2967476" lon="13.5267006"><ele>566.0</ele><time>2026-04-26T15:10:58.883Z</time></trkpt><trkpt lat="42.2966681" lon="13.5267607"><ele>566.0</ele><time>2026-04-26T15:10:59.883Z</time></trkpt><trkpt lat="42.2965722" lon="13.5267924"><ele>566.0</ele><time>2026-04-26T15:11:00.883Z</time></trkpt><trkpt lat="42.2964651" lon="13.5268142"><ele>566.0</ele><time>2026-04-26T15:11:01.882Z</time></trkpt><trkpt lat="42.2963536" lon="13.5268493"><ele>566.0</ele><time>2026-04-26T15:11:02.884Z</time></trkpt><trkpt lat="42.296239" lon="13.5269023"><ele>566.0</ele><time>2026-04-26T15:11:03.883Z</time></trkpt><trkpt lat="42.2961231" lon="13.5269724"><ele>566.0</ele><time>2026-04-26T15:11:04.884Z</time></trkpt><trkpt lat="42.2960104" lon="13.5270562"><ele>566.0</ele><time>2026-04-26T15:11:05.884Z</time></trkpt><trkpt lat="42.2958994" lon="13.5271477"><ele>565.75</ele><time>2026-04-26T15:11:06.882Z</time></trkpt><trkpt lat="42.2957819" lon="13.5272418"><ele>565.5</ele><time>2026-04-26T15:11:07.883Z</time></trkpt><trkpt lat="42.2956657" lon="13.5273398"><ele>565.25</ele><time>2026-04-26T15:11:08.882Z</time></trkpt><trkpt lat="42.2955566" lon="13.5274288"><ele>565.0</ele><time>2026-04-26T15:11:09.883Z</time></trkpt><trkpt lat="42.2954552" lon="13.5275078"><ele>565.8</ele><time>2026-04-26T15:11:10.883Z</time></trkpt><trkpt lat="42.2953588" lon="13.5275814"><ele>566.6</ele><time>2026-04-26T15:11:11.883Z</time></trkpt><trkpt lat="42.2952672" lon="13.5276392"><ele>567.4</ele><time>2026-04-26T15:11:12.883Z</time></trkpt><trkpt lat="42.2951726" lon="13.5276803"><ele>568.2</ele><time>2026-04-26T15:11:13.883Z</time></trkpt><trkpt lat="42.2950724" lon="13.5277054"><ele>569.0</ele><time>2026-04-26T15:11:14.883Z</time></trkpt><trkpt lat="42.294969" lon="13.5277305"><ele>569.0</ele><time>2026-04-26T15:11:15.884Z</time></trkpt><trkpt lat="42.2948671" lon="13.5277544"><ele>569.0</ele><time>2026-04-26T15:11:16.883Z</time></trkpt><trkpt lat="42.2947763" lon="13.5277694"><ele>569.0</ele><time>2026-04-26T15:11:17.884Z</time></trkpt><trkpt lat="42.2946843" lon="13.5277746"><ele>569.0</ele><time>2026-04-26T15:11:18.884Z</time></trkpt><trkpt lat="42.2945924" lon="13.5277883"><ele>569.0</ele><time>2026-04-26T15:11:19.883Z</time></trkpt><trkpt lat="42.2945144" lon="13.5278118"><ele>569.2</ele><time>2026-04-26T15:11:20.883Z</time></trkpt><trkpt lat="42.2944446" lon="13.5278581"><ele>569.4</ele><time>2026-04-26T15:11:21.883Z</time></trkpt><trkpt lat="42.2943756" lon="13.5279327"><ele>569.6</ele><time>2026-04-26T15:11:22.882Z</time></trkpt><trkpt lat="42.2943012" lon="13.5280143"><ele>569.8</ele><time>2026-04-26T15:11:23.882Z</time></trkpt><trkpt lat="42.2942243" lon="13.5281089"><ele>570.0</ele><time>2026-04-26T15:11:24.883Z</time></trkpt><trkpt lat="42.2941426" lon="13.5282098"><ele>569.6</ele><time>2026-04-26T15:11:25.882Z</time></trkpt><trkpt lat="42.2940579" lon="13.5283124"><ele>569.2</ele><time>2026-04-26T15:11:26.882Z</time></trkpt><trkpt lat="42.2939826" lon="13.528416"><ele>568.8</ele><time>2026-04-26T15:11:27.884Z</time></trkpt><trkpt lat="42.2939104" lon="13.5285291"><ele>568.4</ele><time>2026-04-26T15:11:28.883Z</time></trkpt><trkpt lat="42.2938413" lon="13.5286503"><ele>568.0</ele><time>2026-04-26T15:11:29.883Z</time></trkpt><trkpt lat="42.2937784" lon="13.5287707"><ele>567.6</ele><time>2026-04-26T15:11:30.883Z</time></trkpt><trkpt lat="42.2937108" lon="13.5288874"><ele>567.1999999999999</ele><time>2026-04-26T15:11:31.884Z</time></trkpt><trkpt lat="42.2936528" lon="13.5289946"><ele>566.8</ele><time>2026-04-26T15:11:32.883Z</time></trkpt><trkpt lat="42.2936011" lon="13.5290987"><ele>566.4</ele><time>2026-04-26T15:11:33.883Z</time></trkpt><trkpt lat="42.2935528" lon="13.5291927"><ele>566.0</ele><time>2026-04-26T15:11:34.884Z</time></trkpt><trkpt lat="42.2935124" lon="13.5292739"><ele>566.0</ele><time>2026-04-26T15:11:35.883Z</time></trkpt><trkpt lat="42.2934649" lon="13.5293634"><ele>566.0</ele><time>2026-04-26T15:11:37.882Z</time></trkpt><trkpt lat="42.2934594" lon="13.5295023"><ele>566.0</ele><time>2026-04-26T15:11:40.882Z</time></trkpt><trkpt lat="42.2934893" lon="13.5295976"><ele>566.0</ele><time>2026-04-26T15:11:41.883Z</time></trkpt><trkpt lat="42.2935276" lon="13.529728"><ele>566.0</ele><time>2026-04-26T15:11:42.884Z</time></trkpt><trkpt lat="42.2935684" lon="13.5298812"><ele>566.0</ele><time>2026-04-26T15:11:43.884Z</time></trkpt><trkpt lat="42.29361" lon="13.5300558"><ele>566.0</ele><time>2026-04-26T15:11:44.883Z</time></trkpt><trkpt lat="42.293659" lon="13.530249"><ele>566.0</ele><time>2026-04-26T15:11:45.883Z</time></trkpt><trkpt lat="42.2937096" lon="13.5304597"><ele>566.0</ele><time>2026-04-26T15:11:46.884Z</time></trkpt><trkpt lat="42.2937613" lon="13.5306728"><ele>566.0</ele><time>2026-04-26T15:11:47.883Z</time></trkpt><trkpt lat="42.293808" lon="13.5308822"><ele>566.0</ele><time>2026-04-26T15:11:48.883Z</time></trkpt><trkpt lat="42.2938518" lon="13.531077"><ele>566.25</ele><time>2026-04-26T15:11:49.883Z</time></trkpt><trkpt lat="42.2938949" lon="13.5312626"><ele>566.5</ele><time>2026-04-26T15:11:50.882Z</time></trkpt><trkpt lat="42.2939269" lon="13.5314473"><ele>566.75</ele><time>2026-04-26T15:11:51.883Z</time></trkpt><trkpt lat="42.2939681" lon="13.5316193"><ele>567.0</ele><time>2026-04-26T15:11:52.882Z</time></trkpt><trkpt lat="42.2940069" lon="13.5317669"><ele>567.0</ele><time>2026-04-26T15:11:53.883Z</time></trkpt><trkpt lat="42.2940286" lon="13.5318827"><ele>567.0</ele><time>2026-04-26T15:11:54.883Z</time></trkpt><trkpt lat="42.2940284" lon="13.5319752"><ele>567.0</ele><time>2026-04-26T15:11:55.883Z</time></trkpt><trkpt lat="42.2939569" lon="13.5320902"><ele>567.0</ele><time>2026-04-26T15:11:57.882Z</time></trkpt><trkpt lat="42.2938901" lon="13.5321235"><ele>567.0</ele><time>2026-04-26T15:11:58.882Z</time></trkpt><trkpt lat="42.2938235" lon="13.5321968"><ele>567.0</ele><time>2026-04-26T15:11:59.882Z</time></trkpt><trkpt lat="42.2937637" lon="13.5322956"><ele>566.8000000000001</ele><time>2026-04-26T15:12:00.884Z</time></trkpt><trkpt lat="42.2937004" lon="13.5324116"><ele>566.6</ele><time>2026-04-26T15:12:01.884Z</time></trkpt><trkpt lat="42.2936388" lon="13.5325331"><ele>566.4000000000001</ele><time>2026-04-26T15:12:02.882Z</time></trkpt><trkpt lat="42.2935807" lon="13.532644"><ele>566.2</ele><time>2026-04-26T15:12:03.883Z</time></trkpt><trkpt lat="42.2935274" lon="13.5327449"><ele>566.0</ele><time>2026-04-26T15:12:04.882Z</time></trkpt><trkpt lat="42.2934782" lon="13.5328387"><ele>566.2</ele><time>2026-04-26T15:12:05.884Z</time></trkpt><trkpt lat="42.2934311" lon="13.5329269"><ele>566.4000000000001</ele><time>2026-04-26T15:12:06.883Z</time></trkpt><trkpt lat="42.2933782" lon="13.5330272"><ele>566.6</ele><time>2026-04-26T15:12:07.882Z</time></trkpt><trkpt lat="42.2933266" lon="13.5331345"><ele>566.8000000000001</ele><time>2026-04-26T15:12:08.882Z</time></trkpt><trkpt lat="42.2932674" lon="13.5332436"><ele>567.0</ele><time>2026-04-26T15:12:09.883Z</time></trkpt><trkpt lat="42.2932112" lon="13.5333503"><ele>567.0</ele><time>2026-04-26T15:12:10.883Z</time></trkpt><trkpt lat="42.2931629" lon="13.5334489"><ele>567.0</ele><time>2026-04-26T15:12:11.884Z</time></trkpt><trkpt lat="42.2931134" lon="13.5335466"><ele>567.0</ele><time>2026-04-26T15:12:12.884Z</time></trkpt><trkpt lat="42.293068" lon="13.5336462"><ele>567.0</ele><time>2026-04-26T15:12:13.884Z</time></trkpt><trkpt lat="42.2930356" lon="13.5337492"><ele>567.0</ele><time>2026-04-26T15:12:14.883Z</time></trkpt><trkpt lat="42.2930199" lon="13.5338584"><ele>567.0</ele><time>2026-04-26T15:12:15.884Z</time></trkpt><trkpt lat="42.2930215" lon="13.5339706"><ele>567.2</ele><time>2026-04-26T15:12:16.883Z</time></trkpt><trkpt lat="42.2930198" lon="13.5340848"><ele>567.4000000000001</ele><time>2026-04-26T15:12:17.882Z</time></trkpt><trkpt lat="42.2930026" lon="13.5342005"><ele>567.5999999999999</ele><time>2026-04-26T15:12:18.883Z</time></trkpt><trkpt lat="42.2929757" lon="13.5343072"><ele>567.8</ele><time>2026-04-26T15:12:19.883Z</time></trkpt><trkpt lat="42.2929392" lon="13.534426"><ele>568.0</ele><time>2026-04-26T15:12:20.884Z</time></trkpt><trkpt lat="42.2928937" lon="13.5345455"><ele>568.1999999999999</ele><time>2026-04-26T15:12:21.884Z</time></trkpt><trkpt lat="42.2928566" lon="13.5346753"><ele>568.4</ele><time>2026-04-26T15:12:22.883Z</time></trkpt><trkpt lat="42.2928277" lon="13.5348139"><ele>568.5999999999999</ele><time>2026-04-26T15:12:23.883Z</time></trkpt><trkpt lat="42.2928033" lon="13.5349648"><ele>568.8</ele><time>2026-04-26T15:12:24.884Z</time></trkpt><trkpt lat="42.292779" lon="13.5351108"><ele>569.0</ele><time>2026-04-26T15:12:25.883Z</time></trkpt><trkpt lat="42.2927564" lon="13.5352487"><ele>569.0</ele><time>2026-04-26T15:12:26.883Z</time></trkpt><trkpt lat="42.2927345" lon="13.5353684"><ele>569.0</ele><time>2026-04-26T15:12:27.884Z</time></trkpt><trkpt lat="42.2927109" lon="13.535482"><ele>569.0</ele><time>2026-04-26T15:12:28.884Z</time></trkpt><trkpt lat="42.2926893" lon="13.5355964"><ele>569.0</ele><time>2026-04-26T15:12:29.884Z</time></trkpt><trkpt lat="42.2926703" lon="13.5357084"><ele>569.0</ele><time>2026-04-26T15:12:30.884Z</time></trkpt><trkpt lat="42.2926555" lon="13.5358164"><ele>569.0</ele><time>2026-04-26T15:12:31.883Z</time></trkpt><trkpt lat="42.2926407" lon="13.5359284"><ele>569.1666666666666</ele><time>2026-04-26T15:12:32.884Z</time></trkpt><trkpt lat="42.2926321" lon="13.536038"><ele>569.3333333333333</ele><time>2026-04-26T15:12:33.884Z</time></trkpt><trkpt lat="42.2926365" lon="13.5361536"><ele>569.5</ele><time>2026-04-26T15:12:34.884Z</time></trkpt><trkpt lat="42.2926554" lon="13.5362625"><ele>569.6666666666666</ele><time>2026-04-26T15:12:35.883Z</time></trkpt><trkpt lat="42.2926883" lon="13.5363656"><ele>569.8333333333334</ele><time>2026-04-26T15:12:36.884Z</time></trkpt><trkpt lat="42.2927249" lon="13.5364697"><ele>570.0</ele><time>2026-04-26T15:12:37.884Z</time></trkpt><trkpt lat="42.2927528" lon="13.536582"><ele>570.0</ele><time>2026-04-26T15:12:38.882Z</time></trkpt><trkpt lat="42.2927737" lon="13.5367"><ele>570.0</ele><time>2026-04-26T15:12:39.883Z</time></trkpt><trkpt lat="42.2927889" lon="13.536817"><ele>570.0</ele><time>2026-04-26T15:12:40.882Z</time></trkpt><trkpt lat="42.2927893" lon="13.5369272"><ele>570.0</ele><time>2026-04-26T15:12:41.883Z</time></trkpt><trkpt lat="42.2927739" lon="13.5370228"><ele>570.0</ele><time>2026-04-26T15:12:42.884Z</time></trkpt><trkpt lat="42.2927647" lon="13.5371257"><ele>570.0</ele><time>2026-04-26T15:12:43.882Z</time></trkpt><trkpt lat="42.2927586" lon="13.5372323"><ele>570.0</ele><time>2026-04-26T15:12:44.883Z</time></trkpt><trkpt lat="42.2927534" lon="13.5373421"><ele>570.0</ele><time>2026-04-26T15:12:45.882Z</time></trkpt><trkpt lat="42.2927493" lon="13.537444"><ele>570.0</ele><time>2026-04-26T15:12:46.883Z</time></trkpt><trkpt lat="42.2927434" lon="13.5375392"><ele>570.0</ele><time>2026-04-26T15:12:47.883Z</time></trkpt><trkpt lat="42.2927343" lon="13.5376409"><ele>570.0</ele><time>2026-04-26T15:12:48.883Z</time></trkpt><trkpt lat="42.292723" lon="13.5377298"><ele>570.0</ele><time>2026-04-26T15:12:49.882Z</time></trkpt><trkpt lat="42.2926891" lon="13.5378601"><ele>570.1666666666666</ele><time>2026-04-26T15:12:51.882Z</time></trkpt><trkpt lat="42.2926965" lon="13.5379603"><ele>570.3333333333334</ele><time>2026-04-26T15:12:53.882Z</time></trkpt><trkpt lat="42.2927196" lon="13.5380667"><ele>570.5</ele><time>2026-04-26T15:12:56.882Z</time></trkpt><trkpt lat="42.2927509" lon="13.538238"><ele>570.6666666666667</ele><time>2026-04-26T15:13:00.882Z</time></trkpt><trkpt lat="42.2927887" lon="13.5383288"><ele>570.8333333333334</ele><time>2026-04-26T15:13:02.882Z</time></trkpt><trkpt lat="42.2928121" lon="13.538423"><ele>571.0</ele><time>2026-04-26T15:13:04.883Z</time></trkpt><trkpt lat="42.2928099" lon="13.5385798"><ele>571.0</ele><time>2026-04-26T15:13:06.881Z</time></trkpt><trkpt lat="42.2928008" lon="13.5386694"><ele>571.0</ele><time>2026-04-26T15:13:07.882Z</time></trkpt><trkpt lat="42.2927961" lon="13.5388258"><ele>571.0</ele><time>2026-04-26T15:13:09.882Z</time></trkpt><trkpt lat="42.2927989" lon="13.538915"><ele>571.0</ele><time>2026-04-26T15:13:10.882Z</time></trkpt><trkpt lat="42.292803" lon="13.539014"><ele>571.0</ele><time>2026-04-26T15:13:11.882Z</time></trkpt><trkpt lat="42.2927949" lon="13.5391408"><ele>571.0</ele><time>2026-04-26T15:13:12.881Z</time></trkpt><trkpt lat="42.2927719" lon="13.5392938"><ele>572.6666666666667</ele><time>2026-04-26T15:13:13.881Z</time></trkpt><trkpt lat="42.2927264" lon="13.5394634"><ele>574.3333333333334</ele><time>2026-04-26T15:13:14.882Z</time></trkpt><trkpt lat="42.2926634" lon="13.5396523"><ele>576.0</ele><time>2026-04-26T15:13:15.882Z</time></trkpt><trkpt lat="42.292591" lon="13.5398541"><ele>576.3333333333334</ele><time>2026-04-26T15:13:16.883Z</time></trkpt><trkpt lat="42.2925121" lon="13.5400741"><ele>576.6666666666667</ele><time>2026-04-26T15:13:17.882Z</time></trkpt><trkpt lat="42.2924323" lon="13.5402981"><ele>577.0</ele><time>2026-04-26T15:13:18.882Z</time></trkpt><trkpt lat="42.2923602" lon="13.5405019"><ele>576.3333333333334</ele><time>2026-04-26T15:13:19.882Z</time></trkpt><trkpt lat="42.2922899" lon="13.5407013"><ele>575.6666666666666</ele><time>2026-04-26T15:13:20.881Z</time></trkpt><trkpt lat="42.2922271" lon="13.540898"><ele>575.0</ele><time>2026-04-26T15:13:21.882Z</time></trkpt><trkpt lat="42.2921786" lon="13.5410973"><ele>576.3333333333333</ele><time>2026-04-26T15:13:22.881Z</time></trkpt><trkpt lat="42.2921461" lon="13.5413054"><ele>577.6666666666666</ele><time>2026-04-26T15:13:23.882Z</time></trkpt><trkpt lat="42.2921288" lon="13.5415283"><ele>579.0</ele><time>2026-04-26T15:13:24.882Z</time></trkpt><trkpt lat="42.2921229" lon="13.5417589"><ele>579.0</ele><time>2026-04-26T15:13:25.881Z</time></trkpt><trkpt lat="42.2921095" lon="13.5420024"><ele>579.0</ele><time>2026-04-26T15:13:26.883Z</time></trkpt><trkpt lat="42.2920955" lon="13.5422561"><ele>579.0</ele><time>2026-04-26T15:13:27.882Z</time></trkpt><trkpt lat="42.2920833" lon="13.5425171"><ele>579.3333333333334</ele><time>2026-04-26T15:13:28.881Z</time></trkpt><trkpt lat="42.2920598" lon="13.5427814"><ele>579.6666666666667</ele><time>2026-04-26T15:13:29.882Z</time></trkpt><trkpt lat="42.2920238" lon="13.5430208"><ele>580.0</ele><time>2026-04-26T15:13:30.882Z</time></trkpt><trkpt lat="42.2919785" lon="13.5432384"><ele>580.75</ele><time>2026-04-26T15:13:31.882Z</time></trkpt><trkpt lat="42.2919345" lon="13.5434361"><ele>581.5</ele><time>2026-04-26T15:13:32.881Z</time></trkpt><trkpt lat="42.291892" lon="13.5436159"><ele>582.25</ele><time>2026-04-26T15:13:33.881Z</time></trkpt><trkpt lat="42.2918586" lon="13.5437812"><ele>583.0</ele><time>2026-04-26T15:13:34.881Z</time></trkpt><trkpt lat="42.2918229" lon="13.5439452"><ele>584.0</ele><time>2026-04-26T15:13:35.883Z</time></trkpt><trkpt lat="42.2917897" lon="13.5441"><ele>585.0</ele><time>2026-04-26T15:13:36.882Z</time></trkpt><trkpt lat="42.2917577" lon="13.544253"><ele>586.0</ele><time>2026-04-26T15:13:37.882Z</time></trkpt><trkpt lat="42.2917245" lon="13.5444095"><ele>587.0</ele><time>2026-04-26T15:13:38.882Z</time></trkpt><trkpt lat="42.2916776" lon="13.5445703"><ele>587.5</ele><time>2026-04-26T15:13:39.883Z</time></trkpt><trkpt lat="42.2916145" lon="13.5447321"><ele>588.0</ele><time>2026-04-26T15:13:40.883Z</time></trkpt><trkpt lat="42.2915401" lon="13.5449035"><ele>588.5</ele><time>2026-04-26T15:13:41.882Z</time></trkpt><trkpt lat="42.2914623" lon="13.5450839"><ele>589.0</ele><time>2026-04-26T15:13:42.881Z</time></trkpt><trkpt lat="42.2913869" lon="13.5452642"><ele>590.6666666666667</ele><time>2026-04-26T15:13:43.881Z</time></trkpt><trkpt lat="42.2913103" lon="13.5454406"><ele>592.3333333333334</ele><time>2026-04-26T15:13:44.882Z</time></trkpt><trkpt lat="42.2912352" lon="13.5456146"><ele>594.0</ele><time>2026-04-26T15:13:45.881Z</time></trkpt><trkpt lat="42.291159" lon="13.5457903"><ele>594.0</ele><time>2026-04-26T15:13:46.882Z</time></trkpt><trkpt lat="42.2910861" lon="13.5459615"><ele>594.0</ele><time>2026-04-26T15:13:47.882Z</time></trkpt><trkpt lat="42.2910147" lon="13.546132"><ele>594.0</ele><time>2026-04-26T15:13:48.881Z</time></trkpt><trkpt lat="42.2909436" lon="13.5462984"><ele>594.0</ele><time>2026-04-26T15:13:49.882Z</time></trkpt><trkpt lat="42.2908764" lon="13.5464604"><ele>594.5</ele><time>2026-04-26T15:13:50.882Z</time></trkpt><trkpt lat="42.2908098" lon="13.546625"><ele>595.0</ele><time>2026-04-26T15:13:51.881Z</time></trkpt><trkpt lat="42.2907461" lon="13.5467835"><ele>595.5</ele><time>2026-04-26T15:13:52.883Z</time></trkpt><trkpt lat="42.2906809" lon="13.546938"><ele>596.0</ele><time>2026-04-26T15:13:53.881Z</time></trkpt><trkpt lat="42.2906151" lon="13.547089"><ele>596.25</ele><time>2026-04-26T15:13:54.881Z</time></trkpt><trkpt lat="42.2905497" lon="13.5472381"><ele>596.5</ele><time>2026-04-26T15:13:55.881Z</time></trkpt><trkpt lat="42.2904867" lon="13.5473838"><ele>596.75</ele><time>2026-04-26T15:13:56.882Z</time></trkpt><trkpt lat="42.2904275" lon="13.5475268"><ele>597.0</ele><time>2026-04-26T15:13:57.881Z</time></trkpt><trkpt lat="42.2903684" lon="13.5476669"><ele>597.0</ele><time>2026-04-26T15:13:58.882Z</time></trkpt><trkpt lat="42.2903077" lon="13.547807"><ele>597.0</ele><time>2026-04-26T15:13:59.881Z</time></trkpt><trkpt lat="42.2902478" lon="13.547946"><ele>597.0</ele><time>2026-04-26T15:14:00.882Z</time></trkpt><trkpt lat="42.290185" lon="13.548085"><ele>597.0</ele><time>2026-04-26T15:14:01.881Z</time></trkpt><trkpt lat="42.29013" lon="13.5482132"><ele>598.3333333333334</ele><time>2026-04-26T15:14:02.883Z</time></trkpt><trkpt lat="42.2900053" lon="13.5484984"><ele>599.6666666666667</ele><time>2026-04-26T15:14:05.081Z</time></trkpt><trkpt lat="42.2899161" lon="13.5487468"><ele>601.0</ele><time>2026-04-26T15:14:06.881Z</time></trkpt><trkpt lat="42.289849" lon="13.5488761"><ele>601.5</ele><time>2026-04-26T15:14:07.882Z</time></trkpt><trkpt lat="42.2897804" lon="13.5490461"><ele>602.0</ele><time>2026-04-26T15:14:08.882Z</time></trkpt><trkpt lat="42.2897191" lon="13.5491995"><ele>602.5</ele><time>2026-04-26T15:14:09.882Z</time></trkpt><trkpt lat="42.2896527" lon="13.5493583"><ele>603.0</ele><time>2026-04-26T15:14:10.883Z</time></trkpt><trkpt lat="42.2895852" lon="13.5495223"><ele>604.0</ele><time>2026-04-26T15:14:11.883Z</time></trkpt><trkpt lat="42.2895115" lon="13.5496922"><ele>605.0</ele><time>2026-04-26T15:14:12.882Z</time></trkpt><trkpt lat="42.2894346" lon="13.5498676"><ele>606.0</ele><time>2026-04-26T15:14:13.883Z</time></trkpt><trkpt lat="42.2893543" lon="13.550046"><ele>606.0</ele><time>2026-04-26T15:14:14.881Z</time></trkpt><trkpt lat="42.2892747" lon="13.5502301"><ele>606.0</ele><time>2026-04-26T15:14:15.882Z</time></trkpt><trkpt lat="42.2891955" lon="13.5504107"><ele>606.0</ele><time>2026-04-26T15:14:16.881Z</time></trkpt><trkpt lat="42.289116" lon="13.550592"><ele>607.0</ele><time>2026-04-26T15:14:17.882Z</time></trkpt><trkpt lat="42.2890369" lon="13.550767"><ele>608.0</ele><time>2026-04-26T15:14:18.882Z</time></trkpt><trkpt lat="42.2889636" lon="13.550935"><ele>609.0</ele><time>2026-04-26T15:14:19.883Z</time></trkpt><trkpt lat="42.2888955" lon="13.5510949"><ele>610.0</ele><time>2026-04-26T15:14:20.882Z</time></trkpt><trkpt lat="42.2888262" lon="13.5512432"><ele>611.0</ele><time>2026-04-26T15:14:21.881Z</time></trkpt><trkpt lat="42.2887556" lon="13.5513829"><ele>612.0</ele><time>2026-04-26T15:14:22.882Z</time></trkpt><trkpt lat="42.288686" lon="13.5515227"><ele>613.0</ele><time>2026-04-26T15:14:23.882Z</time></trkpt><trkpt lat="42.2886229" lon="13.5516632"><ele>614.0</ele><time>2026-04-26T15:14:24.882Z</time></trkpt><trkpt lat="42.2885709" lon="13.5518075"><ele>614.0</ele><time>2026-04-26T15:14:25.882Z</time></trkpt><trkpt lat="42.2885358" lon="13.5519544"><ele>614.0</ele><time>2026-04-26T15:14:26.881Z</time></trkpt><trkpt lat="42.2885144" lon="13.552097"><ele>614.0</ele><time>2026-04-26T15:14:27.882Z</time></trkpt><trkpt lat="42.2885143" lon="13.5522236"><ele>614.0</ele><time>2026-04-26T15:14:28.882Z</time></trkpt><trkpt lat="42.2885261" lon="13.5523394"><ele>614.0</ele><time>2026-04-26T15:14:29.883Z</time></trkpt><trkpt lat="42.2885514" lon="13.5524452"><ele>614.5</ele><time>2026-04-26T15:14:30.882Z</time></trkpt><trkpt lat="42.2885846" lon="13.5525471"><ele>615.0</ele><time>2026-04-26T15:14:31.881Z</time></trkpt><trkpt lat="42.2886243" lon="13.5526411"><ele>615.5</ele><time>2026-04-26T15:14:32.881Z</time></trkpt><trkpt lat="42.2886672" lon="13.5527393"><ele>616.0</ele><time>2026-04-26T15:14:33.882Z</time></trkpt><trkpt lat="42.2887166" lon="13.5528316"><ele>616.5</ele><time>2026-04-26T15:14:34.881Z</time></trkpt><trkpt lat="42.2887683" lon="13.5529201"><ele>617.0</ele><time>2026-04-26T15:14:35.881Z</time></trkpt><trkpt lat="42.2888199" lon="13.5530155"><ele>617.5</ele><time>2026-04-26T15:14:36.882Z</time></trkpt><trkpt lat="42.2888667" lon="13.5531146"><ele>618.0</ele><time>2026-04-26T15:14:37.882Z</time></trkpt><trkpt lat="42.288921" lon="13.5532097"><ele>618.5</ele><time>2026-04-26T15:14:38.882Z</time></trkpt><trkpt lat="42.2889707" lon="13.5532998"><ele>619.0</ele><time>2026-04-26T15:14:39.882Z</time></trkpt><trkpt lat="42.2890171" lon="13.5533881"><ele>619.5</ele><time>2026-04-26T15:14:40.882Z</time></trkpt><trkpt lat="42.2890677" lon="13.5534827"><ele>620.0</ele><time>2026-04-26T15:14:41.883Z</time></trkpt><trkpt lat="42.2891191" lon="13.5535774"><ele>620.0</ele><time>2026-04-26T15:14:42.881Z</time></trkpt><trkpt lat="42.2891704" lon="13.5536751"><ele>620.0</ele><time>2026-04-26T15:14:43.881Z</time></trkpt><trkpt lat="42.2892155" lon="13.5537812"><ele>620.0</ele><time>2026-04-26T15:14:44.881Z</time></trkpt><trkpt lat="42.2892503" lon="13.5538934"><ele>620.0</ele><time>2026-04-26T15:14:45.881Z</time></trkpt><trkpt lat="42.2892688" lon="13.5540125"><ele>620.0</ele><time>2026-04-26T15:14:46.882Z</time></trkpt><trkpt lat="42.2892735" lon="13.5541312"><ele>620.0</ele><time>2026-04-26T15:14:47.881Z</time></trkpt><trkpt lat="42.2892822" lon="13.5542482"><ele>621.0</ele><time>2026-04-26T15:14:48.883Z</time></trkpt><trkpt lat="42.2892857" lon="13.5543643"><ele>622.0</ele><time>2026-04-26T15:14:49.883Z</time></trkpt><trkpt lat="42.289284" lon="13.5544846"><ele>623.0</ele><time>2026-04-26T15:14:50.881Z</time></trkpt><trkpt lat="42.2892997" lon="13.5546021"><ele>624.0</ele><time>2026-04-26T15:14:51.882Z</time></trkpt><trkpt lat="42.2893015" lon="13.5547286"><ele>625.0</ele><time>2026-04-26T15:14:52.882Z</time></trkpt><trkpt lat="42.2893017" lon="13.5548541"><ele>626.2</ele><time>2026-04-26T15:14:53.881Z</time></trkpt><trkpt lat="42.2893036" lon="13.5549793"><ele>627.4</ele><time>2026-04-26T15:14:54.882Z</time></trkpt><trkpt lat="42.2893098" lon="13.5551097"><ele>628.6</ele><time>2026-04-26T15:14:55.882Z</time></trkpt><trkpt lat="42.2893135" lon="13.5552437"><ele>629.8</ele><time>2026-04-26T15:14:56.881Z</time></trkpt><trkpt lat="42.2893137" lon="13.5553794"><ele>631.0</ele><time>2026-04-26T15:14:57.882Z</time></trkpt><trkpt lat="42.2893175" lon="13.5555161"><ele>632.4</ele><time>2026-04-26T15:14:58.881Z</time></trkpt><trkpt lat="42.289322" lon="13.5556489"><ele>633.8</ele><time>2026-04-26T15:14:59.881Z</time></trkpt><trkpt lat="42.2893265" lon="13.5557821"><ele>635.1999999999999</ele><time>2026-04-26T15:15:00.882Z</time></trkpt><trkpt lat="42.2893309" lon="13.5559156"><ele>636.6</ele><time>2026-04-26T15:15:01.881Z</time></trkpt><trkpt lat="42.2893308" lon="13.5560506"><ele>638.0</ele><time>2026-04-26T15:15:02.882Z</time></trkpt><trkpt lat="42.289327" lon="13.5561807"><ele>638.8333333333333</ele><time>2026-04-26T15:15:03.882Z</time></trkpt><trkpt lat="42.2893136" lon="13.5563048"><ele>639.6666666666666</ele><time>2026-04-26T15:15:04.881Z</time></trkpt><trkpt lat="42.289293" lon="13.5564141"><ele>640.5</ele><time>2026-04-26T15:15:05.883Z</time></trkpt><trkpt lat="42.2892552" lon="13.5564928"><ele>641.3333333333334</ele><time>2026-04-26T15:15:06.882Z</time></trkpt><trkpt lat="42.2892106" lon="13.5565715"><ele>642.1666666666667</ele><time>2026-04-26T15:15:07.882Z</time></trkpt><trkpt lat="42.2891474" lon="13.5566406"><ele>643.0</ele><time>2026-04-26T15:15:08.882Z</time></trkpt><trkpt lat="42.2890716" lon="13.5566895"><ele>643.0</ele><time>2026-04-26T15:15:09.881Z</time></trkpt><trkpt lat="42.2889868" lon="13.5567229"><ele>643.0</ele><time>2026-04-26T15:15:10.882Z</time></trkpt><trkpt lat="42.2888967" lon="13.5567362"><ele>643.0</ele><time>2026-04-26T15:15:11.881Z</time></trkpt><trkpt lat="42.2888025" lon="13.5567386"><ele>643.0</ele><time>2026-04-26T15:15:12.882Z</time></trkpt><trkpt lat="42.28872" lon="13.5567455"><ele>643.0</ele><time>2026-04-26T15:15:13.883Z</time></trkpt><trkpt lat="42.2886536" lon="13.5567416"><ele>643.0</ele><time>2026-04-26T15:15:14.883Z</time></trkpt><trkpt lat="42.2885893" lon="13.5567448"><ele>643.0</ele><time>2026-04-26T15:15:15.882Z</time></trkpt><trkpt lat="42.2885128" lon="13.5568187"><ele>643.0</ele><time>2026-04-26T15:15:17.882Z</time></trkpt><trkpt lat="42.2885478" lon="13.5569442"><ele>643.0</ele><time>2026-04-26T15:15:19.882Z</time></trkpt><trkpt lat="42.2886398" lon="13.5571102"><ele>643.0</ele><time>2026-04-26T15:15:21.882Z</time></trkpt><trkpt lat="42.2886923" lon="13.5571962"><ele>643.0</ele><time>2026-04-26T15:15:22.881Z</time></trkpt><trkpt lat="42.2887398" lon="13.5572756"><ele>644.1666666666667</ele><time>2026-04-26T15:15:23.882Z</time></trkpt><trkpt lat="42.2887829" lon="13.557355"><ele>645.3333333333334</ele><time>2026-04-26T15:15:24.882Z</time></trkpt><trkpt lat="42.2888283" lon="13.5574339"><ele>646.5</ele><time>2026-04-26T15:15:25.881Z</time></trkpt><trkpt lat="42.2888822" lon="13.5575164"><ele>647.6666666666666</ele><time>2026-04-26T15:15:26.882Z</time></trkpt><trkpt lat="42.2889382" lon="13.5575982"><ele>648.8333333333333</ele><time>2026-04-26T15:15:27.883Z</time></trkpt><trkpt lat="42.2889869" lon="13.5576758"><ele>650.0</ele><time>2026-04-26T15:15:28.883Z</time></trkpt><trkpt lat="42.2890461" lon="13.5577377"><ele>650.3333333333333</ele><time>2026-04-26T15:15:29.882Z</time></trkpt><trkpt lat="42.2891125" lon="13.5577541"><ele>650.6666666666666</ele><time>2026-04-26T15:15:30.883Z</time></trkpt><trkpt lat="42.2891814" lon="13.5577772"><ele>651.0</ele><time>2026-04-26T15:15:31.881Z</time></trkpt><trkpt lat="42.2892574" lon="13.557664"><ele>651.3333333333334</ele><time>2026-04-26T15:15:32.883Z</time></trkpt><trkpt lat="42.2893347" lon="13.5576114"><ele>651.6666666666667</ele><time>2026-04-26T15:15:33.882Z</time></trkpt><trkpt lat="42.289421" lon="13.5575549"><ele>652.0</ele><time>2026-04-26T15:15:34.883Z</time></trkpt><trkpt lat="42.2895244" lon="13.5575242"><ele>652.0</ele><time>2026-04-26T15:15:35.882Z</time></trkpt><trkpt lat="42.2896178" lon="13.5575334"><ele>652.0</ele><time>2026-04-26T15:15:36.882Z</time></trkpt><trkpt lat="42.2897071" lon="13.5575847"><ele>652.0</ele><time>2026-04-26T15:15:37.882Z</time></trkpt><trkpt lat="42.2897767" lon="13.5576588"><ele>652.0</ele><time>2026-04-26T15:15:38.881Z</time></trkpt><trkpt lat="42.2898173" lon="13.5577528"><ele>652.0</ele><time>2026-04-26T15:15:39.882Z</time></trkpt><trkpt lat="42.2898198" lon="13.5578583"><ele>652.0</ele><time>2026-04-26T15:15:40.882Z</time></trkpt><trkpt lat="42.2898004" lon="13.5579591"><ele>654.6</ele><time>2026-04-26T15:15:41.883Z</time></trkpt><trkpt lat="42.2897619" lon="13.5580601"><ele>657.2</ele><time>2026-04-26T15:15:42.882Z</time></trkpt><trkpt lat="42.2897027" lon="13.5581418"><ele>659.8</ele><time>2026-04-26T15:15:43.881Z</time></trkpt><trkpt lat="42.2896204" lon="13.5581965"><ele>662.4</ele><time>2026-04-26T15:15:44.883Z</time></trkpt><trkpt lat="42.2895331" lon="13.5582659"><ele>665.0</ele><time>2026-04-26T15:15:45.882Z</time></trkpt><trkpt lat="42.2894473" lon="13.5583479"><ele>665.0</ele><time>2026-04-26T15:15:46.881Z</time></trkpt><trkpt lat="42.289367" lon="13.5584536"><ele>665.0</ele><time>2026-04-26T15:15:47.881Z</time></trkpt><trkpt lat="42.2892914" lon="13.5585968"><ele>665.0</ele><time>2026-04-26T15:15:48.881Z</time></trkpt><trkpt lat="42.289228" lon="13.5587624"><ele>665.0</ele><time>2026-04-26T15:15:49.882Z</time></trkpt><trkpt lat="42.2891688" lon="13.5589503"><ele>666.5</ele><time>2026-04-26T15:15:50.883Z</time></trkpt><trkpt lat="42.2891141" lon="13.5591299"><ele>668.0</ele><time>2026-04-26T15:15:51.881Z</time></trkpt><trkpt lat="42.2890658" lon="13.5592903"><ele>669.5</ele><time>2026-04-26T15:15:52.882Z</time></trkpt><trkpt lat="42.2890277" lon="13.5594371"><ele>671.0</ele><time>2026-04-26T15:15:53.881Z</time></trkpt><trkpt lat="42.2889936" lon="13.5595835"><ele>672.8</ele><time>2026-04-26T15:15:54.882Z</time></trkpt><trkpt lat="42.2889688" lon="13.5597245"><ele>674.5999999999999</ele><time>2026-04-26T15:15:55.883Z</time></trkpt><trkpt lat="42.288953" lon="13.5598632"><ele>676.4</ele><time>2026-04-26T15:15:56.883Z</time></trkpt><trkpt lat="42.2889449" lon="13.5599972"><ele>678.2</ele><time>2026-04-26T15:15:57.881Z</time></trkpt><trkpt lat="42.288941" lon="13.5601191"><ele>680.0</ele><time>2026-04-26T15:15:58.883Z</time></trkpt><trkpt lat="42.2889379" lon="13.5602365"><ele>680.0</ele><time>2026-04-26T15:15:59.881Z</time></trkpt><trkpt lat="42.2889351" lon="13.5603525"><ele>680.0</ele><time>2026-04-26T15:16:00.882Z</time></trkpt><trkpt lat="42.2889313" lon="13.5604554"><ele>680.0</ele><time>2026-04-26T15:16:01.882Z</time></trkpt><trkpt lat="42.2889321" lon="13.5606164"><ele>680.0</ele><time>2026-04-26T15:16:03.881Z</time></trkpt><trkpt lat="42.288936" lon="13.5607411"><ele>680.0</ele><time>2026-04-26T15:16:05.882Z</time></trkpt><trkpt lat="42.2889413" lon="13.5608337"><ele>680.0</ele><time>2026-04-26T15:16:07.882Z</time></trkpt><trkpt lat="42.2889406" lon="13.5609403"><ele>679.8333333333333</ele><time>2026-04-26T15:16:10.882Z</time></trkpt><trkpt lat="42.2889415" lon="13.5610487"><ele>679.6666666666666</ele><time>2026-04-26T15:16:12.881Z</time></trkpt><trkpt lat="42.2889502" lon="13.5611707"><ele>679.5</ele><time>2026-04-26T15:16:14.883Z</time></trkpt><trkpt lat="42.2889713" lon="13.5612695"><ele>679.3333333333334</ele><time>2026-04-26T15:16:16.881Z</time></trkpt><trkpt lat="42.2889609" lon="13.5613546"><ele>679.1666666666667</ele><time>2026-04-26T15:16:19.881Z</time></trkpt><trkpt lat="42.2889804" lon="13.5614363"><ele>679.0</ele><time>2026-04-26T15:16:52.882Z</time></trkpt><trkpt lat="42.2889933" lon="13.5615501"><ele>679.3333333333334</ele><time>2026-04-26T15:16:54.883Z</time></trkpt><trkpt lat="42.2890092" lon="13.5616693"><ele>679.6666666666667</ele><time>2026-04-26T15:16:56.883Z</time></trkpt><trkpt lat="42.2890151" lon="13.5617901"><ele>680.0</ele><time>2026-04-26T15:16:59.881Z</time></trkpt><trkpt lat="42.2889536" lon="13.5618261"><ele>680.3333333333334</ele><time>2026-04-26T15:17:02.882Z</time></trkpt><trkpt lat="42.2888806" lon="13.561852"><ele>680.6666666666666</ele><time>2026-04-26T15:17:05.881Z</time></trkpt><trkpt lat="42.2888107" lon="13.5618792"><ele>681.0</ele><time>2026-04-26T15:17:08.881Z</time></trkpt><trkpt lat="42.2887482" lon="13.5619056"><ele>681.1666666666666</ele><time>2026-04-26T15:17:10.883Z</time></trkpt><trkpt lat="42.2886583" lon="13.5619457"><ele>681.3333333333334</ele><time>2026-04-26T15:17:12.881Z</time></trkpt><trkpt lat="42.2885792" lon="13.5619683"><ele>681.5</ele><time>2026-04-26T15:17:14.881Z</time></trkpt><trkpt lat="42.2885674" lon="13.5620538"><ele>681.6666666666667</ele><time>2026-04-26T15:17:17.882Z</time></trkpt><trkpt lat="42.2886301" lon="13.5619915"><ele>681.8333333333334</ele><time>2026-04-26T15:17:20.882Z</time></trkpt><trkpt lat="42.2887143" lon="13.5619387"><ele>682.0</ele><time>2026-04-26T15:17:22.883Z</time></trkpt><trkpt lat="42.2888169" lon="13.5619033"><ele>682.0</ele><time>2026-04-26T15:17:24.883Z</time></trkpt><trkpt lat="42.2888707" lon="13.5618555"><ele>682.0</ele><time>2026-04-26T15:17:35.882Z</time></trkpt><trkpt lat="42.2889525" lon="13.5618393"><ele>682.0</ele><time>2026-04-26T15:17:49.881Z</time></trkpt><trkpt lat="42.2890098" lon="13.5617959"><ele>682.0</ele><time>2026-04-26T15:17:53.881Z</time></trkpt><trkpt lat="42.288957" lon="13.5617488"><ele>682.0</ele><time>2026-04-26T15:18:00.883Z</time></trkpt><trkpt lat="42.2888884" lon="13.5617602"><ele>682.0</ele><time>2026-04-26T15:20:05.881Z</time></trkpt><trkpt lat="42.288836" lon="13.5617097"><ele>682.0</ele><time>2026-04-26T15:21:49.88Z</time></trkpt><trkpt lat="42.2888102" lon="13.5616263"><ele>682.0</ele><time>2026-04-26T15:22:07.881Z</time></trkpt><trkpt lat="42.2887445" lon="13.5615742"><ele>682.0</ele><time>2026-04-26T15:23:03.881Z</time></trkpt><trkpt lat="42.2888044" lon="13.5615346"><ele>682.0</ele><time>2026-04-26T15:36:39.877Z</time></trkpt></trkseg></trk></gpx>